<?xml version="1.0" encoding="UTF-8" standalone="no" ?>
<gpx xmlns="http://www.topografix.com/GPX/1/1" xmlns:xsi="http://www.w3.org/2001/XMLSchema-instance" xsi:schemaLocation="http://www.topografix.com/GPX/1/1 http://www.topografix.com/GPX/1/1/gpx.xsd" version="1.1" creator="VisuGPX - https://www.visugpx.com">
  <metadata>
    <name>Yssingeaux-Saint Pal aller 05/06</name>
  </metadata>
  <trk>
    <name><![CDATA[Yssingeaux-Saint Pal aller 05/06]]></name>
    <trkseg>
      <trkpt lat="45.14479" lon="4.13938">
        <ele>822.91004580095</ele>
        <time>2021-05-28T11:19:36.000Z</time>
      </trkpt>
      <trkpt lat="45.14414" lon="4.13907">
        <ele>824.60583334079</ele>
        <time>2021-05-28T11:19:36.014Z</time>
      </trkpt>
      <trkpt lat="45.14479" lon="4.13835">
        <ele>826.50927067911</ele>
        <time>2021-05-28T11:19:36.044Z</time>
      </trkpt>
      <trkpt lat="45.14493" lon="4.13773">
        <ele>829.42505006069</ele>
        <time>2021-05-28T11:19:36.083Z</time>
      </trkpt>
      <trkpt lat="45.14497" lon="4.13762">
        <ele>834.93587258041</ele>
        <time>2021-05-28T11:19:36.124Z</time>
      </trkpt>
      <trkpt lat="45.1452" lon="4.13749">
        <ele>837.80262294136</ele>
        <time>2021-05-28T11:19:36.170Z</time>
      </trkpt>
      <trkpt lat="45.14543" lon="4.13737">
        <ele>840.62070807571</ele>
        <time>2021-05-28T11:19:36.221Z</time>
      </trkpt>
      <trkpt lat="45.14546" lon="4.13713">
        <ele>843.97502188972</ele>
        <time>2021-05-28T11:19:36.276Z</time>
      </trkpt>
      <trkpt lat="45.14544" lon="4.13679">
        <ele>847.3071115937</ele>
        <time>2021-05-28T11:19:36.335Z</time>
      </trkpt>
      <trkpt lat="45.14606" lon="4.13574">
        <ele>851.55949175165</ele>
        <time>2021-05-28T11:19:36.414Z</time>
      </trkpt>
      <trkpt lat="45.14646" lon="4.13449">
        <ele>856.34348885054</ele>
        <time>2021-05-28T11:19:36.512Z</time>
      </trkpt>
      <trkpt lat="45.14673" lon="4.13308">
        <ele>860.6522045324</ele>
        <time>2021-05-28T11:19:36.631Z</time>
      </trkpt>
      <trkpt lat="45.14685" lon="4.13149">
        <ele>864.3446214829</ele>
        <time>2021-05-28T11:19:36.772Z</time>
      </trkpt>
      <trkpt lat="45.14692" lon="4.13141">
        <ele>867.25135084529</ele>
        <time>2021-05-28T11:19:36.915Z</time>
      </trkpt>
      <trkpt lat="45.14609" lon="4.12927">
        <ele>869.83727612527</ele>
        <time>2021-05-28T11:19:37.093Z</time>
      </trkpt>
      <trkpt lat="45.14602" lon="4.12906">
        <ele>871.70864972249</ele>
        <time>2021-05-28T11:19:37.274Z</time>
      </trkpt>
      <trkpt lat="45.14621" lon="4.12886">
        <ele>872.94131875605</ele>
        <time>2021-05-28T11:19:37.460Z</time>
      </trkpt>
      <trkpt lat="45.14658" lon="4.1281">
        <ele>873.55735297787</ele>
        <time>2021-05-28T11:19:37.659Z</time>
      </trkpt>
      <trkpt lat="45.14666" lon="4.12784">
        <ele>873.99688655516</ele>
        <time>2021-05-28T11:19:37.862Z</time>
      </trkpt>
      <trkpt lat="45.14649" lon="4.12779">
        <ele>874.0909878115</ele>
        <time>2021-05-28T11:19:38.068Z</time>
      </trkpt>
      <trkpt lat="45.14585" lon="4.12718">
        <ele>874.10133721743</ele>
        <time>2021-05-28T11:19:38.290Z</time>
      </trkpt>
      <trkpt lat="45.14537" lon="4.12672">
        <ele>873.65856486104</ele>
        <time>2021-05-28T11:19:38.523Z</time>
      </trkpt>
      <trkpt lat="45.14516" lon="4.12651">
        <ele>873.07106654317</ele>
        <time>2021-05-28T11:19:38.762Z</time>
      </trkpt>
      <trkpt lat="45.14485" lon="4.12622">
        <ele>872.24719646551</ele>
        <time>2021-05-28T11:19:39.008Z</time>
      </trkpt>
      <trkpt lat="45.1445" lon="4.12598">
        <ele>871.369477776</ele>
        <time>2021-05-28T11:19:39.262Z</time>
      </trkpt>
      <trkpt lat="45.14407" lon="4.12578">
        <ele>869.25785802333</ele>
        <time>2021-05-28T11:19:39.525Z</time>
      </trkpt>
      <trkpt lat="45.14409" lon="4.12557">
        <ele>867.95431548459</ele>
        <time>2021-05-28T11:19:39.791Z</time>
      </trkpt>
      <trkpt lat="45.14415" lon="4.12506">
        <ele>866.33843611971</ele>
        <time>2021-05-28T11:19:40.064Z</time>
      </trkpt>
      <trkpt lat="45.14425" lon="4.12439">
        <ele>863.04127851512</ele>
        <time>2021-05-28T11:19:40.347Z</time>
      </trkpt>
      <trkpt lat="45.14356" lon="4.12427">
        <ele>861.56241197913</ele>
        <time>2021-05-28T11:19:40.644Z</time>
      </trkpt>
      <trkpt lat="45.14348" lon="4.12425">
        <ele>858.5426613394</ele>
        <time>2021-05-28T11:19:40.942Z</time>
      </trkpt>
      <trkpt lat="45.14349" lon="4.12415">
        <ele>857.04506679396</ele>
        <time>2021-05-28T11:19:41.242Z</time>
      </trkpt>
      <trkpt lat="45.14353" lon="4.1237">
        <ele>854.12693928677</ele>
        <time>2021-05-28T11:19:41.548Z</time>
      </trkpt>
      <trkpt lat="45.14352" lon="4.12364">
        <ele>852.66381873304</ele>
        <time>2021-05-28T11:19:41.855Z</time>
      </trkpt>
      <trkpt lat="45.14354" lon="4.12354">
        <ele>851.17636289009</ele>
        <time>2021-05-28T11:19:42.164Z</time>
      </trkpt>
      <trkpt lat="45.14354" lon="4.12349">
        <ele>849.70793413715</ele>
        <time>2021-05-28T11:19:42.473Z</time>
      </trkpt>
      <trkpt lat="45.14354" lon="4.12335">
        <ele>848.21908275996</ele>
        <time>2021-05-28T11:19:42.784Z</time>
      </trkpt>
      <trkpt lat="45.14365" lon="4.12172">
        <ele>846.49820224179</ele>
        <time>2021-05-28T11:19:43.118Z</time>
      </trkpt>
      <trkpt lat="45.14369" lon="4.12101">
        <ele>845.00787931794</ele>
        <time>2021-05-28T11:19:43.463Z</time>
      </trkpt>
      <trkpt lat="45.1438" lon="4.11961">
        <ele>842.99441335913</ele>
        <time>2021-05-28T11:19:43.827Z</time>
      </trkpt>
      <trkpt lat="45.14388" lon="4.11822">
        <ele>840.82478643971</ele>
        <time>2021-05-28T11:19:44.211Z</time>
      </trkpt>
      <trkpt lat="45.14391" lon="4.11818">
        <ele>839.1943527169</ele>
        <time>2021-05-28T11:19:44.596Z</time>
      </trkpt>
      <trkpt lat="45.14396" lon="4.11808">
        <ele>837.64154636401</ele>
        <time>2021-05-28T11:19:44.983Z</time>
      </trkpt>
      <trkpt lat="45.14397" lon="4.11801">
        <ele>836.21685692291</ele>
        <time>2021-05-28T11:19:45.371Z</time>
      </trkpt>
      <trkpt lat="45.144" lon="4.11722">
        <ele>834.76761271917</ele>
        <time>2021-05-28T11:19:45.770Z</time>
      </trkpt>
      <trkpt lat="45.144" lon="4.11712">
        <ele>833.56379963319</ele>
        <time>2021-05-28T11:19:46.170Z</time>
      </trkpt>
      <trkpt lat="45.144" lon="4.11704">
        <ele>832.5180537098</ele>
        <time>2021-05-28T11:19:46.572Z</time>
      </trkpt>
      <trkpt lat="45.14401" lon="4.11696">
        <ele>831.60584982837</ele>
        <time>2021-05-28T11:19:46.975Z</time>
      </trkpt>
      <trkpt lat="45.14405" lon="4.11688">
        <ele>830.80850457561</ele>
        <time>2021-05-28T11:19:47.379Z</time>
      </trkpt>
      <trkpt lat="45.1441" lon="4.11683">
        <ele>830.15042008461</ele>
        <time>2021-05-28T11:19:47.784Z</time>
      </trkpt>
      <trkpt lat="45.14415" lon="4.11677">
        <ele>829.63993084011</ele>
        <time>2021-05-28T11:19:48.191Z</time>
      </trkpt>
      <trkpt lat="45.14421" lon="4.11669">
        <ele>829.25659069422</ele>
        <time>2021-05-28T11:19:48.599Z</time>
      </trkpt>
      <trkpt lat="45.14426" lon="4.11661">
        <ele>828.99379138874</ele>
        <time>2021-05-28T11:19:49.009Z</time>
      </trkpt>
      <trkpt lat="45.1443" lon="4.11653">
        <ele>828.83724790538</ele>
        <time>2021-05-28T11:19:49.420Z</time>
      </trkpt>
      <trkpt lat="45.14461" lon="4.11591">
        <ele>828.58229029665</ele>
        <time>2021-05-28T11:19:49.842Z</time>
      </trkpt>
      <trkpt lat="45.14477" lon="4.11568">
        <ele>828.59331382823</ele>
        <time>2021-05-28T11:19:50.268Z</time>
      </trkpt>
      <trkpt lat="45.14483" lon="4.11562">
        <ele>828.71448862422</ele>
        <time>2021-05-28T11:19:50.696Z</time>
      </trkpt>
      <trkpt lat="45.14532" lon="4.11506">
        <ele>829.0850408177</ele>
        <time>2021-05-28T11:19:51.137Z</time>
      </trkpt>
      <trkpt lat="45.14567" lon="4.11452">
        <ele>829.45455094039</ele>
        <time>2021-05-28T11:19:51.588Z</time>
      </trkpt>
      <trkpt lat="45.14582" lon="4.11435">
        <ele>829.89497407924</ele>
        <time>2021-05-28T11:19:52.043Z</time>
      </trkpt>
      <trkpt lat="45.14586" lon="4.11435">
        <ele>830.31614466531</ele>
        <time>2021-05-28T11:19:52.499Z</time>
      </trkpt>
      <trkpt lat="45.1459" lon="4.11434">
        <ele>830.77922729113</ele>
        <time>2021-05-28T11:19:52.955Z</time>
      </trkpt>
      <trkpt lat="45.14606" lon="4.11428">
        <ele>831.30761709252</ele>
        <time>2021-05-28T11:19:53.415Z</time>
      </trkpt>
      <trkpt lat="45.14609" lon="4.11425">
        <ele>831.852431725</ele>
        <time>2021-05-28T11:19:53.875Z</time>
      </trkpt>
      <trkpt lat="45.14611" lon="4.11423">
        <ele>832.4135196591</ele>
        <time>2021-05-28T11:19:54.336Z</time>
      </trkpt>
      <trkpt lat="45.14612" lon="4.11422">
        <ele>832.98534500552</ele>
        <time>2021-05-28T11:19:54.797Z</time>
      </trkpt>
      <trkpt lat="45.14615" lon="4.11421">
        <ele>833.5789506894</ele>
        <time>2021-05-28T11:19:55.259Z</time>
      </trkpt>
      <trkpt lat="45.14615" lon="4.1142">
        <ele>834.17061454096</ele>
        <time>2021-05-28T11:19:55.721Z</time>
      </trkpt>
      <trkpt lat="45.14616" lon="4.11419">
        <ele>834.77061337698</ele>
        <time>2021-05-28T11:19:56.183Z</time>
      </trkpt>
      <trkpt lat="45.14634" lon="4.11403">
        <ele>835.4307474288</ele>
        <time>2021-05-28T11:19:56.649Z</time>
      </trkpt>
      <trkpt lat="45.14635" lon="4.11404">
        <ele>836.04796827322</ele>
        <time>2021-05-28T11:19:57.116Z</time>
      </trkpt>
      <trkpt lat="45.14637" lon="4.11404">
        <ele>836.67567775724</ele>
        <time>2021-05-28T11:19:57.583Z</time>
      </trkpt>
      <trkpt lat="45.14638" lon="4.11404">
        <ele>837.30365103708</ele>
        <time>2021-05-28T11:19:58.050Z</time>
      </trkpt>
      <trkpt lat="45.1464" lon="4.11405">
        <ele>837.93802865654</ele>
        <time>2021-05-28T11:19:58.518Z</time>
      </trkpt>
      <trkpt lat="45.14642" lon="4.11405">
        <ele>838.57931849127</ele>
        <time>2021-05-28T11:19:58.986Z</time>
      </trkpt>
      <trkpt lat="45.14644" lon="4.11405">
        <ele>839.22582071137</ele>
        <time>2021-05-28T11:19:59.454Z</time>
      </trkpt>
      <trkpt lat="45.14646" lon="4.11404">
        <ele>839.87976321072</ele>
        <time>2021-05-28T11:19:59.923Z</time>
      </trkpt>
      <trkpt lat="45.14648" lon="4.11402">
        <ele>840.54118038204</ele>
        <time>2021-05-28T11:20:00.392Z</time>
      </trkpt>
      <trkpt lat="45.14648" lon="4.114">
        <ele>841.19908534307</ele>
        <time>2021-05-28T11:20:00.862Z</time>
      </trkpt>
      <trkpt lat="45.14648" lon="4.11397">
        <ele>841.86239120109</ele>
        <time>2021-05-28T11:20:01.332Z</time>
      </trkpt>
      <trkpt lat="45.14647" lon="4.11394">
        <ele>842.52360304145</ele>
        <time>2021-05-28T11:20:01.803Z</time>
      </trkpt>
      <trkpt lat="45.14645" lon="4.11392">
        <ele>843.17832867748</ele>
        <time>2021-05-28T11:20:02.274Z</time>
      </trkpt>
      <trkpt lat="45.14643" lon="4.1139">
        <ele>843.82984635377</ele>
        <time>2021-05-28T11:20:02.746Z</time>
      </trkpt>
      <trkpt lat="45.14625" lon="4.1137">
        <ele>844.4540930812</ele>
        <time>2021-05-28T11:20:03.222Z</time>
      </trkpt>
      <trkpt lat="45.14623" lon="4.11365">
        <ele>845.09758854032</ele>
        <time>2021-05-28T11:20:03.699Z</time>
      </trkpt>
      <trkpt lat="45.14623" lon="4.11361">
        <ele>845.72871741791</ele>
        <time>2021-05-28T11:20:04.177Z</time>
      </trkpt>
      <trkpt lat="45.14624" lon="4.11359">
        <ele>846.33703256945</ele>
        <time>2021-05-28T11:20:04.655Z</time>
      </trkpt>
      <trkpt lat="45.14636" lon="4.11331">
        <ele>846.99385070989</ele>
        <time>2021-05-28T11:20:05.137Z</time>
      </trkpt>
      <trkpt lat="45.1466" lon="4.11299">
        <ele>847.75840171951</ele>
        <time>2021-05-28T11:20:05.626Z</time>
      </trkpt>
      <trkpt lat="45.14692" lon="4.11246">
        <ele>848.52137284834</ele>
        <time>2021-05-28T11:20:06.125Z</time>
      </trkpt>
      <trkpt lat="45.14719" lon="4.11207">
        <ele>849.10149957353</ele>
        <time>2021-05-28T11:20:06.632Z</time>
      </trkpt>
      <trkpt lat="45.14774" lon="4.11132">
        <ele>849.64632992003</ele>
        <time>2021-05-28T11:20:07.154Z</time>
      </trkpt>
      <trkpt lat="45.14794" lon="4.11106">
        <ele>849.95872853481</ele>
        <time>2021-05-28T11:20:07.681Z</time>
      </trkpt>
      <trkpt lat="45.14796" lon="4.11064">
        <ele>850.04229778593</ele>
        <time>2021-05-28T11:20:08.214Z</time>
      </trkpt>
      <trkpt lat="45.14816" lon="4.11052">
        <ele>850.17663882677</ele>
        <time>2021-05-28T11:20:08.752Z</time>
      </trkpt>
      <trkpt lat="45.14846" lon="4.11013">
        <ele>850.18965621409</ele>
        <time>2021-05-28T11:20:09.298Z</time>
      </trkpt>
      <trkpt lat="45.14898" lon="4.10936">
        <ele>850.11791080688</ele>
        <time>2021-05-28T11:20:09.859Z</time>
      </trkpt>
      <trkpt lat="45.15098" lon="4.10662">
        <ele>849.74228317081</ele>
        <time>2021-05-28T11:20:10.476Z</time>
      </trkpt>
      <trkpt lat="45.15132" lon="4.10605">
        <ele>849.35254242728</ele>
        <time>2021-05-28T11:20:11.103Z</time>
      </trkpt>
      <trkpt lat="45.15185" lon="4.10558">
        <ele>848.96230786359</ele>
        <time>2021-05-28T11:20:11.743Z</time>
      </trkpt>
      <trkpt lat="45.15275" lon="4.10487">
        <ele>848.30539662791</ele>
        <time>2021-05-28T11:20:12.403Z</time>
      </trkpt>
      <trkpt lat="45.15416" lon="4.104">
        <ele>847.66362708875</ele>
        <time>2021-05-28T11:20:13.094Z</time>
      </trkpt>
      <trkpt lat="45.15513" lon="4.10333">
        <ele>846.79409880229</ele>
        <time>2021-05-28T11:20:13.807Z</time>
      </trkpt>
      <trkpt lat="45.15557" lon="4.1029">
        <ele>845.8023163562</ele>
        <time>2021-05-28T11:20:14.530Z</time>
      </trkpt>
      <trkpt lat="45.156" lon="4.10227">
        <ele>844.81650404232</ele>
        <time>2021-05-28T11:20:15.266Z</time>
      </trkpt>
      <trkpt lat="45.15609" lon="4.10224">
        <ele>843.82132640032</ele>
        <time>2021-05-28T11:20:16.004Z</time>
      </trkpt>
      <trkpt lat="45.15609" lon="4.10222">
        <ele>842.79747165503</ele>
        <time>2021-05-28T11:20:16.742Z</time>
      </trkpt>
      <trkpt lat="45.1561" lon="4.1022">
        <ele>841.71703428176</ele>
        <time>2021-05-28T11:20:17.480Z</time>
      </trkpt>
      <trkpt lat="45.15612" lon="4.10217">
        <ele>840.58708305563</ele>
        <time>2021-05-28T11:20:18.219Z</time>
      </trkpt>
      <trkpt lat="45.15614" lon="4.10215">
        <ele>839.4127214134</ele>
        <time>2021-05-28T11:20:18.958Z</time>
      </trkpt>
      <trkpt lat="45.1564" lon="4.10182">
        <ele>838.16712211251</ele>
        <time>2021-05-28T11:20:19.704Z</time>
      </trkpt>
      <trkpt lat="45.15685" lon="4.10134">
        <ele>836.95394802221</ele>
        <time>2021-05-28T11:20:20.462Z</time>
      </trkpt>
      <trkpt lat="45.15729" lon="4.10068">
        <ele>835.58109828653</ele>
        <time>2021-05-28T11:20:21.232Z</time>
      </trkpt>
      <trkpt lat="45.15772" lon="4.0999">
        <ele>834.10924968244</ele>
        <time>2021-05-28T11:20:22.016Z</time>
      </trkpt>
      <trkpt lat="45.15832" lon="4.09894">
        <ele>832.68636961434</ele>
        <time>2021-05-28T11:20:22.819Z</time>
      </trkpt>
      <trkpt lat="45.15873" lon="4.09819">
        <ele>831.36951461507</ele>
        <time>2021-05-28T11:20:23.635Z</time>
      </trkpt>
      <trkpt lat="45.15894" lon="4.09736">
        <ele>829.77771598918</ele>
        <time>2021-05-28T11:20:24.463Z</time>
      </trkpt>
      <trkpt lat="45.15912" lon="4.09623">
        <ele>828.41497037987</ele>
        <time>2021-05-28T11:20:25.308Z</time>
      </trkpt>
      <trkpt lat="45.1595" lon="4.09515">
        <ele>827.22896175158</ele>
        <time>2021-05-28T11:20:26.170Z</time>
      </trkpt>
      <trkpt lat="45.15954" lon="4.095">
        <ele>825.97613792132</ele>
        <time>2021-05-28T11:20:27.034Z</time>
      </trkpt>
      <trkpt lat="45.15955" lon="4.09493">
        <ele>824.76068930243</ele>
        <time>2021-05-28T11:20:27.899Z</time>
      </trkpt>
      <trkpt lat="45.15956" lon="4.09484">
        <ele>823.57121054486</ele>
        <time>2021-05-28T11:20:28.766Z</time>
      </trkpt>
      <trkpt lat="45.15965" lon="4.09402">
        <ele>822.26085478847</ele>
        <time>2021-05-28T11:20:29.644Z</time>
      </trkpt>
      <trkpt lat="45.15966" lon="4.09392">
        <ele>821.14239368829</ele>
        <time>2021-05-28T11:20:30.524Z</time>
      </trkpt>
      <trkpt lat="45.15967" lon="4.09383">
        <ele>820.07382569947</ele>
        <time>2021-05-28T11:20:31.405Z</time>
      </trkpt>
      <trkpt lat="45.15968" lon="4.09374">
        <ele>819.04608563912</ele>
        <time>2021-05-28T11:20:32.287Z</time>
      </trkpt>
      <trkpt lat="45.1597" lon="4.09365">
        <ele>818.08056108888</ele>
        <time>2021-05-28T11:20:33.171Z</time>
      </trkpt>
      <trkpt lat="45.15986" lon="4.09313">
        <ele>817.07856371393</ele>
        <time>2021-05-28T11:20:34.063Z</time>
      </trkpt>
      <trkpt lat="45.16002" lon="4.09275">
        <ele>816.21946634287</ele>
        <time>2021-05-28T11:20:34.961Z</time>
      </trkpt>
      <trkpt lat="45.16007" lon="4.09266">
        <ele>815.42412165873</ele>
        <time>2021-05-28T11:20:35.860Z</time>
      </trkpt>
      <trkpt lat="45.16012" lon="4.09259">
        <ele>814.69235750753</ele>
        <time>2021-05-28T11:20:36.761Z</time>
      </trkpt>
      <trkpt lat="45.16071" lon="4.09208">
        <ele>813.87771379409</ele>
        <time>2021-05-28T11:20:37.676Z</time>
      </trkpt>
      <trkpt lat="45.16097" lon="4.09193">
        <ele>813.21412555649</ele>
        <time>2021-05-28T11:20:38.596Z</time>
      </trkpt>
      <trkpt lat="45.16119" lon="4.09171">
        <ele>812.596711106</ele>
        <time>2021-05-28T11:20:39.522Z</time>
      </trkpt>
      <trkpt lat="45.16149" lon="4.09128">
        <ele>812.13475366239</ele>
        <time>2021-05-28T11:20:40.456Z</time>
      </trkpt>
      <trkpt lat="45.16153" lon="4.09124">
        <ele>811.78946250692</ele>
        <time>2021-05-28T11:20:41.391Z</time>
      </trkpt>
      <trkpt lat="45.16157" lon="4.09121">
        <ele>811.52404085919</ele>
        <time>2021-05-28T11:20:42.327Z</time>
      </trkpt>
      <trkpt lat="45.16166" lon="4.09115">
        <ele>811.33045467002</ele>
        <time>2021-05-28T11:20:43.265Z</time>
      </trkpt>
      <trkpt lat="45.16193" lon="4.09097">
        <ele>811.25418059093</ele>
        <time>2021-05-28T11:20:44.209Z</time>
      </trkpt>
      <trkpt lat="45.16205" lon="4.09083">
        <ele>811.21396644045</ele>
        <time>2021-05-28T11:20:45.156Z</time>
      </trkpt>
      <trkpt lat="45.16225" lon="4.09055">
        <ele>811.23876966447</ele>
        <time>2021-05-28T11:20:46.109Z</time>
      </trkpt>
      <trkpt lat="45.16227" lon="4.09049">
        <ele>811.28469750139</ele>
        <time>2021-05-28T11:20:47.063Z</time>
      </trkpt>
      <trkpt lat="45.16241" lon="4.09017">
        <ele>811.34591584397</ele>
        <time>2021-05-28T11:20:48.022Z</time>
      </trkpt>
      <trkpt lat="45.16244" lon="4.09012">
        <ele>811.47026033324</ele>
        <time>2021-05-28T11:20:48.982Z</time>
      </trkpt>
      <trkpt lat="45.16248" lon="4.09007">
        <ele>811.62268417574</ele>
        <time>2021-05-28T11:20:49.943Z</time>
      </trkpt>
      <trkpt lat="45.16252" lon="4.09004">
        <ele>811.79520300675</ele>
        <time>2021-05-28T11:20:50.905Z</time>
      </trkpt>
      <trkpt lat="45.16256" lon="4.09001">
        <ele>811.98005247031</ele>
        <time>2021-05-28T11:20:51.868Z</time>
      </trkpt>
      <trkpt lat="45.16261" lon="4.09">
        <ele>812.17303613306</ele>
        <time>2021-05-28T11:20:52.832Z</time>
      </trkpt>
      <trkpt lat="45.16266" lon="4.08998">
        <ele>812.3520955026</ele>
        <time>2021-05-28T11:20:53.797Z</time>
      </trkpt>
      <trkpt lat="45.16307" lon="4.08997">
        <ele>812.5127296136</ele>
        <time>2021-05-28T11:20:54.770Z</time>
      </trkpt>
      <trkpt lat="45.16312" lon="4.08999">
        <ele>812.61631742084</ele>
        <time>2021-05-28T11:20:55.744Z</time>
      </trkpt>
      <trkpt lat="45.16316" lon="4.09004">
        <ele>812.67971377385</ele>
        <time>2021-05-28T11:20:56.719Z</time>
      </trkpt>
      <trkpt lat="45.16319" lon="4.09009">
        <ele>812.68717779898</ele>
        <time>2021-05-28T11:20:57.695Z</time>
      </trkpt>
      <trkpt lat="45.16323" lon="4.09015">
        <ele>812.63104092267</ele>
        <time>2021-05-28T11:20:58.672Z</time>
      </trkpt>
      <trkpt lat="45.16337" lon="4.09034">
        <ele>812.50919922809</ele>
        <time>2021-05-28T11:20:59.653Z</time>
      </trkpt>
      <trkpt lat="45.16341" lon="4.09038">
        <ele>812.28408205666</ele>
        <time>2021-05-28T11:21:00.635Z</time>
      </trkpt>
      <trkpt lat="45.16345" lon="4.09042">
        <ele>811.96851098239</ele>
        <time>2021-05-28T11:21:01.618Z</time>
      </trkpt>
      <trkpt lat="45.16349" lon="4.09044">
        <ele>811.54849958881</ele>
        <time>2021-05-28T11:21:02.602Z</time>
      </trkpt>
      <trkpt lat="45.16354" lon="4.09046">
        <ele>811.03060426402</ele>
        <time>2021-05-28T11:21:03.587Z</time>
      </trkpt>
      <trkpt lat="45.16359" lon="4.09048">
        <ele>810.41278464479</ele>
        <time>2021-05-28T11:21:04.573Z</time>
      </trkpt>
      <trkpt lat="45.16363" lon="4.0905">
        <ele>809.68880156737</ele>
        <time>2021-05-28T11:21:05.560Z</time>
      </trkpt>
      <trkpt lat="45.16385" lon="4.09059">
        <ele>808.86144529828</ele>
        <time>2021-05-28T11:21:06.552Z</time>
      </trkpt>
      <trkpt lat="45.16393" lon="4.09061">
        <ele>807.91196977465</ele>
        <time>2021-05-28T11:21:07.545Z</time>
      </trkpt>
      <trkpt lat="45.16397" lon="4.09061">
        <ele>806.85226561308</ele>
        <time>2021-05-28T11:21:08.539Z</time>
      </trkpt>
      <trkpt lat="45.16402" lon="4.0906">
        <ele>805.68284885186</ele>
        <time>2021-05-28T11:21:09.534Z</time>
      </trkpt>
      <trkpt lat="45.16432" lon="4.09055">
        <ele>804.25156892073</ele>
        <time>2021-05-28T11:21:10.535Z</time>
      </trkpt>
      <trkpt lat="45.16466" lon="4.09056">
        <ele>802.69578328862</ele>
        <time>2021-05-28T11:21:11.543Z</time>
      </trkpt>
      <trkpt lat="45.16495" lon="4.09057">
        <ele>801.06569290051</ele>
        <time>2021-05-28T11:21:12.557Z</time>
      </trkpt>
      <trkpt lat="45.16532" lon="4.09058">
        <ele>799.34100325387</ele>
        <time>2021-05-28T11:21:13.578Z</time>
      </trkpt>
      <trkpt lat="45.16541" lon="4.09057">
        <ele>797.77276143061</ele>
        <time>2021-05-28T11:21:14.601Z</time>
      </trkpt>
      <trkpt lat="45.1655" lon="4.09055">
        <ele>796.18190996797</ele>
        <time>2021-05-28T11:21:15.626Z</time>
      </trkpt>
      <trkpt lat="45.16559" lon="4.09052">
        <ele>794.5923291278</ele>
        <time>2021-05-28T11:21:16.653Z</time>
      </trkpt>
      <trkpt lat="45.1657" lon="4.09045">
        <ele>793.01356759027</ele>
        <time>2021-05-28T11:21:17.682Z</time>
      </trkpt>
      <trkpt lat="45.16577" lon="4.09039">
        <ele>791.39824759601</ele>
        <time>2021-05-28T11:21:18.713Z</time>
      </trkpt>
      <trkpt lat="45.16586" lon="4.09032">
        <ele>789.75125318596</ele>
        <time>2021-05-28T11:21:19.746Z</time>
      </trkpt>
      <trkpt lat="45.16604" lon="4.09016">
        <ele>788.13521568032</ele>
        <time>2021-05-28T11:21:20.783Z</time>
      </trkpt>
      <trkpt lat="45.16639" lon="4.08986">
        <ele>786.45938840756</ele>
        <time>2021-05-28T11:21:21.828Z</time>
      </trkpt>
      <trkpt lat="45.16679" lon="4.08959">
        <ele>784.97189237425</ele>
        <time>2021-05-28T11:21:22.882Z</time>
      </trkpt>
      <trkpt lat="45.16712" lon="4.08942">
        <ele>783.55911749257</ele>
        <time>2021-05-28T11:21:23.943Z</time>
      </trkpt>
      <trkpt lat="45.16745" lon="4.08923">
        <ele>782.06906978462</ele>
        <time>2021-05-28T11:21:25.011Z</time>
      </trkpt>
      <trkpt lat="45.16783" lon="4.08903">
        <ele>780.63337696896</ele>
        <time>2021-05-28T11:21:26.087Z</time>
      </trkpt>
      <trkpt lat="45.16792" lon="4.08899">
        <ele>779.44898068091</ele>
        <time>2021-05-28T11:21:27.165Z</time>
      </trkpt>
      <trkpt lat="45.16805" lon="4.08893">
        <ele>778.35007261091</ele>
        <time>2021-05-28T11:21:28.246Z</time>
      </trkpt>
      <trkpt lat="45.16808" lon="4.08889">
        <ele>777.38857522201</ele>
        <time>2021-05-28T11:21:29.328Z</time>
      </trkpt>
      <trkpt lat="45.16809" lon="4.08884">
        <ele>776.53208051961</ele>
        <time>2021-05-28T11:21:30.410Z</time>
      </trkpt>
      <trkpt lat="45.16807" lon="4.0888">
        <ele>775.79134630345</ele>
        <time>2021-05-28T11:21:31.493Z</time>
      </trkpt>
      <trkpt lat="45.16803" lon="4.08877">
        <ele>775.15899558421</ele>
        <time>2021-05-28T11:21:32.577Z</time>
      </trkpt>
      <trkpt lat="45.16798" lon="4.08875">
        <ele>774.62467436596</ele>
        <time>2021-05-28T11:21:33.662Z</time>
      </trkpt>
      <trkpt lat="45.16793" lon="4.08875">
        <ele>774.18269116673</ele>
        <time>2021-05-28T11:21:34.748Z</time>
      </trkpt>
      <trkpt lat="45.16788" lon="4.08876">
        <ele>773.82305157439</ele>
        <time>2021-05-28T11:21:35.835Z</time>
      </trkpt>
      <trkpt lat="45.16782" lon="4.08877">
        <ele>773.53653274361</ele>
        <time>2021-05-28T11:21:36.923Z</time>
      </trkpt>
      <trkpt lat="45.16777" lon="4.08877">
        <ele>773.3040551636</ele>
        <time>2021-05-28T11:21:38.012Z</time>
      </trkpt>
      <trkpt lat="45.16722" lon="4.08884">
        <ele>773.29974365144</ele>
        <time>2021-05-28T11:21:39.112Z</time>
      </trkpt>
      <trkpt lat="45.16716" lon="4.08884">
        <ele>773.16062367879</ele>
        <time>2021-05-28T11:21:40.214Z</time>
      </trkpt>
      <trkpt lat="45.1671" lon="4.08883">
        <ele>773.04032006431</ele>
        <time>2021-05-28T11:21:41.317Z</time>
      </trkpt>
      <trkpt lat="45.16704" lon="4.0888">
        <ele>772.92503555512</ele>
        <time>2021-05-28T11:21:42.421Z</time>
      </trkpt>
      <trkpt lat="45.167" lon="4.08876">
        <ele>772.81802796499</ele>
        <time>2021-05-28T11:21:43.526Z</time>
      </trkpt>
      <trkpt lat="45.16696" lon="4.08871">
        <ele>772.71481735289</ele>
        <time>2021-05-28T11:21:44.632Z</time>
      </trkpt>
      <trkpt lat="45.16695" lon="4.08864">
        <ele>772.60094169953</ele>
        <time>2021-05-28T11:21:45.739Z</time>
      </trkpt>
      <trkpt lat="45.16696" lon="4.08856">
        <ele>772.46280268388</ele>
        <time>2021-05-28T11:21:46.847Z</time>
      </trkpt>
      <trkpt lat="45.16699" lon="4.0885">
        <ele>772.300135847</ele>
        <time>2021-05-28T11:21:47.956Z</time>
      </trkpt>
      <trkpt lat="45.16704" lon="4.08846">
        <ele>772.14469052041</ele>
        <time>2021-05-28T11:21:49.066Z</time>
      </trkpt>
      <trkpt lat="45.16709" lon="4.08842">
        <ele>771.94833053086</ele>
        <time>2021-05-28T11:21:50.178Z</time>
      </trkpt>
      <trkpt lat="45.16714" lon="4.08839">
        <ele>771.70094021338</ele>
        <time>2021-05-28T11:21:51.291Z</time>
      </trkpt>
      <trkpt lat="45.1672" lon="4.08835">
        <ele>771.42219509995</ele>
        <time>2021-05-28T11:21:52.405Z</time>
      </trkpt>
      <trkpt lat="45.16725" lon="4.08829">
        <ele>771.10134833529</ele>
        <time>2021-05-28T11:21:53.520Z</time>
      </trkpt>
      <trkpt lat="45.16729" lon="4.08823">
        <ele>770.73766206195</ele>
        <time>2021-05-28T11:21:54.636Z</time>
      </trkpt>
      <trkpt lat="45.16753" lon="4.08788">
        <ele>770.14416791341</ele>
        <time>2021-05-28T11:21:55.759Z</time>
      </trkpt>
      <trkpt lat="45.16757" lon="4.08779">
        <ele>769.69047094035</ele>
        <time>2021-05-28T11:21:56.884Z</time>
      </trkpt>
      <trkpt lat="45.16758" lon="4.0877">
        <ele>769.21663229419</ele>
        <time>2021-05-28T11:21:58.010Z</time>
      </trkpt>
      <trkpt lat="45.16758" lon="4.08761">
        <ele>768.72338482722</ele>
        <time>2021-05-28T11:21:59.137Z</time>
      </trkpt>
      <trkpt lat="45.16757" lon="4.08752">
        <ele>768.21767914578</ele>
        <time>2021-05-28T11:22:00.266Z</time>
      </trkpt>
      <trkpt lat="45.16756" lon="4.08742">
        <ele>767.6941092297</ele>
        <time>2021-05-28T11:22:01.396Z</time>
      </trkpt>
      <trkpt lat="45.16755" lon="4.08731">
        <ele>767.17268069731</ele>
        <time>2021-05-28T11:22:02.528Z</time>
      </trkpt>
      <trkpt lat="45.16757" lon="4.0872">
        <ele>766.59097993166</ele>
        <time>2021-05-28T11:22:03.661Z</time>
      </trkpt>
      <trkpt lat="45.16761" lon="4.08711">
        <ele>765.94455908752</ele>
        <time>2021-05-28T11:22:04.796Z</time>
      </trkpt>
      <trkpt lat="45.16766" lon="4.08702">
        <ele>765.34936036581</ele>
        <time>2021-05-28T11:22:05.932Z</time>
      </trkpt>
      <trkpt lat="45.16771" lon="4.08695">
        <ele>764.7310033284</ele>
        <time>2021-05-28T11:22:07.070Z</time>
      </trkpt>
      <trkpt lat="45.16777" lon="4.08688">
        <ele>764.08331347213</ele>
        <time>2021-05-28T11:22:08.209Z</time>
      </trkpt>
      <trkpt lat="45.16783" lon="4.08682">
        <ele>763.38212730979</ele>
        <time>2021-05-28T11:22:09.350Z</time>
      </trkpt>
      <trkpt lat="45.1679" lon="4.08677">
        <ele>762.66644862782</ele>
        <time>2021-05-28T11:22:10.492Z</time>
      </trkpt>
      <trkpt lat="45.16847" lon="4.08628">
        <ele>761.88732235231</ele>
        <time>2021-05-28T11:22:11.648Z</time>
      </trkpt>
      <trkpt lat="45.16888" lon="4.08574">
        <ele>761.22265007873</ele>
        <time>2021-05-28T11:22:12.815Z</time>
      </trkpt>
      <trkpt lat="45.16903" lon="4.0855">
        <ele>760.53211513458</ele>
        <time>2021-05-28T11:22:13.987Z</time>
      </trkpt>
      <trkpt lat="45.16909" lon="4.08544">
        <ele>759.80470459563</ele>
        <time>2021-05-28T11:22:15.160Z</time>
      </trkpt>
      <trkpt lat="45.16915" lon="4.08539">
        <ele>759.0820378646</ele>
        <time>2021-05-28T11:22:16.334Z</time>
      </trkpt>
      <trkpt lat="45.16923" lon="4.08537">
        <ele>758.32951044298</ele>
        <time>2021-05-28T11:22:17.510Z</time>
      </trkpt>
      <trkpt lat="45.16931" lon="4.08538">
        <ele>757.56311742589</ele>
        <time>2021-05-28T11:22:18.688Z</time>
      </trkpt>
      <trkpt lat="45.1694" lon="4.08538">
        <ele>756.80150900817</ele>
        <time>2021-05-28T11:22:19.867Z</time>
      </trkpt>
      <trkpt lat="45.16948" lon="4.08537">
        <ele>756.07591552804</ele>
        <time>2021-05-28T11:22:21.048Z</time>
      </trkpt>
      <trkpt lat="45.16957" lon="4.08535">
        <ele>755.36777285334</ele>
        <time>2021-05-28T11:22:22.231Z</time>
      </trkpt>
      <trkpt lat="45.16965" lon="4.08532">
        <ele>754.70818021272</ele>
        <time>2021-05-28T11:22:23.416Z</time>
      </trkpt>
      <trkpt lat="45.16974" lon="4.08529">
        <ele>754.11142351063</ele>
        <time>2021-05-28T11:22:24.602Z</time>
      </trkpt>
      <trkpt lat="45.17015" lon="4.0851">
        <ele>753.4681171959</ele>
        <time>2021-05-28T11:22:25.797Z</time>
      </trkpt>
      <trkpt lat="45.17021" lon="4.08503">
        <ele>752.92684805212</ele>
        <time>2021-05-28T11:22:26.994Z</time>
      </trkpt>
      <trkpt lat="45.17026" lon="4.08495">
        <ele>752.40771826616</ele>
        <time>2021-05-28T11:22:28.192Z</time>
      </trkpt>
      <trkpt lat="45.17043" lon="4.08454">
        <ele>751.83598901061</ele>
        <time>2021-05-28T11:22:29.397Z</time>
      </trkpt>
      <trkpt lat="45.17056" lon="4.08425">
        <ele>751.32002484549</ele>
        <time>2021-05-28T11:22:30.607Z</time>
      </trkpt>
      <trkpt lat="45.17057" lon="4.08416">
        <ele>750.94652030034</ele>
        <time>2021-05-28T11:22:31.818Z</time>
      </trkpt>
      <trkpt lat="45.17056" lon="4.08409">
        <ele>750.67754063577</ele>
        <time>2021-05-28T11:22:33.030Z</time>
      </trkpt>
      <trkpt lat="45.17053" lon="4.08403">
        <ele>750.45676556151</ele>
        <time>2021-05-28T11:22:34.243Z</time>
      </trkpt>
      <trkpt lat="45.17048" lon="4.08398">
        <ele>750.27230367129</ele>
        <time>2021-05-28T11:22:35.457Z</time>
      </trkpt>
      <trkpt lat="45.17043" lon="4.08394">
        <ele>750.1338693602</ele>
        <time>2021-05-28T11:22:36.672Z</time>
      </trkpt>
      <trkpt lat="45.17037" lon="4.08391">
        <ele>750.04753275526</ele>
        <time>2021-05-28T11:22:37.889Z</time>
      </trkpt>
      <trkpt lat="45.17031" lon="4.08388">
        <ele>749.98795446114</ele>
        <time>2021-05-28T11:22:39.107Z</time>
      </trkpt>
      <trkpt lat="45.17024" lon="4.08386">
        <ele>749.96112505296</ele>
        <time>2021-05-28T11:22:40.326Z</time>
      </trkpt>
      <trkpt lat="45.17004" lon="4.08378">
        <ele>750.03336570055</ele>
        <time>2021-05-28T11:22:41.549Z</time>
      </trkpt>
      <trkpt lat="45.16998" lon="4.08374">
        <ele>749.98714979717</ele>
        <time>2021-05-28T11:22:42.774Z</time>
      </trkpt>
      <trkpt lat="45.16992" lon="4.08369">
        <ele>749.92724334976</ele>
        <time>2021-05-28T11:22:44.000Z</time>
      </trkpt>
      <trkpt lat="45.16986" lon="4.08364">
        <ele>749.86047519011</ele>
        <time>2021-05-28T11:22:45.228Z</time>
      </trkpt>
      <trkpt lat="45.16982" lon="4.08357">
        <ele>749.74434363275</ele>
        <time>2021-05-28T11:22:46.457Z</time>
      </trkpt>
      <trkpt lat="45.16979" lon="4.08349">
        <ele>749.59586673351</ele>
        <time>2021-05-28T11:22:47.687Z</time>
      </trkpt>
      <trkpt lat="45.16976" lon="4.08341">
        <ele>749.44532710178</ele>
        <time>2021-05-28T11:22:48.918Z</time>
      </trkpt>
      <trkpt lat="45.16974" lon="4.08332">
        <ele>749.25874459982</ele>
        <time>2021-05-28T11:22:50.151Z</time>
      </trkpt>
      <trkpt lat="45.16973" lon="4.08322">
        <ele>749.02130258513</ele>
        <time>2021-05-28T11:22:51.385Z</time>
      </trkpt>
      <trkpt lat="45.16974" lon="4.08312">
        <ele>748.81799112943</ele>
        <time>2021-05-28T11:22:52.621Z</time>
      </trkpt>
      <trkpt lat="45.16976" lon="4.08303">
        <ele>748.59003136807</ele>
        <time>2021-05-28T11:22:53.858Z</time>
      </trkpt>
      <trkpt lat="45.16982" lon="4.08296">
        <ele>748.30389928264</ele>
        <time>2021-05-28T11:22:55.097Z</time>
      </trkpt>
      <trkpt lat="45.16988" lon="4.08293">
        <ele>748.01783751612</ele>
        <time>2021-05-28T11:22:56.337Z</time>
      </trkpt>
      <trkpt lat="45.16994" lon="4.08291">
        <ele>747.71032484191</ele>
        <time>2021-05-28T11:22:57.578Z</time>
      </trkpt>
      <trkpt lat="45.17" lon="4.08289">
        <ele>747.38827008338</ele>
        <time>2021-05-28T11:22:58.820Z</time>
      </trkpt>
      <trkpt lat="45.17005" lon="4.08286">
        <ele>747.06914226415</ele>
        <time>2021-05-28T11:23:00.063Z</time>
      </trkpt>
      <trkpt lat="45.17009" lon="4.08279">
        <ele>746.7379919878</ele>
        <time>2021-05-28T11:23:01.308Z</time>
      </trkpt>
      <trkpt lat="45.1701" lon="4.08271">
        <ele>746.4211946422</ele>
        <time>2021-05-28T11:23:02.554Z</time>
      </trkpt>
      <trkpt lat="45.1701" lon="4.08262">
        <ele>746.12758569723</ele>
        <time>2021-05-28T11:23:03.801Z</time>
      </trkpt>
      <trkpt lat="45.17009" lon="4.08253">
        <ele>745.84531396726</ele>
        <time>2021-05-28T11:23:05.049Z</time>
      </trkpt>
      <trkpt lat="45.17007" lon="4.08243">
        <ele>745.54248435724</ele>
        <time>2021-05-28T11:23:06.299Z</time>
      </trkpt>
      <trkpt lat="45.16997" lon="4.08195">
        <ele>745.24625558146</ele>
        <time>2021-05-28T11:23:07.556Z</time>
      </trkpt>
      <trkpt lat="45.16994" lon="4.08186">
        <ele>744.83462241013</ele>
        <time>2021-05-28T11:23:08.814Z</time>
      </trkpt>
      <trkpt lat="45.16972" lon="4.08122">
        <ele>744.22856722422</ele>
        <time>2021-05-28T11:23:10.082Z</time>
      </trkpt>
      <trkpt lat="45.16968" lon="4.08114">
        <ele>743.75948689088</ele>
        <time>2021-05-28T11:23:11.352Z</time>
      </trkpt>
      <trkpt lat="45.16963" lon="4.08108">
        <ele>743.26946590206</ele>
        <time>2021-05-28T11:23:12.623Z</time>
      </trkpt>
      <trkpt lat="45.16936" lon="4.08078">
        <ele>743.00360029643</ele>
        <time>2021-05-28T11:23:13.901Z</time>
      </trkpt>
      <trkpt lat="45.16933" lon="4.0807">
        <ele>742.32918658031</ele>
        <time>2021-05-28T11:23:15.180Z</time>
      </trkpt>
      <trkpt lat="45.16933" lon="4.08061">
        <ele>741.5186281128</ele>
        <time>2021-05-28T11:23:16.460Z</time>
      </trkpt>
      <trkpt lat="45.16936" lon="4.08053">
        <ele>740.58854740288</ele>
        <time>2021-05-28T11:23:17.742Z</time>
      </trkpt>
      <trkpt lat="45.1694" lon="4.08048">
        <ele>739.59089740083</ele>
        <time>2021-05-28T11:23:19.025Z</time>
      </trkpt>
      <trkpt lat="45.16945" lon="4.08044">
        <ele>738.54723932211</ele>
        <time>2021-05-28T11:23:20.309Z</time>
      </trkpt>
      <trkpt lat="45.1695" lon="4.08042">
        <ele>737.45257310867</ele>
        <time>2021-05-28T11:23:21.594Z</time>
      </trkpt>
      <trkpt lat="45.16955" lon="4.0804">
        <ele>736.30100879454</ele>
        <time>2021-05-28T11:23:22.880Z</time>
      </trkpt>
      <trkpt lat="45.16961" lon="4.08036">
        <ele>735.09062114582</ele>
        <time>2021-05-28T11:23:24.167Z</time>
      </trkpt>
      <trkpt lat="45.16966" lon="4.08031">
        <ele>733.86323898688</ele>
        <time>2021-05-28T11:23:25.456Z</time>
      </trkpt>
      <trkpt lat="45.16972" lon="4.08023">
        <ele>732.59205661573</ele>
        <time>2021-05-28T11:23:26.746Z</time>
      </trkpt>
      <trkpt lat="45.16977" lon="4.08014">
        <ele>731.30425869639</ele>
        <time>2021-05-28T11:23:28.038Z</time>
      </trkpt>
      <trkpt lat="45.16981" lon="4.08005">
        <ele>730.01097797912</ele>
        <time>2021-05-28T11:23:29.331Z</time>
      </trkpt>
      <trkpt lat="45.17012" lon="4.07946">
        <ele>728.4999455034</ele>
        <time>2021-05-28T11:23:30.635Z</time>
      </trkpt>
      <trkpt lat="45.17016" lon="4.07937">
        <ele>727.19356521782</ele>
        <time>2021-05-28T11:23:31.940Z</time>
      </trkpt>
      <trkpt lat="45.17037" lon="4.07879">
        <ele>725.88777858901</ele>
        <time>2021-05-28T11:23:33.255Z</time>
      </trkpt>
      <trkpt lat="45.17068" lon="4.07813">
        <ele>724.54838960222</ele>
        <time>2021-05-28T11:23:34.581Z</time>
      </trkpt>
      <trkpt lat="45.17089" lon="4.07761">
        <ele>723.05229044463</ele>
        <time>2021-05-28T11:23:35.915Z</time>
      </trkpt>
      <trkpt lat="45.17102" lon="4.0772">
        <ele>721.75438180139</ele>
        <time>2021-05-28T11:23:37.256Z</time>
      </trkpt>
      <trkpt lat="45.17103" lon="4.0771">
        <ele>720.63577875389</ele>
        <time>2021-05-28T11:23:38.598Z</time>
      </trkpt>
      <trkpt lat="45.17103" lon="4.07701">
        <ele>719.54832916055</ele>
        <time>2021-05-28T11:23:39.941Z</time>
      </trkpt>
      <trkpt lat="45.17101" lon="4.07693">
        <ele>718.5467620507</ele>
        <time>2021-05-28T11:23:41.285Z</time>
      </trkpt>
      <trkpt lat="45.17097" lon="4.07685">
        <ele>717.64050372772</ele>
        <time>2021-05-28T11:23:42.631Z</time>
      </trkpt>
      <trkpt lat="45.17093" lon="4.07677">
        <ele>716.79291989329</ele>
        <time>2021-05-28T11:23:43.978Z</time>
      </trkpt>
      <trkpt lat="45.17089" lon="4.07669">
        <ele>716.00386211826</ele>
        <time>2021-05-28T11:23:45.327Z</time>
      </trkpt>
      <trkpt lat="45.1708" lon="4.07652">
        <ele>715.30864085243</ele>
        <time>2021-05-28T11:23:46.679Z</time>
      </trkpt>
      <trkpt lat="45.17072" lon="4.07631">
        <ele>714.54457510229</ele>
        <time>2021-05-28T11:23:48.034Z</time>
      </trkpt>
      <trkpt lat="45.17067" lon="4.07624">
        <ele>713.89531232994</ele>
        <time>2021-05-28T11:23:49.390Z</time>
      </trkpt>
      <trkpt lat="45.17061" lon="4.07617">
        <ele>713.2993511445</ele>
        <time>2021-05-28T11:23:50.748Z</time>
      </trkpt>
      <trkpt lat="45.17053" lon="4.07611">
        <ele>712.78527899926</ele>
        <time>2021-05-28T11:23:52.108Z</time>
      </trkpt>
      <trkpt lat="45.17046" lon="4.07604">
        <ele>712.28151659678</ele>
        <time>2021-05-28T11:23:53.469Z</time>
      </trkpt>
      <trkpt lat="45.17022" lon="4.07581">
        <ele>711.70497760509</ele>
        <time>2021-05-28T11:23:54.836Z</time>
      </trkpt>
      <trkpt lat="45.17019" lon="4.07577">
        <ele>711.21084238485</ele>
        <time>2021-05-28T11:23:56.204Z</time>
      </trkpt>
      <trkpt lat="45.17016" lon="4.07572">
        <ele>710.72371723257</ele>
        <time>2021-05-28T11:23:57.573Z</time>
      </trkpt>
      <trkpt lat="45.17014" lon="4.07566">
        <ele>710.24936286207</ele>
        <time>2021-05-28T11:23:58.943Z</time>
      </trkpt>
      <trkpt lat="45.17013" lon="4.07559">
        <ele>709.82232569031</ele>
        <time>2021-05-28T11:24:00.314Z</time>
      </trkpt>
      <trkpt lat="45.17013" lon="4.07551">
        <ele>709.42719193451</ele>
        <time>2021-05-28T11:24:01.686Z</time>
      </trkpt>
      <trkpt lat="45.17014" lon="4.07544">
        <ele>709.08075546752</ele>
        <time>2021-05-28T11:24:03.059Z</time>
      </trkpt>
      <trkpt lat="45.17015" lon="4.07535">
        <ele>708.80111260753</ele>
        <time>2021-05-28T11:24:04.433Z</time>
      </trkpt>
      <trkpt lat="45.17017" lon="4.07518">
        <ele>708.56222850757</ele>
        <time>2021-05-28T11:24:05.810Z</time>
      </trkpt>
      <trkpt lat="45.17016" lon="4.07512">
        <ele>708.39883991519</ele>
        <time>2021-05-28T11:24:07.188Z</time>
      </trkpt>
      <trkpt lat="45.17014" lon="4.07506">
        <ele>708.28731078678</ele>
        <time>2021-05-28T11:24:08.567Z</time>
      </trkpt>
      <trkpt lat="45.17012" lon="4.07502">
        <ele>708.20724712426</ele>
        <time>2021-05-28T11:24:09.946Z</time>
      </trkpt>
      <trkpt lat="45.17008" lon="4.07499">
        <ele>708.15385876756</ele>
        <time>2021-05-28T11:24:11.326Z</time>
      </trkpt>
      <trkpt lat="45.17005" lon="4.07497">
        <ele>708.14553431664</ele>
        <time>2021-05-28T11:24:12.707Z</time>
      </trkpt>
      <trkpt lat="45.17002" lon="4.07496">
        <ele>708.17795920596</ele>
        <time>2021-05-28T11:24:14.089Z</time>
      </trkpt>
      <trkpt lat="45.16998" lon="4.07494">
        <ele>708.25838739601</ele>
        <time>2021-05-28T11:24:15.471Z</time>
      </trkpt>
      <trkpt lat="45.16973" lon="4.07487">
        <ele>708.34009939186</ele>
        <time>2021-05-28T11:24:16.859Z</time>
      </trkpt>
      <trkpt lat="45.16951" lon="4.07476">
        <ele>708.59598802158</ele>
        <time>2021-05-28T11:24:18.251Z</time>
      </trkpt>
      <trkpt lat="45.16933" lon="4.07465">
        <ele>708.93232903883</ele>
        <time>2021-05-28T11:24:19.647Z</time>
      </trkpt>
      <trkpt lat="45.16916" lon="4.07457">
        <ele>709.22152418429</ele>
        <time>2021-05-28T11:24:21.047Z</time>
      </trkpt>
      <trkpt lat="45.16915" lon="4.07455">
        <ele>709.5927534398</ele>
        <time>2021-05-28T11:24:22.447Z</time>
      </trkpt>
      <trkpt lat="45.16914" lon="4.07454">
        <ele>710.00473608708</ele>
        <time>2021-05-28T11:24:23.847Z</time>
      </trkpt>
      <trkpt lat="45.16913" lon="4.07453">
        <ele>710.47187751697</ele>
        <time>2021-05-28T11:24:25.248Z</time>
      </trkpt>
      <trkpt lat="45.16911" lon="4.07452">
        <ele>710.98953506759</ele>
        <time>2021-05-28T11:24:26.649Z</time>
      </trkpt>
      <trkpt lat="45.16908" lon="4.07452">
        <ele>711.54543926947</ele>
        <time>2021-05-28T11:24:28.051Z</time>
      </trkpt>
      <trkpt lat="45.16883" lon="4.07437">
        <ele>712.14685207118</ele>
        <time>2021-05-28T11:24:29.458Z</time>
      </trkpt>
      <trkpt lat="45.1687" lon="4.0742">
        <ele>712.97652029278</ele>
        <time>2021-05-28T11:24:30.869Z</time>
      </trkpt>
      <trkpt lat="45.16863" lon="4.07407">
        <ele>713.86919238932</ele>
        <time>2021-05-28T11:24:32.282Z</time>
      </trkpt>
      <trkpt lat="45.16862" lon="4.07405">
        <ele>714.69558000054</ele>
        <time>2021-05-28T11:24:33.695Z</time>
      </trkpt>
      <trkpt lat="45.16862" lon="4.07403">
        <ele>715.57404913818</ele>
        <time>2021-05-28T11:24:35.108Z</time>
      </trkpt>
      <trkpt lat="45.16862" lon="4.07401">
        <ele>716.50617624517</ele>
        <time>2021-05-28T11:24:36.522Z</time>
      </trkpt>
      <trkpt lat="45.16865" lon="4.07401">
        <ele>717.49627658723</ele>
        <time>2021-05-28T11:24:37.936Z</time>
      </trkpt>
      <trkpt lat="45.16882" lon="4.07421">
        <ele>718.36843764952</ele>
        <time>2021-05-28T11:24:39.355Z</time>
      </trkpt>
      <trkpt lat="45.1692" lon="4.07438">
        <ele>719.50943641451</ele>
        <time>2021-05-28T11:24:40.782Z</time>
      </trkpt>
      <trkpt lat="45.16961" lon="4.07443">
        <ele>721.96425485561</ele>
        <time>2021-05-28T11:24:42.217Z</time>
      </trkpt>
      <trkpt lat="45.17001" lon="4.0745">
        <ele>723.33559086233</ele>
        <time>2021-05-28T11:24:43.660Z</time>
      </trkpt>
      <trkpt lat="45.17039" lon="4.07459">
        <ele>724.70671238153</ele>
        <time>2021-05-28T11:24:45.111Z</time>
      </trkpt>
      <trkpt lat="45.17069" lon="4.07431">
        <ele>726.56653180183</ele>
        <time>2021-05-28T11:24:46.569Z</time>
      </trkpt>
      <trkpt lat="45.17097" lon="4.07389">
        <ele>727.91956507943</ele>
        <time>2021-05-28T11:24:48.035Z</time>
      </trkpt>
      <trkpt lat="45.17104" lon="4.07379">
        <ele>729.22096133928</ele>
        <time>2021-05-28T11:24:49.503Z</time>
      </trkpt>
      <trkpt lat="45.17108" lon="4.07375">
        <ele>730.57396213255</ele>
        <time>2021-05-28T11:24:50.972Z</time>
      </trkpt>
      <trkpt lat="45.17113" lon="4.07372">
        <ele>731.94584271146</ele>
        <time>2021-05-28T11:24:52.442Z</time>
      </trkpt>
      <trkpt lat="45.17118" lon="4.0737">
        <ele>733.3384085549</ele>
        <time>2021-05-28T11:24:53.913Z</time>
      </trkpt>
      <trkpt lat="45.17123" lon="4.07369">
        <ele>734.74967179818</ele>
        <time>2021-05-28T11:24:55.385Z</time>
      </trkpt>
      <trkpt lat="45.17127" lon="4.0737">
        <ele>736.18148323338</ele>
        <time>2021-05-28T11:24:56.858Z</time>
      </trkpt>
      <trkpt lat="45.17131" lon="4.0737">
        <ele>737.62642839702</ele>
        <time>2021-05-28T11:24:58.332Z</time>
      </trkpt>
      <trkpt lat="45.17135" lon="4.07371">
        <ele>739.09654234116</ele>
        <time>2021-05-28T11:24:59.807Z</time>
      </trkpt>
      <trkpt lat="45.17178" lon="4.07381">
        <ele>740.62256075294</ele>
        <time>2021-05-28T11:25:01.290Z</time>
      </trkpt>
      <trkpt lat="45.17215" lon="4.07404">
        <ele>742.11597414898</ele>
        <time>2021-05-28T11:25:02.781Z</time>
      </trkpt>
      <trkpt lat="45.17234" lon="4.07445">
        <ele>743.71379884492</ele>
        <time>2021-05-28T11:25:04.279Z</time>
      </trkpt>
      <trkpt lat="45.17256" lon="4.07514">
        <ele>745.35473756343</ele>
        <time>2021-05-28T11:25:05.788Z</time>
      </trkpt>
      <trkpt lat="45.17288" lon="4.07557">
        <ele>747.1964725735</ele>
        <time>2021-05-28T11:25:07.306Z</time>
      </trkpt>
      <trkpt lat="45.17343" lon="4.07591">
        <ele>748.87818597361</ele>
        <time>2021-05-28T11:25:08.836Z</time>
      </trkpt>
      <trkpt lat="45.17384" lon="4.07636">
        <ele>750.5015314819</ele>
        <time>2021-05-28T11:25:10.376Z</time>
      </trkpt>
      <trkpt lat="45.17411" lon="4.07689">
        <ele>752.18911000797</ele>
        <time>2021-05-28T11:25:11.926Z</time>
      </trkpt>
      <trkpt lat="45.17446" lon="4.07728">
        <ele>753.85573943303</ele>
        <time>2021-05-28T11:25:13.484Z</time>
      </trkpt>
      <trkpt lat="45.17501" lon="4.07747">
        <ele>755.60717638053</ele>
        <time>2021-05-28T11:25:15.054Z</time>
      </trkpt>
      <trkpt lat="45.1756" lon="4.0776">
        <ele>757.08585274878</ele>
        <time>2021-05-28T11:25:16.636Z</time>
      </trkpt>
      <trkpt lat="45.17609" lon="4.07772">
        <ele>758.49085738151</ele>
        <time>2021-05-28T11:25:18.228Z</time>
      </trkpt>
      <trkpt lat="45.17662" lon="4.0779">
        <ele>759.96097181371</ele>
        <time>2021-05-28T11:25:19.831Z</time>
      </trkpt>
      <trkpt lat="45.17727" lon="4.07794">
        <ele>761.28196664471</ele>
        <time>2021-05-28T11:25:21.447Z</time>
      </trkpt>
      <trkpt lat="45.17763" lon="4.07797">
        <ele>762.60263372132</ele>
        <time>2021-05-28T11:25:23.070Z</time>
      </trkpt>
      <trkpt lat="45.17768" lon="4.078">
        <ele>763.8913142493</ele>
        <time>2021-05-28T11:25:24.694Z</time>
      </trkpt>
      <trkpt lat="45.17784" lon="4.07808">
        <ele>765.16721480791</ele>
        <time>2021-05-28T11:25:26.321Z</time>
      </trkpt>
      <trkpt lat="45.17785" lon="4.07806">
        <ele>766.40239449307</ele>
        <time>2021-05-28T11:25:27.949Z</time>
      </trkpt>
      <trkpt lat="45.17783" lon="4.078">
        <ele>767.60970153656</ele>
        <time>2021-05-28T11:25:29.578Z</time>
      </trkpt>
      <trkpt lat="45.17786" lon="4.07794">
        <ele>768.78980632459</ele>
        <time>2021-05-28T11:25:31.208Z</time>
      </trkpt>
      <trkpt lat="45.17789" lon="4.07793">
        <ele>769.94112219401</ele>
        <time>2021-05-28T11:25:32.838Z</time>
      </trkpt>
      <trkpt lat="45.17793" lon="4.07794">
        <ele>771.06755573893</ele>
        <time>2021-05-28T11:25:34.469Z</time>
      </trkpt>
      <trkpt lat="45.17797" lon="4.07795">
        <ele>772.16386015573</ele>
        <time>2021-05-28T11:25:36.101Z</time>
      </trkpt>
      <trkpt lat="45.17801" lon="4.07797">
        <ele>773.23836811798</ele>
        <time>2021-05-28T11:25:37.734Z</time>
      </trkpt>
      <trkpt lat="45.17806" lon="4.07799">
        <ele>774.27537261086</ele>
        <time>2021-05-28T11:25:39.368Z</time>
      </trkpt>
      <trkpt lat="45.17834" lon="4.07823">
        <ele>775.39297252238</ele>
        <time>2021-05-28T11:25:41.008Z</time>
      </trkpt>
      <trkpt lat="45.17841" lon="4.07832">
        <ele>776.39329525507</ele>
        <time>2021-05-28T11:25:42.650Z</time>
      </trkpt>
      <trkpt lat="45.17844" lon="4.07837">
        <ele>777.29249560847</ele>
        <time>2021-05-28T11:25:44.293Z</time>
      </trkpt>
      <trkpt lat="45.17847" lon="4.07841">
        <ele>778.1145741063</ele>
        <time>2021-05-28T11:25:45.937Z</time>
      </trkpt>
      <trkpt lat="45.17864" lon="4.07878">
        <ele>778.98230220964</ele>
        <time>2021-05-28T11:25:47.587Z</time>
      </trkpt>
      <trkpt lat="45.1787" lon="4.07912">
        <ele>779.7094580174</ele>
        <time>2021-05-28T11:25:49.242Z</time>
      </trkpt>
      <trkpt lat="45.17874" lon="4.07953">
        <ele>780.34470660962</ele>
        <time>2021-05-28T11:25:50.903Z</time>
      </trkpt>
      <trkpt lat="45.17878" lon="4.07989">
        <ele>780.8189565829</ele>
        <time>2021-05-28T11:25:52.569Z</time>
      </trkpt>
      <trkpt lat="45.1788" lon="4.07995">
        <ele>781.09075081564</ele>
        <time>2021-05-28T11:25:54.236Z</time>
      </trkpt>
      <trkpt lat="45.17882" lon="4.07997">
        <ele>781.20295960574</ele>
        <time>2021-05-28T11:25:55.904Z</time>
      </trkpt>
      <trkpt lat="45.17885" lon="4.07997">
        <ele>781.15952927548</ele>
        <time>2021-05-28T11:25:57.572Z</time>
      </trkpt>
      <trkpt lat="45.17887" lon="4.07997">
        <ele>780.94093349118</ele>
        <time>2021-05-28T11:25:59.241Z</time>
      </trkpt>
      <trkpt lat="45.17889" lon="4.07996">
        <ele>780.54380324439</ele>
        <time>2021-05-28T11:26:00.910Z</time>
      </trkpt>
      <trkpt lat="45.1796" lon="4.0793">
        <ele>780.08474791522</ele>
        <time>2021-05-28T11:26:02.596Z</time>
      </trkpt>
      <trkpt lat="45.18013" lon="4.07917">
        <ele>779.52309395041</ele>
        <time>2021-05-28T11:26:04.293Z</time>
      </trkpt>
      <trkpt lat="45.18074" lon="4.07842">
        <ele>778.51907114432</ele>
        <time>2021-05-28T11:26:06.006Z</time>
      </trkpt>
      <trkpt lat="45.18155" lon="4.07741">
        <ele>776.00871797468</ele>
        <time>2021-05-28T11:26:07.741Z</time>
      </trkpt>
      <trkpt lat="45.18185" lon="4.0766">
        <ele>774.08780879607</ele>
        <time>2021-05-28T11:26:09.488Z</time>
      </trkpt>
      <trkpt lat="45.1822" lon="4.0762">
        <ele>772.25416763751</ele>
        <time>2021-05-28T11:26:11.244Z</time>
      </trkpt>
      <trkpt lat="45.18264" lon="4.07546">
        <ele>770.22680040578</ele>
        <time>2021-05-28T11:26:13.014Z</time>
      </trkpt>
      <trkpt lat="45.18418" lon="4.07391">
        <ele>767.59718785767</ele>
        <time>2021-05-28T11:26:14.822Z</time>
      </trkpt>
      <trkpt lat="45.18459" lon="4.07337">
        <ele>765.42511612942</ele>
        <time>2021-05-28T11:26:16.641Z</time>
      </trkpt>
      <trkpt lat="45.18529" lon="4.07261">
        <ele>761.20897649945</ele>
        <time>2021-05-28T11:26:18.478Z</time>
      </trkpt>
      <trkpt lat="45.18537" lon="4.07258">
        <ele>759.12097172017</ele>
        <time>2021-05-28T11:26:20.316Z</time>
      </trkpt>
      <trkpt lat="45.186" lon="4.07209">
        <ele>757.02964059466</ele>
        <time>2021-05-28T11:26:22.169Z</time>
      </trkpt>
      <trkpt lat="45.18657" lon="4.07149">
        <ele>754.78937564059</ele>
        <time>2021-05-28T11:26:24.036Z</time>
      </trkpt>
      <trkpt lat="45.18708" lon="4.07088">
        <ele>752.49373474752</ele>
        <time>2021-05-28T11:26:25.916Z</time>
      </trkpt>
      <trkpt lat="45.18767" lon="4.07037">
        <ele>750.22034173757</ele>
        <time>2021-05-28T11:26:27.810Z</time>
      </trkpt>
      <trkpt lat="45.18784" lon="4.07023">
        <ele>747.93454016491</ele>
        <time>2021-05-28T11:26:29.708Z</time>
      </trkpt>
      <trkpt lat="45.18789" lon="4.07017">
        <ele>745.61904642558</ele>
        <time>2021-05-28T11:26:31.608Z</time>
      </trkpt>
      <trkpt lat="45.188" lon="4.07008">
        <ele>743.27898655791</ele>
        <time>2021-05-28T11:26:33.510Z</time>
      </trkpt>
      <trkpt lat="45.18797" lon="4.06985">
        <ele>740.72631333577</ele>
        <time>2021-05-28T11:26:35.415Z</time>
      </trkpt>
      <trkpt lat="45.1881" lon="4.06974">
        <ele>738.38350943581</ele>
        <time>2021-05-28T11:26:37.323Z</time>
      </trkpt>
      <trkpt lat="45.18824" lon="4.06963">
        <ele>735.92499301151</ele>
        <time>2021-05-28T11:26:39.235Z</time>
      </trkpt>
      <trkpt lat="45.1883" lon="4.06945">
        <ele>733.40093334179</ele>
        <time>2021-05-28T11:26:41.149Z</time>
      </trkpt>
      <trkpt lat="45.18834" lon="4.06929">
        <ele>730.84513047133</ele>
        <time>2021-05-28T11:26:43.066Z</time>
      </trkpt>
      <trkpt lat="45.18836" lon="4.069">
        <ele>728.18641605056</ele>
        <time>2021-05-28T11:26:44.987Z</time>
      </trkpt>
      <trkpt lat="45.18833" lon="4.06882">
        <ele>725.57109984292</ele>
        <time>2021-05-28T11:26:46.911Z</time>
      </trkpt>
      <trkpt lat="45.18831" lon="4.0686">
        <ele>722.89983530393</ele>
        <time>2021-05-28T11:26:48.838Z</time>
      </trkpt>
      <trkpt lat="45.18822" lon="4.06841">
        <ele>720.18963048983</ele>
        <time>2021-05-28T11:26:50.768Z</time>
      </trkpt>
      <trkpt lat="45.18806" lon="4.06828">
        <ele>717.46098192744</ele>
        <time>2021-05-28T11:26:52.702Z</time>
      </trkpt>
      <trkpt lat="45.18796" lon="4.06797">
        <ele>714.60687493726</ele>
        <time>2021-05-28T11:26:54.640Z</time>
      </trkpt>
      <trkpt lat="45.18763" lon="4.06788">
        <ele>711.80568450207</ele>
        <time>2021-05-28T11:26:56.585Z</time>
      </trkpt>
      <trkpt lat="45.18735" lon="4.06788">
        <ele>709.04334739048</ele>
        <time>2021-05-28T11:26:58.536Z</time>
      </trkpt>
      <trkpt lat="45.18735" lon="4.06762">
        <ele>706.13756357379</ele>
        <time>2021-05-28T11:27:00.490Z</time>
      </trkpt>
      <trkpt lat="45.18742" lon="4.06732">
        <ele>703.13955729586</ele>
        <time>2021-05-28T11:27:02.449Z</time>
      </trkpt>
      <trkpt lat="45.18753" lon="4.06703">
        <ele>700.15387454549</ele>
        <time>2021-05-28T11:27:04.413Z</time>
      </trkpt>
      <trkpt lat="45.18762" lon="4.06677">
        <ele>697.12833927553</ele>
        <time>2021-05-28T11:27:06.381Z</time>
      </trkpt>
      <trkpt lat="45.18778" lon="4.06664">
        <ele>694.18400826812</ele>
        <time>2021-05-28T11:27:08.352Z</time>
      </trkpt>
      <trkpt lat="45.18798" lon="4.06645">
        <ele>691.29565172671</ele>
        <time>2021-05-28T11:27:10.328Z</time>
      </trkpt>
      <trkpt lat="45.18815" lon="4.06626">
        <ele>688.38152066577</ele>
        <time>2021-05-28T11:27:12.309Z</time>
      </trkpt>
      <trkpt lat="45.18821" lon="4.0661">
        <ele>685.39695520973</ele>
        <time>2021-05-28T11:27:14.292Z</time>
      </trkpt>
      <trkpt lat="45.18827" lon="4.0657">
        <ele>682.22551807537</ele>
        <time>2021-05-28T11:27:16.281Z</time>
      </trkpt>
      <trkpt lat="45.18822" lon="4.06546">
        <ele>679.20770971626</ele>
        <time>2021-05-28T11:27:18.273Z</time>
      </trkpt>
      <trkpt lat="45.18802" lon="4.06537">
        <ele>676.24856793881</ele>
        <time>2021-05-28T11:27:20.270Z</time>
      </trkpt>
      <trkpt lat="45.1879" lon="4.06528">
        <ele>673.31116464077</ele>
        <time>2021-05-28T11:27:22.269Z</time>
      </trkpt>
      <trkpt lat="45.18782" lon="4.06503">
        <ele>670.35624557683</ele>
        <time>2021-05-28T11:27:24.272Z</time>
      </trkpt>
      <trkpt lat="45.18779" lon="4.06452">
        <ele>667.46252580305</ele>
        <time>2021-05-28T11:27:26.282Z</time>
      </trkpt>
      <trkpt lat="45.18775" lon="4.06406">
        <ele>664.62355327657</ele>
        <time>2021-05-28T11:27:28.299Z</time>
      </trkpt>
      <trkpt lat="45.18755" lon="4.06353">
        <ele>661.65029164644</ele>
        <time>2021-05-28T11:27:30.324Z</time>
      </trkpt>
      <trkpt lat="45.18735" lon="4.06314">
        <ele>658.78048831884</ele>
        <time>2021-05-28T11:27:32.356Z</time>
      </trkpt>
      <trkpt lat="45.18713" lon="4.06286">
        <ele>656.11567665728</ele>
        <time>2021-05-28T11:27:34.394Z</time>
      </trkpt>
      <trkpt lat="45.18704" lon="4.06272">
        <ele>653.75018054519</ele>
        <time>2021-05-28T11:27:36.435Z</time>
      </trkpt>
      <trkpt lat="45.18704" lon="4.06258">
        <ele>651.45643471156</ele>
        <time>2021-05-28T11:27:38.478Z</time>
      </trkpt>
      <trkpt lat="45.18729" lon="4.0625">
        <ele>649.15527849399</ele>
        <time>2021-05-28T11:27:40.526Z</time>
      </trkpt>
      <trkpt lat="45.18766" lon="4.06242">
        <ele>646.81180064676</ele>
        <time>2021-05-28T11:27:42.582Z</time>
      </trkpt>
      <trkpt lat="45.18815" lon="4.06243">
        <ele>644.82063996899</ele>
        <time>2021-05-28T11:27:44.647Z</time>
      </trkpt>
      <trkpt lat="45.18826" lon="4.06235">
        <ele>642.97777550367</ele>
        <time>2021-05-28T11:27:46.715Z</time>
      </trkpt>
      <trkpt lat="45.18822" lon="4.06221">
        <ele>641.17938371939</ele>
        <time>2021-05-28T11:27:48.785Z</time>
      </trkpt>
      <trkpt lat="45.18811" lon="4.06209">
        <ele>639.51194579162</ele>
        <time>2021-05-28T11:27:50.858Z</time>
      </trkpt>
      <trkpt lat="45.1881" lon="4.06201">
        <ele>637.9560592827</ele>
        <time>2021-05-28T11:27:52.932Z</time>
      </trkpt>
      <trkpt lat="45.18818" lon="4.06198">
        <ele>636.56858901113</ele>
        <time>2021-05-28T11:27:55.007Z</time>
      </trkpt>
      <trkpt lat="45.18826" lon="4.06205">
        <ele>635.39176558578</ele>
        <time>2021-05-28T11:27:57.084Z</time>
      </trkpt>
      <trkpt lat="45.18831" lon="4.06196">
        <ele>634.17272532185</ele>
        <time>2021-05-28T11:27:59.163Z</time>
      </trkpt>
      <trkpt lat="45.18826" lon="4.06178">
        <ele>632.83450590393</ele>
        <time>2021-05-28T11:28:01.245Z</time>
      </trkpt>
      <trkpt lat="45.18822" lon="4.06163">
        <ele>631.64299061921</ele>
        <time>2021-05-28T11:28:03.329Z</time>
      </trkpt>
      <trkpt lat="45.18839" lon="4.06122">
        <ele>630.49168140163</ele>
        <time>2021-05-28T11:28:05.420Z</time>
      </trkpt>
      <trkpt lat="45.18868" lon="4.06078">
        <ele>629.46739908081</ele>
        <time>2021-05-28T11:28:07.519Z</time>
      </trkpt>
      <trkpt lat="45.18905" lon="4.0603">
        <ele>628.29566267568</ele>
        <time>2021-05-28T11:28:09.628Z</time>
      </trkpt>
      <trkpt lat="45.18915" lon="4.06011">
        <ele>627.26992336712</ele>
        <time>2021-05-28T11:28:11.741Z</time>
      </trkpt>
      <trkpt lat="45.18933" lon="4.05942">
        <ele>626.15200746399</ele>
        <time>2021-05-28T11:28:13.864Z</time>
      </trkpt>
      <trkpt lat="45.18957" lon="4.05871">
        <ele>624.97806102937</ele>
        <time>2021-05-28T11:28:15.998Z</time>
      </trkpt>
      <trkpt lat="45.18975" lon="4.0584">
        <ele>623.90150674836</ele>
        <time>2021-05-28T11:28:18.138Z</time>
      </trkpt>
      <trkpt lat="45.18995" lon="4.05798">
        <ele>622.8119592878</ele>
        <time>2021-05-28T11:28:20.285Z</time>
      </trkpt>
      <trkpt lat="45.19011" lon="4.05748">
        <ele>621.69932248616</ele>
        <time>2021-05-28T11:28:22.440Z</time>
      </trkpt>
      <trkpt lat="45.19046" lon="4.05701">
        <ele>620.54918812169</ele>
        <time>2021-05-28T11:28:24.604Z</time>
      </trkpt>
      <trkpt lat="45.19071" lon="4.05671">
        <ele>619.39354183859</ele>
        <time>2021-05-28T11:28:26.775Z</time>
      </trkpt>
      <trkpt lat="45.19114" lon="4.05648">
        <ele>618.12332371021</ele>
        <time>2021-05-28T11:28:28.955Z</time>
      </trkpt>
      <trkpt lat="45.19132" lon="4.05642">
        <ele>616.46021535384</ele>
        <time>2021-05-28T11:28:31.139Z</time>
      </trkpt>
      <trkpt lat="45.19147" lon="4.05632">
        <ele>614.58493147485</ele>
        <time>2021-05-28T11:28:33.326Z</time>
      </trkpt>
      <trkpt lat="45.19167" lon="4.0561">
        <ele>612.53588551215</ele>
        <time>2021-05-28T11:28:35.518Z</time>
      </trkpt>
      <trkpt lat="45.19211" lon="4.0556">
        <ele>610.25098376575</ele>
        <time>2021-05-28T11:28:37.722Z</time>
      </trkpt>
      <trkpt lat="45.19256" lon="4.0549">
        <ele>607.35895033489</ele>
        <time>2021-05-28T11:28:39.939Z</time>
      </trkpt>
      <trkpt lat="45.19306" lon="4.05413">
        <ele>604.02290250104</ele>
        <time>2021-05-28T11:28:42.171Z</time>
      </trkpt>
      <trkpt lat="45.19327" lon="4.05344">
        <ele>600.53480590725</ele>
        <time>2021-05-28T11:28:44.413Z</time>
      </trkpt>
      <trkpt lat="45.19341" lon="4.05329">
        <ele>597.01089815981</ele>
        <time>2021-05-28T11:28:46.659Z</time>
      </trkpt>
      <trkpt lat="45.19373" lon="4.05327">
        <ele>593.17698658774</ele>
        <time>2021-05-28T11:28:48.911Z</time>
      </trkpt>
      <trkpt lat="45.19403" lon="4.05332">
        <ele>589.24858077507</ele>
        <time>2021-05-28T11:28:51.169Z</time>
      </trkpt>
      <trkpt lat="45.19435" lon="4.05319">
        <ele>585.2094168757</ele>
        <time>2021-05-28T11:28:53.434Z</time>
      </trkpt>
      <trkpt lat="45.19476" lon="4.05262">
        <ele>581.22690039129</ele>
        <time>2021-05-28T11:28:55.710Z</time>
      </trkpt>
      <trkpt lat="45.19518" lon="4.05181">
        <ele>576.29726961025</ele>
        <time>2021-05-28T11:28:58.001Z</time>
      </trkpt>
      <trkpt lat="45.19538" lon="4.05115">
        <ele>571.57516719717</ele>
        <time>2021-05-28T11:29:00.302Z</time>
      </trkpt>
      <trkpt lat="45.1957" lon="4.05045">
        <ele>566.48336726842</ele>
        <time>2021-05-28T11:29:02.615Z</time>
      </trkpt>
      <trkpt lat="45.1961" lon="4.04999">
        <ele>561.3026499301</ele>
        <time>2021-05-28T11:29:04.938Z</time>
      </trkpt>
      <trkpt lat="45.19678" lon="4.04952">
        <ele>556.65259358389</ele>
        <time>2021-05-28T11:29:07.276Z</time>
      </trkpt>
      <trkpt lat="45.19729" lon="4.04891">
        <ele>551.69908614552</ele>
        <time>2021-05-28T11:29:09.627Z</time>
      </trkpt>
      <trkpt lat="45.1976" lon="4.04822">
        <ele>547.07361203808</ele>
        <time>2021-05-28T11:29:11.990Z</time>
      </trkpt>
      <trkpt lat="45.19776" lon="4.04722">
        <ele>542.10238335818</ele>
        <time>2021-05-28T11:29:14.368Z</time>
      </trkpt>
      <trkpt lat="45.19781" lon="4.04664">
        <ele>537.33587471705</ele>
        <time>2021-05-28T11:29:16.754Z</time>
      </trkpt>
      <trkpt lat="45.19852" lon="4.0455">
        <ele>532.9626516091</ele>
        <time>2021-05-28T11:29:19.161Z</time>
      </trkpt>
      <trkpt lat="45.19852" lon="4.04529">
        <ele>529.35835707789</ele>
        <time>2021-05-28T11:29:21.571Z</time>
      </trkpt>
      <trkpt lat="45.19827" lon="4.04473">
        <ele>526.2099475433</ele>
        <time>2021-05-28T11:29:23.991Z</time>
      </trkpt>
      <trkpt lat="45.1988" lon="4.04537">
        <ele>522.88737328503</ele>
        <time>2021-05-28T11:29:26.425Z</time>
      </trkpt>
      <trkpt lat="45.19885" lon="4.04558">
        <ele>520.37632295851</ele>
        <time>2021-05-28T11:29:28.862Z</time>
      </trkpt>
      <trkpt lat="45.19885" lon="4.04595">
        <ele>518.5582250964</ele>
        <time>2021-05-28T11:29:31.304Z</time>
      </trkpt>
      <trkpt lat="45.19893" lon="4.04618">
        <ele>516.99104690663</ele>
        <time>2021-05-28T11:29:33.750Z</time>
      </trkpt>
      <trkpt lat="45.1991" lon="4.0463">
        <ele>515.59375793265</ele>
        <time>2021-05-28T11:29:36.199Z</time>
      </trkpt>
      <trkpt lat="45.19931" lon="4.04632">
        <ele>514.43957146562</ele>
        <time>2021-05-28T11:29:38.653Z</time>
      </trkpt>
      <trkpt lat="45.19946" lon="4.04618">
        <ele>513.34109988063</ele>
        <time>2021-05-28T11:29:41.110Z</time>
      </trkpt>
      <trkpt lat="45.19971" lon="4.04587">
        <ele>512.42224802051</ele>
        <time>2021-05-28T11:29:43.574Z</time>
      </trkpt>
      <trkpt lat="45.20005" lon="4.04565">
        <ele>512.03163592614</ele>
        <time>2021-05-28T11:29:46.045Z</time>
      </trkpt>
      <trkpt lat="45.2003" lon="4.04565">
        <ele>511.88104876598</ele>
        <time>2021-05-28T11:29:48.521Z</time>
      </trkpt>
      <trkpt lat="45.20062" lon="4.04587">
        <ele>511.933743845</ele>
        <time>2021-05-28T11:29:51.004Z</time>
      </trkpt>
      <trkpt lat="45.20069" lon="4.04601">
        <ele>512.37303359039</ele>
        <time>2021-05-28T11:29:53.490Z</time>
      </trkpt>
      <trkpt lat="45.201" lon="4.04641">
        <ele>512.97187554209</ele>
        <time>2021-05-28T11:29:55.984Z</time>
      </trkpt>
      <trkpt lat="45.20121" lon="4.0466">
        <ele>513.41438433337</ele>
        <time>2021-05-28T11:29:58.483Z</time>
      </trkpt>
      <trkpt lat="45.20144" lon="4.04676">
        <ele>514.14726490676</ele>
        <time>2021-05-28T11:30:00.987Z</time>
      </trkpt>
      <trkpt lat="45.20173" lon="4.04683">
        <ele>515.05433393327</ele>
        <time>2021-05-28T11:30:03.497Z</time>
      </trkpt>
      <trkpt lat="45.20183" lon="4.04692">
        <ele>516.18220220513</ele>
        <time>2021-05-28T11:30:06.010Z</time>
      </trkpt>
      <trkpt lat="45.20191" lon="4.04708">
        <ele>517.46661120708</ele>
        <time>2021-05-28T11:30:08.525Z</time>
      </trkpt>
      <trkpt lat="45.20204" lon="4.04712">
        <ele>518.61547146211</ele>
        <time>2021-05-28T11:30:11.043Z</time>
      </trkpt>
      <trkpt lat="45.20218" lon="4.04703">
        <ele>519.58610265602</ele>
        <time>2021-05-28T11:30:13.564Z</time>
      </trkpt>
      <trkpt lat="45.20231" lon="4.04712">
        <ele>520.84433866066</ele>
        <time>2021-05-28T11:30:16.088Z</time>
      </trkpt>
      <trkpt lat="45.2026" lon="4.04728">
        <ele>522.35501373273</ele>
        <time>2021-05-28T11:30:18.618Z</time>
      </trkpt>
      <trkpt lat="45.20306" lon="4.0474">
        <ele>523.76140319073</ele>
        <time>2021-05-28T11:30:21.158Z</time>
      </trkpt>
      <trkpt lat="45.20347" lon="4.0474">
        <ele>524.81119370483</ele>
        <time>2021-05-28T11:30:23.706Z</time>
      </trkpt>
      <trkpt lat="45.20376" lon="4.04733">
        <ele>525.82236459864</ele>
        <time>2021-05-28T11:30:26.260Z</time>
      </trkpt>
      <trkpt lat="45.20387" lon="4.04733">
        <ele>526.74897296081</ele>
        <time>2021-05-28T11:30:28.816Z</time>
      </trkpt>
      <trkpt lat="45.20403" lon="4.04729">
        <ele>527.49967882849</ele>
        <time>2021-05-28T11:30:31.375Z</time>
      </trkpt>
      <trkpt lat="45.20433" lon="4.04711">
        <ele>527.67163250486</ele>
        <time>2021-05-28T11:30:33.941Z</time>
      </trkpt>
      <trkpt lat="45.20463" lon="4.04705">
        <ele>528.2923540378</ele>
        <time>2021-05-28T11:30:36.513Z</time>
      </trkpt>
      <trkpt lat="45.20499" lon="4.04699">
        <ele>528.60256119208</ele>
        <time>2021-05-28T11:30:39.092Z</time>
      </trkpt>
      <trkpt lat="45.20575" lon="4.04665">
        <ele>528.56759856771</ele>
        <time>2021-05-28T11:30:41.687Z</time>
      </trkpt>
      <trkpt lat="45.20596" lon="4.04664">
        <ele>528.78360669194</ele>
        <time>2021-05-28T11:30:44.286Z</time>
      </trkpt>
      <trkpt lat="45.20621" lon="4.04652">
        <ele>528.3972998891</ele>
        <time>2021-05-28T11:30:46.890Z</time>
      </trkpt>
      <trkpt lat="45.20649" lon="4.04644">
        <ele>527.99915165984</ele>
        <time>2021-05-28T11:30:49.500Z</time>
      </trkpt>
      <trkpt lat="45.20673" lon="4.0463">
        <ele>527.20124859292</ele>
        <time>2021-05-28T11:30:52.115Z</time>
      </trkpt>
      <trkpt lat="45.2086" lon="4.04569">
        <ele>526.45974076329</ele>
        <time>2021-05-28T11:30:54.769Z</time>
      </trkpt>
      <trkpt lat="45.20891" lon="4.04597">
        <ele>525.85227881665</ele>
        <time>2021-05-28T11:30:57.430Z</time>
      </trkpt>
      <trkpt lat="45.2093" lon="4.04584">
        <ele>524.6059171394</ele>
        <time>2021-05-28T11:31:00.099Z</time>
      </trkpt>
      <trkpt lat="45.21015" lon="4.04599">
        <ele>523.27811374925</ele>
        <time>2021-05-28T11:31:02.785Z</time>
      </trkpt>
      <trkpt lat="45.21044" lon="4.04634">
        <ele>522.0454830088</ele>
        <time>2021-05-28T11:31:05.479Z</time>
      </trkpt>
      <trkpt lat="45.21071" lon="4.04634">
        <ele>520.59228830538</ele>
        <time>2021-05-28T11:31:08.178Z</time>
      </trkpt>
      <trkpt lat="45.21089" lon="4.04625">
        <ele>518.99374578962</ele>
        <time>2021-05-28T11:31:10.881Z</time>
      </trkpt>
      <trkpt lat="45.21109" lon="4.04597">
        <ele>517.27473041309</ele>
        <time>2021-05-28T11:31:13.590Z</time>
      </trkpt>
      <trkpt lat="45.21125" lon="4.04572">
        <ele>515.46126121107</ele>
        <time>2021-05-28T11:31:16.303Z</time>
      </trkpt>
      <trkpt lat="45.21137" lon="4.04539">
        <ele>513.51432207287</ele>
        <time>2021-05-28T11:31:19.022Z</time>
      </trkpt>
      <trkpt lat="45.21146" lon="4.04506">
        <ele>511.51445924379</ele>
        <time>2021-05-28T11:31:21.746Z</time>
      </trkpt>
      <trkpt lat="45.21161" lon="4.04496">
        <ele>509.66983947524</ele>
        <time>2021-05-28T11:31:24.473Z</time>
      </trkpt>
      <trkpt lat="45.2118" lon="4.04481">
        <ele>507.85617719081</ele>
        <time>2021-05-28T11:31:27.204Z</time>
      </trkpt>
      <trkpt lat="45.21185" lon="4.04466">
        <ele>506.1226268173</ele>
        <time>2021-05-28T11:31:29.938Z</time>
      </trkpt>
      <trkpt lat="45.21139" lon="4.04436">
        <ele>504.52578422861</ele>
        <time>2021-05-28T11:31:32.682Z</time>
      </trkpt>
      <trkpt lat="45.21109" lon="4.04414">
        <ele>502.95599164519</ele>
        <time>2021-05-28T11:31:35.433Z</time>
      </trkpt>
      <trkpt lat="45.21074" lon="4.04408">
        <ele>501.48797025553</ele>
        <time>2021-05-28T11:31:38.191Z</time>
      </trkpt>
      <trkpt lat="45.21044" lon="4.04414">
        <ele>500.15715994777</ele>
        <time>2021-05-28T11:31:40.955Z</time>
      </trkpt>
      <trkpt lat="45.21011" lon="4.04424">
        <ele>498.92576883783</ele>
        <time>2021-05-28T11:31:43.725Z</time>
      </trkpt>
      <trkpt lat="45.20987" lon="4.04436">
        <ele>497.75616862876</ele>
        <time>2021-05-28T11:31:46.501Z</time>
      </trkpt>
      <trkpt lat="45.20961" lon="4.04459">
        <ele>496.83471874914</ele>
        <time>2021-05-28T11:31:49.283Z</time>
      </trkpt>
      <trkpt lat="45.2093" lon="4.04477">
        <ele>496.1029069009</ele>
        <time>2021-05-28T11:31:52.071Z</time>
      </trkpt>
      <trkpt lat="45.20905" lon="4.0449">
        <ele>495.5184767446</ele>
        <time>2021-05-28T11:31:54.865Z</time>
      </trkpt>
      <trkpt lat="45.20892" lon="4.04489">
        <ele>494.96655400501</ele>
        <time>2021-05-28T11:31:57.661Z</time>
      </trkpt>
      <trkpt lat="45.20879" lon="4.04476">
        <ele>494.46862110936</ele>
        <time>2021-05-28T11:32:00.460Z</time>
      </trkpt>
      <trkpt lat="45.20836" lon="4.04402">
        <ele>493.91591057517</ele>
        <time>2021-05-28T11:32:03.273Z</time>
      </trkpt>
      <trkpt lat="45.20818" lon="4.04372">
        <ele>494.01603988362</ele>
        <time>2021-05-28T11:32:06.092Z</time>
      </trkpt>
      <trkpt lat="45.20806" lon="4.04319">
        <ele>494.50077521896</ele>
        <time>2021-05-28T11:32:08.918Z</time>
      </trkpt>
      <trkpt lat="45.2079" lon="4.04265">
        <ele>495.11886169275</ele>
        <time>2021-05-28T11:32:11.753Z</time>
      </trkpt>
      <trkpt lat="45.20862" lon="4.0425">
        <ele>495.68994812849</ele>
        <time>2021-05-28T11:32:14.602Z</time>
      </trkpt>
      <trkpt lat="45.209" lon="4.04241">
        <ele>496.45309269439</ele>
        <time>2021-05-28T11:32:17.459Z</time>
      </trkpt>
      <trkpt lat="45.20938" lon="4.04243">
        <ele>497.35539273671</ele>
        <time>2021-05-28T11:32:20.324Z</time>
      </trkpt>
      <trkpt lat="45.20957" lon="4.04228">
        <ele>499.82788755462</ele>
        <time>2021-05-28T11:32:23.193Z</time>
      </trkpt>
      <trkpt lat="45.20958" lon="4.04137">
        <ele>501.4394770716</ele>
        <time>2021-05-28T11:32:26.075Z</time>
      </trkpt>
      <trkpt lat="45.20958" lon="4.04117">
        <ele>503.1269922697</ele>
        <time>2021-05-28T11:32:28.960Z</time>
      </trkpt>
      <trkpt lat="45.2094" lon="4.04074">
        <ele>505.05800684327</ele>
        <time>2021-05-28T11:32:31.852Z</time>
      </trkpt>
      <trkpt lat="45.2091" lon="4.04046">
        <ele>507.29573504361</ele>
        <time>2021-05-28T11:32:34.751Z</time>
      </trkpt>
      <trkpt lat="45.20859" lon="4.04033">
        <ele>509.57215733831</ele>
        <time>2021-05-28T11:32:37.660Z</time>
      </trkpt>
      <trkpt lat="45.20818" lon="4.04027">
        <ele>511.6446459747</ele>
        <time>2021-05-28T11:32:40.578Z</time>
      </trkpt>
      <trkpt lat="45.20781" lon="4.04022">
        <ele>513.74742829721</ele>
        <time>2021-05-28T11:32:43.503Z</time>
      </trkpt>
      <trkpt lat="45.20753" lon="4.03995">
        <ele>516.06116553371</ele>
        <time>2021-05-28T11:32:46.435Z</time>
      </trkpt>
      <trkpt lat="45.20684" lon="4.03852">
        <ele>518.74342936714</ele>
        <time>2021-05-28T11:32:49.391Z</time>
      </trkpt>
      <trkpt lat="45.20697" lon="4.03858">
        <ele>520.87790481997</ele>
        <time>2021-05-28T11:32:52.350Z</time>
      </trkpt>
      <trkpt lat="45.20704" lon="4.03856">
        <ele>523.01401324692</ele>
        <time>2021-05-28T11:32:55.310Z</time>
      </trkpt>
      <trkpt lat="45.20716" lon="4.03842">
        <ele>525.19138978082</ele>
        <time>2021-05-28T11:32:58.274Z</time>
      </trkpt>
      <trkpt lat="45.20729" lon="4.03833">
        <ele>527.27134548455</ele>
        <time>2021-05-28T11:33:01.240Z</time>
      </trkpt>
      <trkpt lat="45.20755" lon="4.03837">
        <ele>529.34654475053</ele>
        <time>2021-05-28T11:33:04.212Z</time>
      </trkpt>
      <trkpt lat="45.20767" lon="4.0383">
        <ele>531.30881147061</ele>
        <time>2021-05-28T11:33:07.186Z</time>
      </trkpt>
      <trkpt lat="45.20778" lon="4.03815">
        <ele>533.20344969181</ele>
        <time>2021-05-28T11:33:10.163Z</time>
      </trkpt>
      <trkpt lat="45.20791" lon="4.03794">
        <ele>534.98322722981</ele>
        <time>2021-05-28T11:33:13.144Z</time>
      </trkpt>
      <trkpt lat="45.20799" lon="4.03795">
        <ele>536.61491489306</ele>
        <time>2021-05-28T11:33:16.127Z</time>
      </trkpt>
      <trkpt lat="45.20817" lon="4.03813">
        <ele>538.21099689105</ele>
        <time>2021-05-28T11:33:19.114Z</time>
      </trkpt>
      <trkpt lat="45.20859" lon="4.03826">
        <ele>539.8948114765</ele>
        <time>2021-05-28T11:33:22.110Z</time>
      </trkpt>
      <trkpt lat="45.20885" lon="4.0384">
        <ele>541.28400986513</ele>
        <time>2021-05-28T11:33:25.111Z</time>
      </trkpt>
      <trkpt lat="45.20911" lon="4.03846">
        <ele>542.45422626335</ele>
        <time>2021-05-28T11:33:28.118Z</time>
      </trkpt>
      <trkpt lat="45.20924" lon="4.03844">
        <ele>543.52014449596</ele>
        <time>2021-05-28T11:33:31.127Z</time>
      </trkpt>
      <trkpt lat="45.20942" lon="4.03818">
        <ele>544.60485282519</ele>
        <time>2021-05-28T11:33:34.141Z</time>
      </trkpt>
      <trkpt lat="45.20965" lon="4.03799">
        <ele>545.66045773042</ele>
        <time>2021-05-28T11:33:37.161Z</time>
      </trkpt>
      <trkpt lat="45.20986" lon="4.03777">
        <ele>546.70667064469</ele>
        <time>2021-05-28T11:33:40.186Z</time>
      </trkpt>
      <trkpt lat="45.21019" lon="4.03728">
        <ele>548.02949314877</ele>
        <time>2021-05-28T11:33:43.221Z</time>
      </trkpt>
      <trkpt lat="45.21021" lon="4.03715">
        <ele>549.1379684174</ele>
        <time>2021-05-28T11:33:46.257Z</time>
      </trkpt>
      <trkpt lat="45.21024" lon="4.03678">
        <ele>550.34022210668</ele>
        <time>2021-05-28T11:33:49.299Z</time>
      </trkpt>
      <trkpt lat="45.21027" lon="4.03655">
        <ele>551.45374298805</ele>
        <time>2021-05-28T11:33:52.344Z</time>
      </trkpt>
      <trkpt lat="45.21035" lon="4.03628">
        <ele>552.65951957017</ele>
        <time>2021-05-28T11:33:55.393Z</time>
      </trkpt>
      <trkpt lat="45.21047" lon="4.03569">
        <ele>554.07512130224</ele>
        <time>2021-05-28T11:33:58.451Z</time>
      </trkpt>
      <trkpt lat="45.21061" lon="4.03514">
        <ele>555.49663850714</ele>
        <time>2021-05-28T11:34:01.517Z</time>
      </trkpt>
      <trkpt lat="45.21083" lon="4.03461">
        <ele>556.94427617647</ele>
        <time>2021-05-28T11:34:04.592Z</time>
      </trkpt>
      <trkpt lat="45.2111" lon="4.03391">
        <ele>558.88404803566</ele>
        <time>2021-05-28T11:34:07.678Z</time>
      </trkpt>
      <trkpt lat="45.21136" lon="4.03339">
        <ele>561.09893936337</ele>
        <time>2021-05-28T11:34:10.773Z</time>
      </trkpt>
      <trkpt lat="45.21152" lon="4.03315">
        <ele>563.18016436822</ele>
        <time>2021-05-28T11:34:13.873Z</time>
      </trkpt>
      <trkpt lat="45.21157" lon="4.033">
        <ele>565.40343621348</ele>
        <time>2021-05-28T11:34:16.975Z</time>
      </trkpt>
      <trkpt lat="45.21156" lon="4.03259">
        <ele>567.68908789576</ele>
        <time>2021-05-28T11:34:20.083Z</time>
      </trkpt>
      <trkpt lat="45.21157" lon="4.03229">
        <ele>570.25798969225</ele>
        <time>2021-05-28T11:34:23.195Z</time>
      </trkpt>
      <trkpt lat="45.21159" lon="4.03228">
        <ele>573.1014704077</ele>
        <time>2021-05-28T11:34:26.308Z</time>
      </trkpt>
      <trkpt lat="45.21202" lon="4.03222">
        <ele>576.01348910627</ele>
        <time>2021-05-28T11:34:29.429Z</time>
      </trkpt>
      <trkpt lat="45.21244" lon="4.03207">
        <ele>578.82441255388</ele>
        <time>2021-05-28T11:34:32.559Z</time>
      </trkpt>
      <trkpt lat="45.21321" lon="4.03116">
        <ele>582.29988813957</ele>
        <time>2021-05-28T11:34:35.709Z</time>
      </trkpt>
      <trkpt lat="45.21377" lon="4.03081">
        <ele>586.35601162155</ele>
        <time>2021-05-28T11:34:38.871Z</time>
      </trkpt>
      <trkpt lat="45.21475" lon="4.03058">
        <ele>590.56790970491</ele>
        <time>2021-05-28T11:34:42.053Z</time>
      </trkpt>
      <trkpt lat="45.21522" lon="4.03079">
        <ele>595.5392324856</ele>
        <time>2021-05-28T11:34:45.245Z</time>
      </trkpt>
      <trkpt lat="45.21728" lon="4.03145">
        <ele>601.20762739445</ele>
        <time>2021-05-28T11:34:48.479Z</time>
      </trkpt>
      <trkpt lat="45.21755" lon="4.03131">
        <ele>606.01098464215</ele>
        <time>2021-05-28T11:34:51.719Z</time>
      </trkpt>
      <trkpt lat="45.21852" lon="4.03107">
        <ele>611.50875770096</ele>
        <time>2021-05-28T11:34:54.979Z</time>
      </trkpt>
      <trkpt lat="45.21911" lon="4.03111">
        <ele>616.91311202154</ele>
        <time>2021-05-28T11:34:58.250Z</time>
      </trkpt>
      <trkpt lat="45.21954" lon="4.03085">
        <ele>622.04356855564</ele>
        <time>2021-05-28T11:35:01.531Z</time>
      </trkpt>
      <trkpt lat="45.21966" lon="4.03061">
        <ele>626.97169638602</ele>
        <time>2021-05-28T11:35:04.816Z</time>
      </trkpt>
      <trkpt lat="45.22045" lon="4.0304">
        <ele>632.27148163292</ele>
        <time>2021-05-28T11:35:08.117Z</time>
      </trkpt>
      <trkpt lat="45.22122" lon="4.0305">
        <ele>637.30709891677</ele>
        <time>2021-05-28T11:35:11.434Z</time>
      </trkpt>
      <trkpt lat="45.22189" lon="4.03059">
        <ele>642.13434685045</ele>
        <time>2021-05-28T11:35:14.764Z</time>
      </trkpt>
      <trkpt lat="45.22258" lon="4.03082">
        <ele>646.80818905247</ele>
        <time>2021-05-28T11:35:18.108Z</time>
      </trkpt>
      <trkpt lat="45.22323" lon="4.03119">
        <ele>651.41101632048</ele>
        <time>2021-05-28T11:35:21.466Z</time>
      </trkpt>
      <trkpt lat="45.22409" lon="4.03189">
        <ele>655.3798473253</ele>
        <time>2021-05-28T11:35:24.844Z</time>
      </trkpt>
      <trkpt lat="45.22414" lon="4.03194">
        <ele>659.00203964086</ele>
        <time>2021-05-28T11:35:28.223Z</time>
      </trkpt>
      <trkpt lat="45.22465" lon="4.03187">
        <ele>662.38796549111</ele>
        <time>2021-05-28T11:35:31.612Z</time>
      </trkpt>
      <trkpt lat="45.22489" lon="4.03178">
        <ele>665.49806080642</ele>
        <time>2021-05-28T11:35:35.006Z</time>
      </trkpt>
      <trkpt lat="45.22521" lon="4.03171">
        <ele>668.28218926534</ele>
        <time>2021-05-28T11:35:38.407Z</time>
      </trkpt>
      <trkpt lat="45.22535" lon="4.03167">
        <ele>670.75536951947</ele>
        <time>2021-05-28T11:35:41.811Z</time>
      </trkpt>
      <trkpt lat="45.2252" lon="4.03116">
        <ele>673.03447134142</ele>
        <time>2021-05-28T11:35:45.223Z</time>
      </trkpt>
      <trkpt lat="45.22498" lon="4.03049">
        <ele>675.07213126877</ele>
        <time>2021-05-28T11:35:48.645Z</time>
      </trkpt>
      <trkpt lat="45.22475" lon="4.02975">
        <ele>676.74009540371</ele>
        <time>2021-05-28T11:35:52.078Z</time>
      </trkpt>
      <trkpt lat="45.22442" lon="4.02878">
        <ele>678.10623826761</ele>
        <time>2021-05-28T11:35:55.527Z</time>
      </trkpt>
      <trkpt lat="45.22405" lon="4.02798">
        <ele>679.46026368647</ele>
        <time>2021-05-28T11:35:58.989Z</time>
      </trkpt>
      <trkpt lat="45.22405" lon="4.02787">
        <ele>680.66291075682</ele>
        <time>2021-05-28T11:36:02.453Z</time>
      </trkpt>
      <trkpt lat="45.22404" lon="4.02774">
        <ele>681.69781700935</ele>
        <time>2021-05-28T11:36:05.919Z</time>
      </trkpt>
      <trkpt lat="45.22379" lon="4.02726">
        <ele>682.65751107611</ele>
        <time>2021-05-28T11:36:09.393Z</time>
      </trkpt>
      <trkpt lat="45.22377" lon="4.02711">
        <ele>683.39073326853</ele>
        <time>2021-05-28T11:36:12.869Z</time>
      </trkpt>
      <trkpt lat="45.22376" lon="4.02651">
        <ele>684.00947632137</ele>
        <time>2021-05-28T11:36:16.354Z</time>
      </trkpt>
      <trkpt lat="45.22376" lon="4.02609">
        <ele>684.51850751647</ele>
        <time>2021-05-28T11:36:19.845Z</time>
      </trkpt>
      <trkpt lat="45.22371" lon="4.02576">
        <ele>684.89060946923</ele>
        <time>2021-05-28T11:36:23.340Z</time>
      </trkpt>
      <trkpt lat="45.22364" lon="4.02553">
        <ele>685.14221254962</ele>
        <time>2021-05-28T11:36:26.839Z</time>
      </trkpt>
      <trkpt lat="45.22352" lon="4.02523">
        <ele>685.30594358393</ele>
        <time>2021-05-28T11:36:30.343Z</time>
      </trkpt>
      <trkpt lat="45.22345" lon="4.02498">
        <ele>685.40800699849</ele>
        <time>2021-05-28T11:36:33.851Z</time>
      </trkpt>
      <trkpt lat="45.22341" lon="4.02449">
        <ele>685.47672957025</ele>
        <time>2021-05-28T11:36:37.366Z</time>
      </trkpt>
      <trkpt lat="45.22343" lon="4.02405">
        <ele>685.5316305109</ele>
        <time>2021-05-28T11:36:40.887Z</time>
      </trkpt>
      <trkpt lat="45.22337" lon="4.02332">
        <ele>685.58229883295</ele>
        <time>2021-05-28T11:36:44.418Z</time>
      </trkpt>
      <trkpt lat="45.22339" lon="4.02274">
        <ele>685.45593408645</ele>
        <time>2021-05-28T11:36:47.957Z</time>
      </trkpt>
      <trkpt lat="45.22351" lon="4.02107">
        <ele>685.1007137612</ele>
        <time>2021-05-28T11:36:51.520Z</time>
      </trkpt>
      <trkpt lat="45.22344" lon="4.02048">
        <ele>685.0111364295</ele>
        <time>2021-05-28T11:36:55.092Z</time>
      </trkpt>
      <trkpt lat="45.22319" lon="4.01949">
        <ele>684.83876177777</ele>
        <time>2021-05-28T11:36:58.678Z</time>
      </trkpt>
      <trkpt lat="45.2229" lon="4.01858">
        <ele>684.61179124197</ele>
        <time>2021-05-28T11:37:02.279Z</time>
      </trkpt>
      <trkpt lat="45.22286" lon="4.01846">
        <ele>684.41203631305</ele>
        <time>2021-05-28T11:37:05.881Z</time>
      </trkpt>
      <trkpt lat="45.22311" lon="4.01825">
        <ele>684.21251647797</ele>
        <time>2021-05-28T11:37:09.489Z</time>
      </trkpt>
      <trkpt lat="45.22343" lon="4.01784">
        <ele>683.98321020727</ele>
        <time>2021-05-28T11:37:13.106Z</time>
      </trkpt>
      <trkpt lat="45.22354" lon="4.01765">
        <ele>683.72188838668</ele>
        <time>2021-05-28T11:37:16.726Z</time>
      </trkpt>
      <trkpt lat="45.22375" lon="4.01724">
        <ele>683.56682230601</ele>
        <time>2021-05-28T11:37:20.354Z</time>
      </trkpt>
      <trkpt lat="45.22442" lon="4.01624">
        <ele>683.31146006369</ele>
        <time>2021-05-28T11:37:24.001Z</time>
      </trkpt>
      <trkpt lat="45.22573" lon="4.01513">
        <ele>683.49517568481</ele>
        <time>2021-05-28T11:37:27.679Z</time>
      </trkpt>
      <trkpt lat="45.22604" lon="4.01473">
        <ele>683.32790751217</ele>
        <time>2021-05-28T11:37:31.365Z</time>
      </trkpt>
      <trkpt lat="45.2275" lon="4.01237">
        <ele>683.04398966833</ele>
        <time>2021-05-28T11:37:35.095Z</time>
      </trkpt>
      <trkpt lat="45.22774" lon="4.01139">
        <ele>682.79559799382</ele>
        <time>2021-05-28T11:37:38.840Z</time>
      </trkpt>
      <trkpt lat="45.22768" lon="4.00855">
        <ele>682.49718891637</ele>
        <time>2021-05-28T11:37:42.625Z</time>
      </trkpt>
      <trkpt lat="45.22827" lon="4.0074">
        <ele>682.0838248167</ele>
        <time>2021-05-28T11:37:46.430Z</time>
      </trkpt>
      <trkpt lat="45.22875" lon="4.00701">
        <ele>681.84547308935</ele>
        <time>2021-05-28T11:37:50.246Z</time>
      </trkpt>
      <trkpt lat="45.22896" lon="4.00667">
        <ele>681.43341468112</ele>
        <time>2021-05-28T11:37:54.069Z</time>
      </trkpt>
      <trkpt lat="45.22914" lon="4.00578">
        <ele>680.77029630631</ele>
        <time>2021-05-28T11:37:57.905Z</time>
      </trkpt>
      <trkpt lat="45.2294" lon="4.00548">
        <ele>680.46528164479</ele>
        <time>2021-05-28T11:38:01.747Z</time>
      </trkpt>
      <trkpt lat="45.22942" lon="4.00545">
        <ele>680.17926737529</ele>
        <time>2021-05-28T11:38:05.590Z</time>
      </trkpt>
      <trkpt lat="45.22942" lon="4.00545">
        <ele>679.89943026052</ele>
        <time>2021-05-28T11:38:09.433Z</time>
      </trkpt>
      <trkpt lat="45.22958" lon="4.00528">
        <ele>679.70982930189</ele>
        <time>2021-05-28T11:38:13.280Z</time>
      </trkpt>
      <trkpt lat="45.22959" lon="4.00526">
        <ele>679.49571338038</ele>
        <time>2021-05-28T11:38:17.127Z</time>
      </trkpt>
      <trkpt lat="45.22959" lon="4.00526">
        <ele>679.3142325798</ele>
        <time>2021-05-28T11:38:20.974Z</time>
      </trkpt>
      <trkpt lat="45.22959" lon="4.00526">
        <ele>679.17671344144</ele>
        <time>2021-05-28T11:38:24.821Z</time>
      </trkpt>
      <trkpt lat="45.2298" lon="4.00482">
        <ele>679.1523300793</ele>
        <time>2021-05-28T11:38:28.676Z</time>
      </trkpt>
      <trkpt lat="45.22988" lon="4.00452">
        <ele>679.15643359461</ele>
        <time>2021-05-28T11:38:32.535Z</time>
      </trkpt>
      <trkpt lat="45.22988" lon="4.00428">
        <ele>679.23565471869</ele>
        <time>2021-05-28T11:38:36.398Z</time>
      </trkpt>
      <trkpt lat="45.22988" lon="4.00424">
        <ele>679.35055529249</ele>
        <time>2021-05-28T11:38:40.261Z</time>
      </trkpt>
      <trkpt lat="45.22988" lon="4.00423">
        <ele>679.52318634536</ele>
        <time>2021-05-28T11:38:44.125Z</time>
      </trkpt>
      <trkpt lat="45.22977" lon="4.00397">
        <ele>679.88479459913</ele>
        <time>2021-05-28T11:38:47.993Z</time>
      </trkpt>
      <trkpt lat="45.22977" lon="4.00397">
        <ele>680.2172356752</ele>
        <time>2021-05-28T11:38:51.861Z</time>
      </trkpt>
      <trkpt lat="45.22977" lon="4.00397">
        <ele>680.64369674416</ele>
        <time>2021-05-28T11:38:55.729Z</time>
      </trkpt>
      <trkpt lat="45.22976" lon="4.00369">
        <ele>681.29255776116</ele>
        <time>2021-05-28T11:38:59.601Z</time>
      </trkpt>
      <trkpt lat="45.22975" lon="4.00365">
        <ele>681.94025981216</ele>
        <time>2021-05-28T11:39:03.473Z</time>
      </trkpt>
      <trkpt lat="45.22974" lon="4.00335">
        <ele>682.85480352692</ele>
        <time>2021-05-28T11:39:07.350Z</time>
      </trkpt>
      <trkpt lat="45.22973" lon="4.00334">
        <ele>683.72633684591</ele>
        <time>2021-05-28T11:39:11.227Z</time>
      </trkpt>
      <trkpt lat="45.22976" lon="4.00333">
        <ele>684.753268687</ele>
        <time>2021-05-28T11:39:15.104Z</time>
      </trkpt>
      <trkpt lat="45.22979" lon="4.00332">
        <ele>685.92573625076</ele>
        <time>2021-05-28T11:39:18.982Z</time>
      </trkpt>
      <trkpt lat="45.23" lon="4.00323">
        <ele>687.41059704394</ele>
        <time>2021-05-28T11:39:22.864Z</time>
      </trkpt>
      <trkpt lat="45.23" lon="4.00323">
        <ele>688.85708159342</ele>
        <time>2021-05-28T11:39:26.746Z</time>
      </trkpt>
      <trkpt lat="45.23" lon="4.00323">
        <ele>690.4679640643</ele>
        <time>2021-05-28T11:39:30.628Z</time>
      </trkpt>
      <trkpt lat="45.23001" lon="4.00317">
        <ele>692.28938323233</ele>
        <time>2021-05-28T11:39:34.511Z</time>
      </trkpt>
      <trkpt lat="45.23005" lon="4.00319">
        <ele>694.25259270822</ele>
        <time>2021-05-28T11:39:38.395Z</time>
      </trkpt>
      <trkpt lat="45.23026" lon="4.00299">
        <ele>696.47892684012</ele>
        <time>2021-05-28T11:39:42.284Z</time>
      </trkpt>
      <trkpt lat="45.23029" lon="4.00296">
        <ele>698.84224527378</ele>
        <time>2021-05-28T11:39:46.174Z</time>
      </trkpt>
      <trkpt lat="45.23047" lon="4.00279">
        <ele>701.43438925689</ele>
        <time>2021-05-28T11:39:50.068Z</time>
      </trkpt>
      <trkpt lat="45.23047" lon="4.00279">
        <ele>704.20373793738</ele>
        <time>2021-05-28T11:39:53.962Z</time>
      </trkpt>
      <trkpt lat="45.23047" lon="4.00279">
        <ele>707.18003328518</ele>
        <time>2021-05-28T11:39:57.856Z</time>
      </trkpt>
      <trkpt lat="45.23053" lon="4.00274">
        <ele>710.37199434281</ele>
        <time>2021-05-28T11:40:01.751Z</time>
      </trkpt>
      <trkpt lat="45.23132" lon="4.00144">
        <ele>714.62585773003</ele>
        <time>2021-05-28T11:40:05.671Z</time>
      </trkpt>
      <trkpt lat="45.23254" lon="4.00043">
        <ele>718.75713249119</ele>
        <time>2021-05-28T11:40:09.619Z</time>
      </trkpt>
      <trkpt lat="45.23365" lon="3.99921">
        <ele>722.61865730724</ele>
        <time>2021-05-28T11:40:13.595Z</time>
      </trkpt>
      <trkpt lat="45.23414" lon="3.99843">
        <ele>726.78450190194</ele>
        <time>2021-05-28T11:40:17.586Z</time>
      </trkpt>
      <trkpt lat="45.23584" lon="3.99682">
        <ele>731.43516566147</ele>
        <time>2021-05-28T11:40:21.618Z</time>
      </trkpt>
      <trkpt lat="45.23626" lon="3.9966">
        <ele>735.66219330853</ele>
        <time>2021-05-28T11:40:25.659Z</time>
      </trkpt>
      <trkpt lat="45.23682" lon="3.99642">
        <ele>740.00400001084</ele>
        <time>2021-05-28T11:40:29.711Z</time>
      </trkpt>
      <trkpt lat="45.23732" lon="3.99451">
        <ele>744.66405997867</ele>
        <time>2021-05-28T11:40:33.792Z</time>
      </trkpt>
      <trkpt lat="45.2379" lon="3.9919">
        <ele>749.29612416265</ele>
        <time>2021-05-28T11:40:37.911Z</time>
      </trkpt>
      <trkpt lat="45.23765" lon="3.99186">
        <ele>753.70303023661</ele>
        <time>2021-05-28T11:40:42.035Z</time>
      </trkpt>
      <trkpt lat="45.23772" lon="3.99148">
        <ele>758.34676966445</ele>
        <time>2021-05-28T11:40:46.165Z</time>
      </trkpt>
      <trkpt lat="45.23773" lon="3.99086">
        <ele>763.19837014439</ele>
        <time>2021-05-28T11:40:50.304Z</time>
      </trkpt>
      <trkpt lat="45.23743" lon="3.98919">
        <ele>768.49979108714</ele>
        <time>2021-05-28T11:40:54.467Z</time>
      </trkpt>
      <trkpt lat="45.23746" lon="3.98884">
        <ele>773.34559625734</ele>
        <time>2021-05-28T11:40:58.635Z</time>
      </trkpt>
      <trkpt lat="45.23779" lon="3.98774">
        <ele>788.32690249546</ele>
        <time>2021-05-28T11:41:02.820Z</time>
      </trkpt>
      <trkpt lat="45.23869" lon="3.98812">
        <ele>798.43608452763</ele>
        <time>2021-05-28T11:41:07.024Z</time>
      </trkpt>
      <trkpt lat="45.2387" lon="3.98812">
        <ele>803.42032861422</ele>
        <time>2021-05-28T11:41:11.228Z</time>
      </trkpt>
      <trkpt lat="45.23984" lon="3.98739">
        <ele>808.99432629171</ele>
        <time>2021-05-28T11:41:15.457Z</time>
      </trkpt>
      <trkpt lat="45.24163" lon="3.98456">
        <ele>819.48658340489</ele>
        <time>2021-05-28T11:41:19.740Z</time>
      </trkpt>
      <trkpt lat="45.24341" lon="3.98113">
        <ele>835.49216568859</ele>
        <time>2021-05-28T11:41:24.083Z</time>
      </trkpt>
      <trkpt lat="45.24341" lon="3.98114">
        <ele>839.84277839155</ele>
        <time>2021-05-28T11:41:28.426Z</time>
      </trkpt>
      <trkpt lat="45.24341" lon="3.98108">
        <ele>847.93386028323</ele>
        <time>2021-05-28T11:41:32.770Z</time>
      </trkpt>
      <trkpt lat="45.24348" lon="3.98047">
        <ele>851.84196301484</ele>
        <time>2021-05-28T11:41:37.123Z</time>
      </trkpt>
      <trkpt lat="45.24367" lon="3.97992">
        <ele>855.37364655395</ele>
        <time>2021-05-28T11:41:41.484Z</time>
      </trkpt>
      <trkpt lat="45.24371" lon="3.97948">
        <ele>858.56804543939</ele>
        <time>2021-05-28T11:41:45.851Z</time>
      </trkpt>
      <trkpt lat="45.24397" lon="3.97971">
        <ele>861.46926082907</ele>
        <time>2021-05-28T11:41:50.225Z</time>
      </trkpt>
      <trkpt lat="45.24423" lon="3.97978">
        <ele>864.05688909849</ele>
        <time>2021-05-28T11:41:54.604Z</time>
      </trkpt>
      <trkpt lat="45.24454" lon="3.97967">
        <ele>866.39313354103</ele>
        <time>2021-05-28T11:41:58.989Z</time>
      </trkpt>
      <trkpt lat="45.24624" lon="3.9794">
        <ele>870.50393328779</ele>
        <time>2021-05-28T11:42:03.408Z</time>
      </trkpt>
      <trkpt lat="45.24657" lon="3.97921">
        <ele>871.76900948224</ele>
        <time>2021-05-28T11:42:07.835Z</time>
      </trkpt>
      <trkpt lat="45.24765" lon="3.97945">
        <ele>872.80528104061</ele>
        <time>2021-05-28T11:42:12.283Z</time>
      </trkpt>
      <trkpt lat="45.24787" lon="3.97943">
        <ele>873.54888584169</ele>
        <time>2021-05-28T11:42:16.736Z</time>
      </trkpt>
      <trkpt lat="45.24846" lon="3.97884">
        <ele>874.01794837585</ele>
        <time>2021-05-28T11:42:21.203Z</time>
      </trkpt>
      <trkpt lat="45.24937" lon="3.97822">
        <ele>873.89735558311</ele>
        <time>2021-05-28T11:42:25.691Z</time>
      </trkpt>
      <trkpt lat="45.25123" lon="3.97737">
        <ele>873.36426109172</ele>
        <time>2021-05-28T11:42:30.218Z</time>
      </trkpt>
      <trkpt lat="45.25139" lon="3.97722">
        <ele>873.02584974217</ele>
        <time>2021-05-28T11:42:34.748Z</time>
      </trkpt>
      <trkpt lat="45.25211" lon="3.97714">
        <ele>872.39369606663</ele>
        <time>2021-05-28T11:42:39.293Z</time>
      </trkpt>
      <trkpt lat="45.25249" lon="3.97725">
        <ele>871.60974985704</ele>
        <time>2021-05-28T11:42:43.846Z</time>
      </trkpt>
      <trkpt lat="45.25299" lon="3.97755">
        <ele>870.43878232956</ele>
        <time>2021-05-28T11:42:48.410Z</time>
      </trkpt>
      <trkpt lat="45.25396" lon="3.97812">
        <ele>868.05192592291</ele>
        <time>2021-05-28T11:42:52.995Z</time>
      </trkpt>
      <trkpt lat="45.25436" lon="3.97857">
        <ele>866.81766554191</ele>
        <time>2021-05-28T11:42:57.590Z</time>
      </trkpt>
      <trkpt lat="45.25457" lon="3.97909">
        <ele>865.44060618999</ele>
        <time>2021-05-28T11:43:02.193Z</time>
      </trkpt>
      <trkpt lat="45.25496" lon="3.97956">
        <ele>863.90298425289</ele>
        <time>2021-05-28T11:43:06.806Z</time>
      </trkpt>
      <trkpt lat="45.25514" lon="3.98043">
        <ele>862.06695944263</ele>
        <time>2021-05-28T11:43:11.432Z</time>
      </trkpt>
      <trkpt lat="45.25535" lon="3.98083">
        <ele>860.17320596662</ele>
        <time>2021-05-28T11:43:16.065Z</time>
      </trkpt>
      <trkpt lat="45.25556" lon="3.98117">
        <ele>858.24221082922</ele>
        <time>2021-05-28T11:43:20.705Z</time>
      </trkpt>
      <trkpt lat="45.25625" lon="3.98198">
        <ele>856.37623739177</ele>
        <time>2021-05-28T11:43:25.363Z</time>
      </trkpt>
      <trkpt lat="45.25644" lon="3.98232">
        <ele>854.64287371013</ele>
        <time>2021-05-28T11:43:30.027Z</time>
      </trkpt>
      <trkpt lat="45.2563" lon="3.98281">
        <ele>852.72491985248</ele>
        <time>2021-05-28T11:43:34.698Z</time>
      </trkpt>
      <trkpt lat="45.25648" lon="3.98308">
        <ele>848.85625712524</ele>
        <time>2021-05-28T11:43:39.374Z</time>
      </trkpt>
      <trkpt lat="45.25655" lon="3.98313">
        <ele>846.83074099051</ele>
        <time>2021-05-28T11:43:44.052Z</time>
      </trkpt>
      <trkpt lat="45.25701" lon="3.98282">
        <ele>844.86885039287</ele>
        <time>2021-05-28T11:43:48.740Z</time>
      </trkpt>
      <trkpt lat="45.25757" lon="3.98293">
        <ele>842.73763032707</ele>
        <time>2021-05-28T11:43:53.440Z</time>
      </trkpt>
      <trkpt lat="45.25815" lon="3.98303">
        <ele>837.97531060032</ele>
        <time>2021-05-28T11:43:58.151Z</time>
      </trkpt>
      <trkpt lat="45.25861" lon="3.98289">
        <ele>835.23893704544</ele>
        <time>2021-05-28T11:44:02.872Z</time>
      </trkpt>
      <trkpt lat="45.25863" lon="3.98289">
        <ele>832.56116894243</ele>
        <time>2021-05-28T11:44:07.593Z</time>
      </trkpt>
      <trkpt lat="45.25916" lon="3.9823">
        <ele>829.81493977905</ele>
        <time>2021-05-28T11:44:12.328Z</time>
      </trkpt>
      <trkpt lat="45.25932" lon="3.98221">
        <ele>826.97714789531</ele>
        <time>2021-05-28T11:44:17.066Z</time>
      </trkpt>
      <trkpt lat="45.25995" lon="3.98232">
        <ele>823.9791745867</ele>
        <time>2021-05-28T11:44:21.817Z</time>
      </trkpt>
      <trkpt lat="45.26076" lon="3.9822">
        <ele>820.70249792192</ele>
        <time>2021-05-28T11:44:26.584Z</time>
      </trkpt>
      <trkpt lat="45.26111" lon="3.98201">
        <ele>817.21310612817</ele>
        <time>2021-05-28T11:44:31.358Z</time>
      </trkpt>
      <trkpt lat="45.26129" lon="3.98171">
        <ele>813.66552226389</ele>
        <time>2021-05-28T11:44:36.138Z</time>
      </trkpt>
      <trkpt lat="45.26142" lon="3.98103">
        <ele>809.9893429225</ele>
        <time>2021-05-28T11:44:40.928Z</time>
      </trkpt>
      <trkpt lat="45.26184" lon="3.9804">
        <ele>806.00968185298</ele>
        <time>2021-05-28T11:44:45.730Z</time>
      </trkpt>
      <trkpt lat="45.26294" lon="3.9798">
        <ele>802.24104481001</ele>
        <time>2021-05-28T11:44:50.556Z</time>
      </trkpt>
      <trkpt lat="45.26426" lon="3.97892">
        <ele>798.60840386492</ele>
        <time>2021-05-28T11:44:55.411Z</time>
      </trkpt>
      <trkpt lat="45.26485" lon="3.97865">
        <ele>794.76813721054</ele>
        <time>2021-05-28T11:45:00.278Z</time>
      </trkpt>
      <trkpt lat="45.26583" lon="3.97803">
        <ele>790.34755615832</ele>
        <time>2021-05-28T11:45:05.167Z</time>
      </trkpt>
      <trkpt lat="45.2661" lon="3.97734">
        <ele>786.6646297647</ele>
        <time>2021-05-28T11:45:10.067Z</time>
      </trkpt>
      <trkpt lat="45.26613" lon="3.97683">
        <ele>782.96048419799</ele>
        <time>2021-05-28T11:45:14.974Z</time>
      </trkpt>
      <trkpt lat="45.26608" lon="3.97653">
        <ele>779.63098923168</ele>
        <time>2021-05-28T11:45:19.886Z</time>
      </trkpt>
      <trkpt lat="45.26529" lon="3.97577">
        <ele>776.34691594133</ele>
        <time>2021-05-28T11:45:24.817Z</time>
      </trkpt>
      <trkpt lat="45.26512" lon="3.97547">
        <ele>773.43954447285</ele>
        <time>2021-05-28T11:45:29.753Z</time>
      </trkpt>
      <trkpt lat="45.2651" lon="3.97514">
        <ele>770.83105669779</ele>
        <time>2021-05-28T11:45:34.694Z</time>
      </trkpt>
      <trkpt lat="45.26542" lon="3.97469">
        <ele>768.74045518708</ele>
        <time>2021-05-28T11:45:39.644Z</time>
      </trkpt>
      <trkpt lat="45.26586" lon="3.97389">
        <ele>767.22266165134</ele>
        <time>2021-05-28T11:45:44.608Z</time>
      </trkpt>
      <trkpt lat="45.26658" lon="3.97325">
        <ele>765.6080465326</ele>
        <time>2021-05-28T11:45:49.589Z</time>
      </trkpt>
      <trkpt lat="45.26688" lon="3.9736">
        <ele>763.55992569151</ele>
        <time>2021-05-28T11:45:54.578Z</time>
      </trkpt>
      <trkpt lat="45.26708" lon="3.9748">
        <ele>761.45609641127</ele>
        <time>2021-05-28T11:45:59.584Z</time>
      </trkpt>
      <trkpt lat="45.26716" lon="3.975">
        <ele>760.2763585299</ele>
        <time>2021-05-28T11:46:04.594Z</time>
      </trkpt>
      <trkpt lat="45.26727" lon="3.97504">
        <ele>759.37550146758</ele>
        <time>2021-05-28T11:46:09.606Z</time>
      </trkpt>
      <trkpt lat="45.26734" lon="3.97503">
        <ele>758.82032515123</ele>
        <time>2021-05-28T11:46:14.619Z</time>
      </trkpt>
      <trkpt lat="45.2675" lon="3.97456">
        <ele>758.62026671283</ele>
        <time>2021-05-28T11:46:19.640Z</time>
      </trkpt>
      <trkpt lat="45.2686" lon="3.973">
        <ele>758.09147387276</ele>
        <time>2021-05-28T11:46:24.692Z</time>
      </trkpt>
      <trkpt lat="45.26868" lon="3.97302">
        <ele>758.52577009497</ele>
        <time>2021-05-28T11:46:29.745Z</time>
      </trkpt>
      <trkpt lat="45.26871" lon="3.97337">
        <ele>759.0949717915</ele>
        <time>2021-05-28T11:46:34.803Z</time>
      </trkpt>
      <trkpt lat="45.26915" lon="3.97335">
        <ele>760.77253623868</ele>
        <time>2021-05-28T11:46:39.870Z</time>
      </trkpt>
      <trkpt lat="45.26949" lon="3.97362">
        <ele>762.37469700869</ele>
        <time>2021-05-28T11:46:44.945Z</time>
      </trkpt>
      <trkpt lat="45.26999" lon="3.97401">
        <ele>767.85436038012</ele>
        <time>2021-05-28T11:46:50.031Z</time>
      </trkpt>
      <trkpt lat="45.27057" lon="3.97399">
        <ele>770.30908278998</ele>
        <time>2021-05-28T11:46:55.129Z</time>
      </trkpt>
      <trkpt lat="45.27057" lon="3.974">
        <ele>774.96343274777</ele>
        <time>2021-05-28T11:47:00.227Z</time>
      </trkpt>
      <trkpt lat="45.27065" lon="3.97399">
        <ele>777.52602629549</ele>
        <time>2021-05-28T11:47:05.327Z</time>
      </trkpt>
      <trkpt lat="45.27085" lon="3.97414">
        <ele>780.25970631603</ele>
        <time>2021-05-28T11:47:10.431Z</time>
      </trkpt>
      <trkpt lat="45.27104" lon="3.97421">
        <ele>783.10543133418</ele>
        <time>2021-05-28T11:47:15.539Z</time>
      </trkpt>
      <trkpt lat="45.27135" lon="3.97416">
        <ele>786.04946594138</ele>
        <time>2021-05-28T11:47:20.653Z</time>
      </trkpt>
      <trkpt lat="45.27164" lon="3.9741">
        <ele>789.07211974073</ele>
        <time>2021-05-28T11:47:25.773Z</time>
      </trkpt>
      <trkpt lat="45.27175" lon="3.97407">
        <ele>791.9791292414</ele>
        <time>2021-05-28T11:47:30.895Z</time>
      </trkpt>
      <trkpt lat="45.27184" lon="3.97409">
        <ele>794.87738372332</ele>
        <time>2021-05-28T11:47:36.019Z</time>
      </trkpt>
      <trkpt lat="45.27192" lon="3.97416">
        <ele>797.76110522499</ele>
        <time>2021-05-28T11:47:41.145Z</time>
      </trkpt>
      <trkpt lat="45.27203" lon="3.97427">
        <ele>800.62899071122</ele>
        <time>2021-05-28T11:47:46.274Z</time>
      </trkpt>
      <trkpt lat="45.27209" lon="3.97433">
        <ele>803.4409043374</ele>
        <time>2021-05-28T11:47:51.404Z</time>
      </trkpt>
      <trkpt lat="45.27251" lon="3.97435">
        <ele>806.35028620833</ele>
        <time>2021-05-28T11:47:56.543Z</time>
      </trkpt>
      <trkpt lat="45.27281" lon="3.9743">
        <ele>809.20848950977</ele>
        <time>2021-05-28T11:48:01.688Z</time>
      </trkpt>
      <trkpt lat="45.27304" lon="3.97426">
        <ele>811.93400735683</ele>
        <time>2021-05-28T11:48:06.837Z</time>
      </trkpt>
      <trkpt lat="45.27335" lon="3.97416">
        <ele>814.50182496156</ele>
        <time>2021-05-28T11:48:11.993Z</time>
      </trkpt>
      <trkpt lat="45.27354" lon="3.97383">
        <ele>817.04427204599</ele>
        <time>2021-05-28T11:48:17.155Z</time>
      </trkpt>
      <trkpt lat="45.27366" lon="3.97362">
        <ele>819.47107497852</ele>
        <time>2021-05-28T11:48:22.321Z</time>
      </trkpt>
      <trkpt lat="45.27387" lon="3.97332">
        <ele>821.90663845595</ele>
        <time>2021-05-28T11:48:27.493Z</time>
      </trkpt>
      <trkpt lat="45.27418" lon="3.97294">
        <ele>824.20900111218</ele>
        <time>2021-05-28T11:48:32.673Z</time>
      </trkpt>
      <trkpt lat="45.27427" lon="3.97278">
        <ele>826.32343766641</ele>
        <time>2021-05-28T11:48:37.856Z</time>
      </trkpt>
      <trkpt lat="45.27444" lon="3.97233">
        <ele>828.34335449655</ele>
        <time>2021-05-28T11:48:43.046Z</time>
      </trkpt>
      <trkpt lat="45.27448" lon="3.97228">
        <ele>830.19498083829</ele>
        <time>2021-05-28T11:48:48.237Z</time>
      </trkpt>
      <trkpt lat="45.27447" lon="3.97217">
        <ele>831.9306531965</ele>
        <time>2021-05-28T11:48:53.429Z</time>
      </trkpt>
      <trkpt lat="45.27419" lon="3.97164">
        <ele>833.70204719536</ele>
        <time>2021-05-28T11:48:58.631Z</time>
      </trkpt>
      <trkpt lat="45.27416" lon="3.9716">
        <ele>835.18749454107</ele>
        <time>2021-05-28T11:49:03.833Z</time>
      </trkpt>
      <trkpt lat="45.27398" lon="3.97128">
        <ele>836.65378920412</ele>
        <time>2021-05-28T11:49:09.041Z</time>
      </trkpt>
      <trkpt lat="45.2739" lon="3.97118">
        <ele>837.91000392474</ele>
        <time>2021-05-28T11:49:14.251Z</time>
      </trkpt>
      <trkpt lat="45.27384" lon="3.97113">
        <ele>839.02049680906</ele>
        <time>2021-05-28T11:49:19.463Z</time>
      </trkpt>
      <trkpt lat="45.27384" lon="3.971">
        <ele>840.02940360727</ele>
        <time>2021-05-28T11:49:24.677Z</time>
      </trkpt>
      <trkpt lat="45.27377" lon="3.97075">
        <ele>840.97432869723</ele>
        <time>2021-05-28T11:49:29.894Z</time>
      </trkpt>
      <trkpt lat="45.27364" lon="3.97051">
        <ele>841.77912835314</ele>
        <time>2021-05-28T11:49:35.116Z</time>
      </trkpt>
      <trkpt lat="45.27357" lon="3.97043">
        <ele>842.3803625938</ele>
        <time>2021-05-28T11:49:40.339Z</time>
      </trkpt>
      <trkpt lat="45.27353" lon="3.97036">
        <ele>842.83703141354</ele>
        <time>2021-05-28T11:49:45.564Z</time>
      </trkpt>
      <trkpt lat="45.27333" lon="3.96993">
        <ele>843.21572913067</ele>
        <time>2021-05-28T11:49:50.796Z</time>
      </trkpt>
      <trkpt lat="45.27326" lon="3.96989">
        <ele>843.39145989325</ele>
        <time>2021-05-28T11:49:56.029Z</time>
      </trkpt>
      <trkpt lat="45.2732" lon="3.96988">
        <ele>843.41729607364</ele>
        <time>2021-05-28T11:50:01.264Z</time>
      </trkpt>
      <trkpt lat="45.27324" lon="3.96976">
        <ele>843.33892687191</ele>
        <time>2021-05-28T11:50:06.501Z</time>
      </trkpt>
      <trkpt lat="45.27324" lon="3.96976">
        <ele>843.13329752439</ele>
        <time>2021-05-28T11:50:11.738Z</time>
      </trkpt>
      <trkpt lat="45.2732" lon="3.96988">
        <ele>843.41729607364</ele>
        <time>2021-05-28T11:50:16.976Z</time>
      </trkpt>
      <trkpt lat="45.27326" lon="3.96989">
        <ele>843.39145989325</ele>
        <time>2021-05-28T11:50:22.216Z</time>
      </trkpt>
      <trkpt lat="45.27333" lon="3.96993">
        <ele>843.21572913067</ele>
        <time>2021-05-28T11:50:27.457Z</time>
      </trkpt>
      <trkpt lat="45.27353" lon="3.97036">
        <ele>842.83703141354</ele>
        <time>2021-05-28T11:50:32.705Z</time>
      </trkpt>
      <trkpt lat="45.27357" lon="3.97043">
        <ele>842.3803625938</ele>
        <time>2021-05-28T11:50:37.955Z</time>
      </trkpt>
      <trkpt lat="45.27364" lon="3.97051">
        <ele>841.77912835314</ele>
        <time>2021-05-28T11:50:43.206Z</time>
      </trkpt>
      <trkpt lat="45.27377" lon="3.97075">
        <ele>840.97432869723</ele>
        <time>2021-05-28T11:50:48.462Z</time>
      </trkpt>
      <trkpt lat="45.27384" lon="3.971">
        <ele>840.02940360727</ele>
        <time>2021-05-28T11:50:53.722Z</time>
      </trkpt>
      <trkpt lat="45.27384" lon="3.97113">
        <ele>839.02049680906</ele>
        <time>2021-05-28T11:50:58.983Z</time>
      </trkpt>
      <trkpt lat="45.2739" lon="3.97118">
        <ele>837.91000392474</ele>
        <time>2021-05-28T11:51:04.246Z</time>
      </trkpt>
      <trkpt lat="45.27398" lon="3.97128">
        <ele>836.65378920412</ele>
        <time>2021-05-28T11:51:09.511Z</time>
      </trkpt>
      <trkpt lat="45.27416" lon="3.9716">
        <ele>835.18749454107</ele>
        <time>2021-05-28T11:51:14.782Z</time>
      </trkpt>
      <trkpt lat="45.27419" lon="3.97164">
        <ele>833.70204719536</ele>
        <time>2021-05-28T11:51:20.054Z</time>
      </trkpt>
      <trkpt lat="45.27447" lon="3.97217">
        <ele>831.9306531965</ele>
        <time>2021-05-28T11:51:25.335Z</time>
      </trkpt>
      <trkpt lat="45.27448" lon="3.97228">
        <ele>830.19498083829</ele>
        <time>2021-05-28T11:51:30.617Z</time>
      </trkpt>
      <trkpt lat="45.27444" lon="3.97233">
        <ele>828.34335449655</ele>
        <time>2021-05-28T11:51:35.900Z</time>
      </trkpt>
      <trkpt lat="45.27427" lon="3.97278">
        <ele>826.32343766641</ele>
        <time>2021-05-28T11:51:41.191Z</time>
      </trkpt>
      <trkpt lat="45.27418" lon="3.97294">
        <ele>824.20900111218</ele>
        <time>2021-05-28T11:51:46.485Z</time>
      </trkpt>
      <trkpt lat="45.27387" lon="3.97332">
        <ele>821.90663845595</ele>
        <time>2021-05-28T11:51:51.787Z</time>
      </trkpt>
      <trkpt lat="45.27366" lon="3.97362">
        <ele>819.47107497852</ele>
        <time>2021-05-28T11:51:57.095Z</time>
      </trkpt>
      <trkpt lat="45.27354" lon="3.97383">
        <ele>817.04427204599</ele>
        <time>2021-05-28T11:52:02.406Z</time>
      </trkpt>
      <trkpt lat="45.27335" lon="3.97416">
        <ele>814.50182496156</ele>
        <time>2021-05-28T11:52:07.724Z</time>
      </trkpt>
      <trkpt lat="45.27325" lon="3.97443">
        <ele>821.4895241884</ele>
        <time>2021-05-28T11:52:13.046Z</time>
      </trkpt>
      <trkpt lat="45.27312" lon="3.97486">
        <ele>820.51901850997</ele>
        <time>2021-05-28T11:52:18.374Z</time>
      </trkpt>
      <trkpt lat="45.27275" lon="3.97581">
        <ele>819.63499725932</ele>
        <time>2021-05-28T11:52:23.718Z</time>
      </trkpt>
      <trkpt lat="45.27273" lon="3.97587">
        <ele>818.7523702173</ele>
        <time>2021-05-28T11:52:29.063Z</time>
      </trkpt>
      <trkpt lat="45.2728" lon="3.97596">
        <ele>817.86145249304</ele>
        <time>2021-05-28T11:52:34.410Z</time>
      </trkpt>
      <trkpt lat="45.27289" lon="3.976">
        <ele>816.94504934641</ele>
        <time>2021-05-28T11:52:39.758Z</time>
      </trkpt>
      <trkpt lat="45.27303" lon="3.97602">
        <ele>816.00047502055</ele>
        <time>2021-05-28T11:52:45.109Z</time>
      </trkpt>
      <trkpt lat="45.27324" lon="3.9759">
        <ele>815.02791790166</ele>
        <time>2021-05-28T11:52:50.465Z</time>
      </trkpt>
      <trkpt lat="45.27328" lon="3.97589">
        <ele>813.98700984441</ele>
        <time>2021-05-28T11:52:55.822Z</time>
      </trkpt>
      <trkpt lat="45.27332" lon="3.97588">
        <ele>812.8754254106</ele>
        <time>2021-05-28T11:53:01.179Z</time>
      </trkpt>
      <trkpt lat="45.27348" lon="3.976">
        <ele>811.66022690293</ele>
        <time>2021-05-28T11:53:06.540Z</time>
      </trkpt>
      <trkpt lat="45.27348" lon="3.97601">
        <ele>810.38597346392</ele>
        <time>2021-05-28T11:53:11.901Z</time>
      </trkpt>
      <trkpt lat="45.27365" lon="3.97611">
        <ele>808.95865117509</ele>
        <time>2021-05-28T11:53:17.266Z</time>
      </trkpt>
      <trkpt lat="45.27436" lon="3.97614">
        <ele>807.02571207349</ele>
        <time>2021-05-28T11:53:22.645Z</time>
      </trkpt>
      <trkpt lat="45.27453" lon="3.97599">
        <ele>805.32631500227</ele>
        <time>2021-05-28T11:53:28.028Z</time>
      </trkpt>
      <trkpt lat="45.27503" lon="3.97597">
        <ele>803.32642293079</ele>
        <time>2021-05-28T11:53:33.421Z</time>
      </trkpt>
      <trkpt lat="45.2756" lon="3.9754">
        <ele>801.20742628447</ele>
        <time>2021-05-28T11:53:38.828Z</time>
      </trkpt>
      <trkpt lat="45.27647" lon="3.97518">
        <ele>799.2847769651</ele>
        <time>2021-05-28T11:53:44.253Z</time>
      </trkpt>
      <trkpt lat="45.27699" lon="3.97524">
        <ele>797.20468413462</ele>
        <time>2021-05-28T11:53:49.688Z</time>
      </trkpt>
      <trkpt lat="45.27749" lon="3.97503">
        <ele>794.71379896196</ele>
        <time>2021-05-28T11:53:55.134Z</time>
      </trkpt>
      <trkpt lat="45.27757" lon="3.97492">
        <ele>792.37063580127</ele>
        <time>2021-05-28T11:54:00.582Z</time>
      </trkpt>
      <trkpt lat="45.27773" lon="3.97488">
        <ele>789.80527298477</ele>
        <time>2021-05-28T11:54:06.033Z</time>
      </trkpt>
      <trkpt lat="45.27795" lon="3.97503">
        <ele>786.9971295003</ele>
        <time>2021-05-28T11:54:11.489Z</time>
      </trkpt>
      <trkpt lat="45.27836" lon="3.97514">
        <ele>784.05295525711</ele>
        <time>2021-05-28T11:54:16.953Z</time>
      </trkpt>
      <trkpt lat="45.27882" lon="3.97477">
        <ele>781.23474241239</ele>
        <time>2021-05-28T11:54:22.428Z</time>
      </trkpt>
      <trkpt lat="45.27908" lon="3.97436">
        <ele>778.15224591851</ele>
        <time>2021-05-28T11:54:27.911Z</time>
      </trkpt>
      <trkpt lat="45.27974" lon="3.97407">
        <ele>774.77259310288</ele>
        <time>2021-05-28T11:54:33.407Z</time>
      </trkpt>
      <trkpt lat="45.27983" lon="3.9741">
        <ele>771.13606135551</ele>
        <time>2021-05-28T11:54:38.905Z</time>
      </trkpt>
      <trkpt lat="45.28004" lon="3.9744">
        <ele>766.96466620096</ele>
        <time>2021-05-28T11:54:44.409Z</time>
      </trkpt>
      <trkpt lat="45.28016" lon="3.97448">
        <ele>762.88255358597</ele>
        <time>2021-05-28T11:54:49.916Z</time>
      </trkpt>
      <trkpt lat="45.28116" lon="3.97523">
        <ele>754.1393953061</ele>
        <time>2021-05-28T11:54:55.446Z</time>
      </trkpt>
      <trkpt lat="45.28149" lon="3.97531">
        <ele>749.8835565643</ele>
        <time>2021-05-28T11:55:00.982Z</time>
      </trkpt>
      <trkpt lat="45.28162" lon="3.97546">
        <ele>745.48018358973</ele>
        <time>2021-05-28T11:55:06.522Z</time>
      </trkpt>
      <trkpt lat="45.28248" lon="3.97765">
        <ele>739.14996381984</ele>
        <time>2021-05-28T11:55:12.097Z</time>
      </trkpt>
      <trkpt lat="45.28247" lon="3.9778">
        <ele>734.66521112128</ele>
        <time>2021-05-28T11:55:17.674Z</time>
      </trkpt>
      <trkpt lat="45.28257" lon="3.97805">
        <ele>730.1703844679</ele>
        <time>2021-05-28T11:55:23.255Z</time>
      </trkpt>
      <trkpt lat="45.28254" lon="3.97853">
        <ele>725.57410304865</ele>
        <time>2021-05-28T11:55:28.843Z</time>
      </trkpt>
      <trkpt lat="45.28248" lon="3.9787">
        <ele>721.29095392253</ele>
        <time>2021-05-28T11:55:34.434Z</time>
      </trkpt>
      <trkpt lat="45.28268" lon="3.9791">
        <ele>716.93015317473</ele>
        <time>2021-05-28T11:55:40.032Z</time>
      </trkpt>
      <trkpt lat="45.28295" lon="3.97931">
        <ele>712.88591522809</ele>
        <time>2021-05-28T11:55:45.636Z</time>
      </trkpt>
      <trkpt lat="45.28292" lon="3.97936">
        <ele>709.161601585</ele>
        <time>2021-05-28T11:55:51.241Z</time>
      </trkpt>
      <trkpt lat="45.28305" lon="3.97953">
        <ele>705.49259456411</ele>
        <time>2021-05-28T11:55:56.849Z</time>
      </trkpt>
      <trkpt lat="45.28319" lon="3.97994">
        <ele>701.81791064204</ele>
        <time>2021-05-28T11:56:02.464Z</time>
      </trkpt>
      <trkpt lat="45.28338" lon="3.9799">
        <ele>698.5548515942</ele>
        <time>2021-05-28T11:56:08.083Z</time>
      </trkpt>
      <trkpt lat="45.28363" lon="3.97972">
        <ele>695.4581403897</ele>
        <time>2021-05-28T11:56:13.707Z</time>
      </trkpt>
      <trkpt lat="45.28376" lon="3.97949">
        <ele>692.70793132883</ele>
        <time>2021-05-28T11:56:19.335Z</time>
      </trkpt>
      <trkpt lat="45.28376" lon="3.97923">
        <ele>690.39438100251</ele>
        <time>2021-05-28T11:56:24.967Z</time>
      </trkpt>
      <trkpt lat="45.28363" lon="3.97887">
        <ele>688.47753163067</ele>
        <time>2021-05-28T11:56:30.605Z</time>
      </trkpt>
      <trkpt lat="45.28382" lon="3.97842">
        <ele>686.25909135545</ele>
        <time>2021-05-28T11:56:36.250Z</time>
      </trkpt>
      <trkpt lat="45.28392" lon="3.97797">
        <ele>684.42918351703</ele>
        <time>2021-05-28T11:56:41.902Z</time>
      </trkpt>
      <trkpt lat="45.28405" lon="3.97757">
        <ele>682.69837757259</ele>
        <time>2021-05-28T11:56:47.560Z</time>
      </trkpt>
      <trkpt lat="45.28432" lon="3.97726">
        <ele>681.01472508042</ele>
        <time>2021-05-28T11:56:53.225Z</time>
      </trkpt>
      <trkpt lat="45.28448" lon="3.97679">
        <ele>679.64770088336</ele>
        <time>2021-05-28T11:56:58.897Z</time>
      </trkpt>
      <trkpt lat="45.28456" lon="3.97625">
        <ele>678.40844392832</ele>
        <time>2021-05-28T11:57:04.577Z</time>
      </trkpt>
      <trkpt lat="45.28468" lon="3.97578">
        <ele>677.32399630313</ele>
        <time>2021-05-28T11:57:10.264Z</time>
      </trkpt>
      <trkpt lat="45.2848" lon="3.97544">
        <ele>676.2414640823</ele>
        <time>2021-05-28T11:57:15.956Z</time>
      </trkpt>
      <trkpt lat="45.2847" lon="3.97508">
        <ele>675.69500284796</ele>
        <time>2021-05-28T11:57:21.654Z</time>
      </trkpt>
      <trkpt lat="45.28491" lon="3.97476">
        <ele>674.65134202412</ele>
        <time>2021-05-28T11:57:27.358Z</time>
      </trkpt>
      <trkpt lat="45.28501" lon="3.97441">
        <ele>673.94364169782</ele>
        <time>2021-05-28T11:57:33.067Z</time>
      </trkpt>
      <trkpt lat="45.28514" lon="3.97403">
        <ele>673.29798572058</ele>
        <time>2021-05-28T11:57:38.782Z</time>
      </trkpt>
      <trkpt lat="45.28526" lon="3.97365">
        <ele>672.76590283833</ele>
        <time>2021-05-28T11:57:44.503Z</time>
      </trkpt>
      <trkpt lat="45.28545" lon="3.97322">
        <ele>672.36397901232</ele>
        <time>2021-05-28T11:57:50.231Z</time>
      </trkpt>
      <trkpt lat="45.28562" lon="3.97281">
        <ele>672.12554370835</ele>
        <time>2021-05-28T11:57:55.966Z</time>
      </trkpt>
      <trkpt lat="45.28594" lon="3.97255">
        <ele>671.60603464836</ele>
        <time>2021-05-28T11:58:01.709Z</time>
      </trkpt>
      <trkpt lat="45.28626" lon="3.9723">
        <ele>671.20892355549</ele>
        <time>2021-05-28T11:58:07.459Z</time>
      </trkpt>
      <trkpt lat="45.28644" lon="3.97185">
        <ele>670.8763141964</ele>
        <time>2021-05-28T11:58:13.216Z</time>
      </trkpt>
      <trkpt lat="45.28649" lon="3.97151">
        <ele>670.6423391073</ele>
        <time>2021-05-28T11:58:18.978Z</time>
      </trkpt>
      <trkpt lat="45.28656" lon="3.97109">
        <ele>670.50693978409</ele>
        <time>2021-05-28T11:58:24.746Z</time>
      </trkpt>
      <trkpt lat="45.28672" lon="3.97079">
        <ele>670.51324499514</ele>
        <time>2021-05-28T11:58:30.519Z</time>
      </trkpt>
      <trkpt lat="45.28668" lon="3.9705">
        <ele>671.26245237038</ele>
        <time>2021-05-28T11:58:36.297Z</time>
      </trkpt>
      <trkpt lat="45.28677" lon="3.97023">
        <ele>672.11261584612</ele>
        <time>2021-05-28T11:58:42.079Z</time>
      </trkpt>
      <trkpt lat="45.28716" lon="3.97048">
        <ele>672.80962445699</ele>
        <time>2021-05-28T11:58:47.869Z</time>
      </trkpt>
      <trkpt lat="45.28753" lon="3.97082">
        <ele>674.07714426103</ele>
        <time>2021-05-28T11:58:53.668Z</time>
      </trkpt>
      <trkpt lat="45.28787" lon="3.97118">
        <ele>675.5816178933</ele>
        <time>2021-05-28T11:58:59.476Z</time>
      </trkpt>
      <trkpt lat="45.2881" lon="3.9716">
        <ele>677.15306200372</ele>
        <time>2021-05-28T11:59:05.291Z</time>
      </trkpt>
      <trkpt lat="45.28839" lon="3.97196">
        <ele>679.00763291012</ele>
        <time>2021-05-28T11:59:11.114Z</time>
      </trkpt>
      <trkpt lat="45.28863" lon="3.97223">
        <ele>681.06961885328</ele>
        <time>2021-05-28T11:59:16.943Z</time>
      </trkpt>
      <trkpt lat="45.28908" lon="3.97216">
        <ele>683.74108106172</ele>
        <time>2021-05-28T11:59:22.781Z</time>
      </trkpt>
      <trkpt lat="45.28933" lon="3.97236">
        <ele>686.16134171133</ele>
        <time>2021-05-28T11:59:28.625Z</time>
      </trkpt>
      <trkpt lat="45.28941" lon="3.97196">
        <ele>689.64395735452</ele>
        <time>2021-05-28T11:59:34.475Z</time>
      </trkpt>
      <trkpt lat="45.28946" lon="3.97151">
        <ele>693.45640424418</ele>
        <time>2021-05-28T11:59:40.331Z</time>
      </trkpt>
      <trkpt lat="45.28959" lon="3.97118">
        <ele>697.47168642579</ele>
        <time>2021-05-28T11:59:46.193Z</time>
      </trkpt>
      <trkpt lat="45.28999" lon="3.97082">
        <ele>701.47300419618</ele>
        <time>2021-05-28T11:59:52.064Z</time>
      </trkpt>
      <trkpt lat="45.2899" lon="3.97064">
        <ele>706.03878040443</ele>
        <time>2021-05-28T11:59:57.938Z</time>
      </trkpt>
      <trkpt lat="45.28957" lon="3.9707">
        <ele>710.69424531177</ele>
        <time>2021-05-28T12:00:03.819Z</time>
      </trkpt>
      <trkpt lat="45.28937" lon="3.97068">
        <ele>715.63847764919</ele>
        <time>2021-05-28T12:00:09.704Z</time>
      </trkpt>
      <trkpt lat="45.28913" lon="3.97064">
        <ele>720.55606355253</ele>
        <time>2021-05-28T12:00:15.594Z</time>
      </trkpt>
      <trkpt lat="45.28882" lon="3.97061">
        <ele>725.29326555363</ele>
        <time>2021-05-28T12:00:21.490Z</time>
      </trkpt>
      <trkpt lat="45.2888" lon="3.97014">
        <ele>730.88991215101</ele>
        <time>2021-05-28T12:00:27.392Z</time>
      </trkpt>
      <trkpt lat="45.28858" lon="3.9697">
        <ele>736.42957314009</ele>
        <time>2021-05-28T12:00:33.302Z</time>
      </trkpt>
      <trkpt lat="45.28839" lon="3.96931">
        <ele>741.72855412421</ele>
        <time>2021-05-28T12:00:39.219Z</time>
      </trkpt>
      <trkpt lat="45.28814" lon="3.969">
        <ele>746.98384341722</ele>
        <time>2021-05-28T12:00:45.142Z</time>
      </trkpt>
      <trkpt lat="45.28801" lon="3.96871">
        <ele>752.48025706955</ele>
        <time>2021-05-28T12:00:51.070Z</time>
      </trkpt>
      <trkpt lat="45.28788" lon="3.9684">
        <ele>757.90654564883</ele>
        <time>2021-05-28T12:00:57.003Z</time>
      </trkpt>
      <trkpt lat="45.28776" lon="3.9681">
        <ele>763.3322952168</ele>
        <time>2021-05-28T12:01:02.941Z</time>
      </trkpt>
      <trkpt lat="45.28764" lon="3.96779">
        <ele>768.76336524115</ele>
        <time>2021-05-28T12:01:08.884Z</time>
      </trkpt>
      <trkpt lat="45.28763" lon="3.96748">
        <ele>774.28191022991</ele>
        <time>2021-05-28T12:01:14.832Z</time>
      </trkpt>
      <trkpt lat="45.28768" lon="3.96718">
        <ele>779.73893291015</ele>
        <time>2021-05-28T12:01:20.784Z</time>
      </trkpt>
      <trkpt lat="45.28804" lon="3.96701">
        <ele>785.3379335476</ele>
        <time>2021-05-28T12:01:26.744Z</time>
      </trkpt>
      <trkpt lat="45.28846" lon="3.96692">
        <ele>795.72145009525</ele>
        <time>2021-05-28T12:01:32.712Z</time>
      </trkpt>
      <trkpt lat="45.28858" lon="3.96649">
        <ele>800.82761066493</ele>
        <time>2021-05-28T12:01:38.687Z</time>
      </trkpt>
      <trkpt lat="45.28844" lon="3.96608">
        <ele>806.01641484287</ele>
        <time>2021-05-28T12:01:44.668Z</time>
      </trkpt>
      <trkpt lat="45.28829" lon="3.96566">
        <ele>810.96604486037</ele>
        <time>2021-05-28T12:01:50.656Z</time>
      </trkpt>
      <trkpt lat="45.28814" lon="3.96525">
        <ele>815.8269970738</ele>
        <time>2021-05-28T12:01:56.650Z</time>
      </trkpt>
      <trkpt lat="45.28793" lon="3.96496">
        <ele>820.60998046853</ele>
        <time>2021-05-28T12:02:02.650Z</time>
      </trkpt>
      <trkpt lat="45.28772" lon="3.96467">
        <ele>825.11440980505</ele>
        <time>2021-05-28T12:02:08.656Z</time>
      </trkpt>
      <trkpt lat="45.28752" lon="3.96438">
        <ele>829.40289654248</ele>
        <time>2021-05-28T12:02:14.668Z</time>
      </trkpt>
      <trkpt lat="45.28747" lon="3.96404">
        <ele>833.40465143757</ele>
        <time>2021-05-28T12:02:20.685Z</time>
      </trkpt>
      <trkpt lat="45.2874" lon="3.96366">
        <ele>837.06718889452</ele>
        <time>2021-05-28T12:02:26.707Z</time>
      </trkpt>
      <trkpt lat="45.28739" lon="3.96328">
        <ele>840.50422639275</ele>
        <time>2021-05-28T12:02:32.734Z</time>
      </trkpt>
      <trkpt lat="45.2873" lon="3.96286">
        <ele>843.82509671695</ele>
        <time>2021-05-28T12:02:38.768Z</time>
      </trkpt>
      <trkpt lat="45.28686" lon="3.96306">
        <ele>846.90435309393</ele>
        <time>2021-05-28T12:02:44.811Z</time>
      </trkpt>
      <trkpt lat="45.28669" lon="3.96304">
        <ele>849.69450702621</ele>
        <time>2021-05-28T12:02:50.857Z</time>
      </trkpt>
      <trkpt lat="45.28651" lon="3.96295">
        <ele>852.31169656502</ele>
        <time>2021-05-28T12:02:56.907Z</time>
      </trkpt>
      <trkpt lat="45.28639" lon="3.96265">
        <ele>854.81063018351</ele>
        <time>2021-05-28T12:03:02.962Z</time>
      </trkpt>
      <trkpt lat="45.28634" lon="3.96249">
        <ele>857.08266630554</ele>
        <time>2021-05-28T12:03:09.019Z</time>
      </trkpt>
      <trkpt lat="45.28625" lon="3.96232">
        <ele>859.19561194748</ele>
        <time>2021-05-28T12:03:15.079Z</time>
      </trkpt>
      <trkpt lat="45.28618" lon="3.96211">
        <ele>861.18066054789</ele>
        <time>2021-05-28T12:03:21.143Z</time>
      </trkpt>
      <trkpt lat="45.28617" lon="3.96185">
        <ele>862.98566411485</ele>
        <time>2021-05-28T12:03:27.210Z</time>
      </trkpt>
      <trkpt lat="45.28623" lon="3.96148">
        <ele>864.7287608497</ele>
        <time>2021-05-28T12:03:33.283Z</time>
      </trkpt>
      <trkpt lat="45.28639" lon="3.96111">
        <ele>866.34544691514</ele>
        <time>2021-05-28T12:03:39.362Z</time>
      </trkpt>
      <trkpt lat="45.28645" lon="3.96072">
        <ele>867.98194889601</ele>
        <time>2021-05-28T12:03:45.447Z</time>
      </trkpt>
      <trkpt lat="45.28663" lon="3.96018">
        <ele>869.76341485045</ele>
        <time>2021-05-28T12:03:51.540Z</time>
      </trkpt>
      <trkpt lat="45.28664" lon="3.96013">
        <ele>871.16607747873</ele>
        <time>2021-05-28T12:03:57.634Z</time>
      </trkpt>
      <trkpt lat="45.28648" lon="3.95942">
        <ele>872.67517528221</ele>
        <time>2021-05-28T12:04:03.738Z</time>
      </trkpt>
      <trkpt lat="45.28643" lon="3.95881">
        <ele>874.00532987767</ele>
        <time>2021-05-28T12:04:09.851Z</time>
      </trkpt>
      <trkpt lat="45.28628" lon="3.95818">
        <ele>875.17415642135</ele>
        <time>2021-05-28T12:04:15.973Z</time>
      </trkpt>
      <trkpt lat="45.28649" lon="3.95681">
        <ele>876.35385832459</ele>
        <time>2021-05-28T12:04:22.115Z</time>
      </trkpt>
      <trkpt lat="45.2865" lon="3.95617">
        <ele>877.8665137385</ele>
        <time>2021-05-28T12:04:28.266Z</time>
      </trkpt>
      <trkpt lat="45.28645" lon="3.95566">
        <ele>879.25252345368</ele>
        <time>2021-05-28T12:04:34.424Z</time>
      </trkpt>
      <trkpt lat="45.28741" lon="3.95466">
        <ele>880.36967683267</ele>
        <time>2021-05-28T12:04:40.606Z</time>
      </trkpt>
      <trkpt lat="45.28776" lon="3.95353">
        <ele>882.17375950586</ele>
        <time>2021-05-28T12:04:46.806Z</time>
      </trkpt>
      <trkpt lat="45.28799" lon="3.95304">
        <ele>883.86307185687</ele>
        <time>2021-05-28T12:04:53.014Z</time>
      </trkpt>
      <trkpt lat="45.288" lon="3.95285">
        <ele>885.49515395224</ele>
        <time>2021-05-28T12:04:59.225Z</time>
      </trkpt>
      <trkpt lat="45.28802" lon="3.9525">
        <ele>888.94975272948</ele>
        <time>2021-05-28T12:05:05.441Z</time>
      </trkpt>
      <trkpt lat="45.28811" lon="3.95205">
        <ele>890.95090650137</ele>
        <time>2021-05-28T12:05:11.663Z</time>
      </trkpt>
      <trkpt lat="45.28825" lon="3.9516">
        <ele>892.97725940625</ele>
        <time>2021-05-28T12:05:17.892Z</time>
      </trkpt>
      <trkpt lat="45.28842" lon="3.9511">
        <ele>895.17735938419</ele>
        <time>2021-05-28T12:05:24.129Z</time>
      </trkpt>
      <trkpt lat="45.28885" lon="3.95025">
        <ele>896.73183219331</ele>
        <time>2021-05-28T12:05:30.381Z</time>
      </trkpt>
      <trkpt lat="45.28913" lon="3.9498">
        <ele>898.76977374831</ele>
        <time>2021-05-28T12:05:36.641Z</time>
      </trkpt>
      <trkpt lat="45.2897" lon="3.94918">
        <ele>901.25797148057</ele>
        <time>2021-05-28T12:05:42.916Z</time>
      </trkpt>
      <trkpt lat="45.28983" lon="3.94904">
        <ele>905.23075538</ele>
        <time>2021-05-28T12:05:49.194Z</time>
      </trkpt>
      <trkpt lat="45.29069" lon="3.94865">
        <ele>907.38858523577</ele>
        <time>2021-05-28T12:05:55.490Z</time>
      </trkpt>
      <trkpt lat="45.29086" lon="3.94849">
        <ele>909.31809089839</ele>
        <time>2021-05-28T12:06:01.790Z</time>
      </trkpt>
      <trkpt lat="45.29123" lon="3.94774">
        <ele>911.2466666024</ele>
        <time>2021-05-28T12:06:08.103Z</time>
      </trkpt>
      <trkpt lat="45.29137" lon="3.94725">
        <ele>913.19239334382</ele>
        <time>2021-05-28T12:06:14.423Z</time>
      </trkpt>
      <trkpt lat="45.29132" lon="3.94631">
        <ele>915.24525122402</ele>
        <time>2021-05-28T12:06:20.757Z</time>
      </trkpt>
      <trkpt lat="45.29156" lon="3.9454">
        <ele>917.177466091</ele>
        <time>2021-05-28T12:06:27.104Z</time>
      </trkpt>
      <trkpt lat="45.29221" lon="3.94386">
        <ele>918.92962860379</ele>
        <time>2021-05-28T12:06:33.477Z</time>
      </trkpt>
      <trkpt lat="45.29274" lon="3.94343">
        <ele>920.54032658445</ele>
        <time>2021-05-28T12:06:39.862Z</time>
      </trkpt>
      <trkpt lat="45.29309" lon="3.94302">
        <ele>923.6759405964</ele>
        <time>2021-05-28T12:06:46.256Z</time>
      </trkpt>
      <trkpt lat="45.29341" lon="3.94227">
        <ele>925.14381002079</ele>
        <time>2021-05-28T12:06:52.662Z</time>
      </trkpt>
      <trkpt lat="45.29352" lon="3.94161">
        <ele>926.63844038884</ele>
        <time>2021-05-28T12:06:59.078Z</time>
      </trkpt>
      <trkpt lat="45.29392" lon="3.94036">
        <ele>927.9444551847</ele>
        <time>2021-05-28T12:07:05.513Z</time>
      </trkpt>
      <trkpt lat="45.29414" lon="3.93918">
        <ele>929.38293464062</ele>
        <time>2021-05-28T12:07:11.966Z</time>
      </trkpt>
      <trkpt lat="45.29443" lon="3.9385">
        <ele>930.6522512652</ele>
        <time>2021-05-28T12:07:18.430Z</time>
      </trkpt>
      <trkpt lat="45.29449" lon="3.93816">
        <ele>931.93899663876</ele>
        <time>2021-05-28T12:07:24.899Z</time>
      </trkpt>
      <trkpt lat="45.29474" lon="3.93655">
        <ele>933.09389738087</ele>
        <time>2021-05-28T12:07:31.391Z</time>
      </trkpt>
      <trkpt lat="45.29487" lon="3.93574">
        <ele>934.22193171874</ele>
        <time>2021-05-28T12:07:37.895Z</time>
      </trkpt>
      <trkpt lat="45.29486" lon="3.93504">
        <ele>935.27654918354</ele>
        <time>2021-05-28T12:07:44.409Z</time>
      </trkpt>
      <trkpt lat="45.29485" lon="3.93483">
        <ele>936.26363888684</ele>
        <time>2021-05-28T12:07:50.926Z</time>
      </trkpt>
      <trkpt lat="45.2947" lon="3.93462">
        <ele>937.1970351345</ele>
        <time>2021-05-28T12:07:57.447Z</time>
      </trkpt>
      <trkpt lat="45.29502" lon="3.93304">
        <ele>938.2249335661</ele>
        <time>2021-05-28T12:08:03.991Z</time>
      </trkpt>
      <trkpt lat="45.29531" lon="3.93178">
        <ele>938.98991581888</ele>
        <time>2021-05-28T12:08:10.554Z</time>
      </trkpt>
      <trkpt lat="45.29574" lon="3.93068">
        <ele>939.83163057736</ele>
        <time>2021-05-28T12:08:17.135Z</time>
      </trkpt>
      <trkpt lat="45.29589" lon="3.9299">
        <ele>940.43354720114</ele>
        <time>2021-05-28T12:08:23.727Z</time>
      </trkpt>
      <trkpt lat="45.29645" lon="3.92828">
        <ele>940.95882469583</ele>
        <time>2021-05-28T12:08:30.344Z</time>
      </trkpt>
      <trkpt lat="45.29658" lon="3.9276">
        <ele>941.31355991819</ele>
        <time>2021-05-28T12:08:36.971Z</time>
      </trkpt>
      <trkpt lat="45.29662" lon="3.92707">
        <ele>941.41764616373</ele>
        <time>2021-05-28T12:08:43.606Z</time>
      </trkpt>
      <trkpt lat="45.29682" lon="3.9264">
        <ele>941.42842293392</ele>
        <time>2021-05-28T12:08:50.251Z</time>
      </trkpt>
      <trkpt lat="45.29744" lon="3.92522">
        <ele>941.29763759559</ele>
        <time>2021-05-28T12:08:56.917Z</time>
      </trkpt>
      <trkpt lat="45.29804" lon="3.92375">
        <ele>941.02651338479</ele>
        <time>2021-05-28T12:09:03.607Z</time>
      </trkpt>
      <trkpt lat="45.29813" lon="3.92366">
        <ele>940.60304209437</ele>
        <time>2021-05-28T12:09:10.299Z</time>
      </trkpt>
      <trkpt lat="45.2996" lon="3.92428">
        <ele>939.84643274543</ele>
        <time>2021-05-28T12:09:17.022Z</time>
      </trkpt>
      <trkpt lat="45.29993" lon="3.92396">
        <ele>939.04139760499</ele>
        <time>2021-05-28T12:09:23.753Z</time>
      </trkpt>
      <trkpt lat="45.30047" lon="3.92414">
        <ele>937.93365369404</ele>
        <time>2021-05-28T12:09:30.495Z</time>
      </trkpt>
      <trkpt lat="45.30076" lon="3.92431">
        <ele>936.7330859095</ele>
        <time>2021-05-28T12:09:37.243Z</time>
      </trkpt>
      <trkpt lat="45.30099" lon="3.9243">
        <ele>935.34053154026</ele>
        <time>2021-05-28T12:09:43.996Z</time>
      </trkpt>
      <trkpt lat="45.30125" lon="3.92433">
        <ele>933.62371975287</ele>
        <time>2021-05-28T12:09:50.754Z</time>
      </trkpt>
      <trkpt lat="45.30144" lon="3.92433">
        <ele>931.62262045673</ele>
        <time>2021-05-28T12:09:57.516Z</time>
      </trkpt>
      <trkpt lat="45.30145" lon="3.92488">
        <ele>929.64031269724</ele>
        <time>2021-05-28T12:10:04.286Z</time>
      </trkpt>
      <trkpt lat="45.30159" lon="3.92506">
        <ele>927.31903703302</ele>
        <time>2021-05-28T12:10:11.059Z</time>
      </trkpt>
      <trkpt lat="45.30174" lon="3.92521">
        <ele>924.68197720694</ele>
        <time>2021-05-28T12:10:17.836Z</time>
      </trkpt>
      <trkpt lat="45.3018" lon="3.92542">
        <ele>922.02059322587</ele>
        <time>2021-05-28T12:10:24.616Z</time>
      </trkpt>
      <trkpt lat="45.30168" lon="3.9259">
        <ele>919.35337954441</ele>
        <time>2021-05-28T12:10:31.403Z</time>
      </trkpt>
      <trkpt lat="45.30189" lon="3.92611">
        <ele>916.16030238097</ele>
        <time>2021-05-28T12:10:38.196Z</time>
      </trkpt>
      <trkpt lat="45.30204" lon="3.9261">
        <ele>912.77525732901</ele>
        <time>2021-05-28T12:10:44.992Z</time>
      </trkpt>
      <trkpt lat="45.30215" lon="3.92597">
        <ele>909.14014083118</ele>
        <time>2021-05-28T12:10:51.790Z</time>
      </trkpt>
      <trkpt lat="45.30227" lon="3.92579">
        <ele>905.10124447522</ele>
        <time>2021-05-28T12:10:58.592Z</time>
      </trkpt>
      <trkpt lat="45.30226" lon="3.92561">
        <ele>901.04568934107</ele>
        <time>2021-05-28T12:11:05.397Z</time>
      </trkpt>
      <trkpt lat="45.30239" lon="3.92539">
        <ele>896.4818566305</ele>
        <time>2021-05-28T12:11:12.206Z</time>
      </trkpt>
      <trkpt lat="45.30248" lon="3.92547">
        <ele>892.08655172567</ele>
        <time>2021-05-28T12:11:19.017Z</time>
      </trkpt>
      <trkpt lat="45.3027" lon="3.92548">
        <ele>887.29431286386</ele>
        <time>2021-05-28T12:11:25.832Z</time>
      </trkpt>
      <trkpt lat="45.3029" lon="3.9256">
        <ele>882.37277720132</ele>
        <time>2021-05-28T12:11:32.651Z</time>
      </trkpt>
      <trkpt lat="45.30316" lon="3.92558">
        <ele>877.15066789365</ele>
        <time>2021-05-28T12:11:39.476Z</time>
      </trkpt>
      <trkpt lat="45.30326" lon="3.92563">
        <ele>871.96215131337</ele>
        <time>2021-05-28T12:11:46.303Z</time>
      </trkpt>
      <trkpt lat="45.30339" lon="3.92569">
        <ele>866.56812715303</ele>
        <time>2021-05-28T12:11:53.133Z</time>
      </trkpt>
      <trkpt lat="45.3036" lon="3.92571">
        <ele>860.92116321171</ele>
        <time>2021-05-28T12:11:59.967Z</time>
      </trkpt>
      <trkpt lat="45.30374" lon="3.92572">
        <ele>855.21101709222</ele>
        <time>2021-05-28T12:12:06.804Z</time>
      </trkpt>
      <trkpt lat="45.30389" lon="3.92576">
        <ele>849.33720866174</ele>
        <time>2021-05-28T12:12:13.644Z</time>
      </trkpt>
      <trkpt lat="45.30403" lon="3.92579">
        <ele>843.34352868043</ele>
        <time>2021-05-28T12:12:20.486Z</time>
      </trkpt>
      <trkpt lat="45.30429" lon="3.92571">
        <ele>837.15206365053</ele>
        <time>2021-05-28T12:12:27.334Z</time>
      </trkpt>
      <trkpt lat="45.30445" lon="3.9257">
        <ele>830.9039505739</ele>
        <time>2021-05-28T12:12:34.185Z</time>
      </trkpt>
      <trkpt lat="45.30472" lon="3.92576">
        <ele>824.41050070743</ele>
        <time>2021-05-28T12:12:41.041Z</time>
      </trkpt>
      <trkpt lat="45.30498" lon="3.92574">
        <ele>817.73459787937</ele>
        <time>2021-05-28T12:12:47.903Z</time>
      </trkpt>
      <trkpt lat="45.30554" lon="3.92566">
        <ele>810.27872231882</ele>
        <time>2021-05-28T12:12:54.776Z</time>
      </trkpt>
      <trkpt lat="45.30593" lon="3.92557">
        <ele>803.55982846354</ele>
        <time>2021-05-28T12:13:01.657Z</time>
      </trkpt>
      <trkpt lat="45.30601" lon="3.92555">
        <ele>797.18121606148</ele>
        <time>2021-05-28T12:13:08.539Z</time>
      </trkpt>
      <trkpt lat="45.30608" lon="3.9255">
        <ele>790.86370444415</ele>
        <time>2021-05-28T12:13:15.423Z</time>
      </trkpt>
      <trkpt lat="45.30622" lon="3.92561">
        <ele>784.55819356999</ele>
        <time>2021-05-28T12:13:22.310Z</time>
      </trkpt>
      <trkpt lat="45.3076" lon="3.92527">
        <ele>777.83508200417</ele>
        <time>2021-05-28T12:13:29.225Z</time>
      </trkpt>
      <trkpt lat="45.30774" lon="3.92535">
        <ele>771.77472629465</ele>
        <time>2021-05-28T12:13:36.143Z</time>
      </trkpt>
      <trkpt lat="45.30845" lon="3.92536">
        <ele>765.5355110099</ele>
        <time>2021-05-28T12:13:43.075Z</time>
      </trkpt>
      <trkpt lat="45.30876" lon="3.92567">
        <ele>759.81392321777</ele>
        <time>2021-05-28T12:13:50.015Z</time>
      </trkpt>
      <trkpt lat="45.30873" lon="3.92601">
        <ele>754.42032948021</ele>
        <time>2021-05-28T12:13:56.960Z</time>
      </trkpt>
      <trkpt lat="45.30859" lon="3.92651">
        <ele>749.25605538293</ele>
        <time>2021-05-28T12:14:03.912Z</time>
      </trkpt>
      <trkpt lat="45.30841" lon="3.92839">
        <ele>743.96871190615</ele>
        <time>2021-05-28T12:14:10.891Z</time>
      </trkpt>
      <trkpt lat="45.30861" lon="3.92886">
        <ele>739.23665788865</ele>
        <time>2021-05-28T12:14:17.878Z</time>
      </trkpt>
      <trkpt lat="45.30949" lon="3.92936">
        <ele>734.21252282531</ele>
        <time>2021-05-28T12:14:24.884Z</time>
      </trkpt>
      <trkpt lat="45.30972" lon="3.92971">
        <ele>730.32394438801</ele>
        <time>2021-05-28T12:14:31.897Z</time>
      </trkpt>
      <trkpt lat="45.31038" lon="3.92988">
        <ele>726.73237243265</ele>
        <time>2021-05-28T12:14:38.923Z</time>
      </trkpt>
      <trkpt lat="45.31128" lon="3.92939">
        <ele>723.53383729083</ele>
        <time>2021-05-28T12:14:45.968Z</time>
      </trkpt>
      <trkpt lat="45.31218" lon="3.92861">
        <ele>721.21831324129</ele>
        <time>2021-05-28T12:14:53.034Z</time>
      </trkpt>
      <trkpt lat="45.31313" lon="3.92854">
        <ele>719.68011488204</ele>
        <time>2021-05-28T12:15:00.120Z</time>
      </trkpt>
      <trkpt lat="45.31353" lon="3.92964">
        <ele>718.96773466962</ele>
        <time>2021-05-28T12:15:07.223Z</time>
      </trkpt>
      <trkpt lat="45.31381" lon="3.92997">
        <ele>718.81580959164</ele>
        <time>2021-05-28T12:15:14.333Z</time>
      </trkpt>
      <trkpt lat="45.31403" lon="3.92999">
        <ele>719.18094682964</ele>
        <time>2021-05-28T12:15:21.448Z</time>
      </trkpt>
      <trkpt lat="45.31482" lon="3.93036">
        <ele>720.33712659672</ele>
        <time>2021-05-28T12:15:28.579Z</time>
      </trkpt>
      <trkpt lat="45.31586" lon="3.93151">
        <ele>722.2535351052</ele>
        <time>2021-05-28T12:15:35.737Z</time>
      </trkpt>
      <trkpt lat="45.31674" lon="3.93193">
        <ele>724.52012759827</ele>
        <time>2021-05-28T12:15:42.913Z</time>
      </trkpt>
      <trkpt lat="45.31773" lon="3.93178">
        <ele>727.44389810366</ele>
        <time>2021-05-28T12:15:50.109Z</time>
      </trkpt>
      <trkpt lat="45.31832" lon="3.93227">
        <ele>730.50439090155</ele>
        <time>2021-05-28T12:15:57.319Z</time>
      </trkpt>
      <trkpt lat="45.31832" lon="3.93258">
        <ele>733.79039008135</ele>
        <time>2021-05-28T12:16:04.533Z</time>
      </trkpt>
      <trkpt lat="45.31813" lon="3.93293">
        <ele>737.44044320612</ele>
        <time>2021-05-28T12:16:11.754Z</time>
      </trkpt>
      <trkpt lat="45.31828" lon="3.93308">
        <ele>741.60727790755</ele>
        <time>2021-05-28T12:16:18.978Z</time>
      </trkpt>
      <trkpt lat="45.31906" lon="3.93318">
        <ele>746.55218057659</ele>
        <time>2021-05-28T12:16:26.218Z</time>
      </trkpt>
      <trkpt lat="45.31965" lon="3.9331">
        <ele>751.46590213383</ele>
        <time>2021-05-28T12:16:33.470Z</time>
      </trkpt>
      <trkpt lat="45.3204" lon="3.93335">
        <ele>756.40166320353</ele>
        <time>2021-05-28T12:16:40.737Z</time>
      </trkpt>
      <trkpt lat="45.32071" lon="3.93371">
        <ele>761.70839003412</ele>
        <time>2021-05-28T12:16:48.012Z</time>
      </trkpt>
      <trkpt lat="45.32074" lon="3.93392">
        <ele>766.94333928555</ele>
        <time>2021-05-28T12:16:55.290Z</time>
      </trkpt>
      <trkpt lat="45.32086" lon="3.934">
        <ele>772.22939190016</ele>
        <time>2021-05-28T12:17:02.571Z</time>
      </trkpt>
      <trkpt lat="45.32131" lon="3.93408">
        <ele>777.69865827299</ele>
        <time>2021-05-28T12:17:09.861Z</time>
      </trkpt>
      <trkpt lat="45.32181" lon="3.9343">
        <ele>783.21465305795</ele>
        <time>2021-05-28T12:17:17.161Z</time>
      </trkpt>
      <trkpt lat="45.3223" lon="3.93462">
        <ele>788.9893985152</ele>
        <time>2021-05-28T12:17:24.472Z</time>
      </trkpt>
      <trkpt lat="45.32304" lon="3.93494">
        <ele>794.67424351477</ele>
        <time>2021-05-28T12:17:31.799Z</time>
      </trkpt>
      <trkpt lat="45.32323" lon="3.93506">
        <ele>799.85298894782</ele>
        <time>2021-05-28T12:17:39.130Z</time>
      </trkpt>
      <trkpt lat="45.32323" lon="3.93505">
        <ele>804.8773371046</ele>
        <time>2021-05-28T12:17:46.461Z</time>
      </trkpt>
      <trkpt lat="45.32339" lon="3.93514">
        <ele>809.85180007385</ele>
        <time>2021-05-28T12:17:53.795Z</time>
      </trkpt>
      <trkpt lat="45.3239" lon="3.93556">
        <ele>814.88697634565</ele>
        <time>2021-05-28T12:18:01.141Z</time>
      </trkpt>
      <trkpt lat="45.32432" lon="3.93596">
        <ele>819.54524657824</ele>
        <time>2021-05-28T12:18:08.497Z</time>
      </trkpt>
      <trkpt lat="45.32503" lon="3.93673">
        <ele>824.30969208133</ele>
        <time>2021-05-28T12:18:15.871Z</time>
      </trkpt>
      <trkpt lat="45.32556" lon="3.93724">
        <ele>828.6925045133</ele>
        <time>2021-05-28T12:18:23.258Z</time>
      </trkpt>
      <trkpt lat="45.32587" lon="3.9376">
        <ele>832.83213451379</ele>
        <time>2021-05-28T12:18:30.653Z</time>
      </trkpt>
      <trkpt lat="45.32634" lon="3.93804">
        <ele>836.74262247134</ele>
        <time>2021-05-28T12:18:38.059Z</time>
      </trkpt>
      <trkpt lat="45.32676" lon="3.93832">
        <ele>840.43787159086</ele>
        <time>2021-05-28T12:18:45.474Z</time>
      </trkpt>
      <trkpt lat="45.32696" lon="3.9385">
        <ele>843.72532369117</ele>
        <time>2021-05-28T12:18:52.894Z</time>
      </trkpt>
      <trkpt lat="45.32712" lon="3.93871">
        <ele>846.71336137139</ele>
        <time>2021-05-28T12:19:00.319Z</time>
      </trkpt>
      <trkpt lat="45.32724" lon="3.93904">
        <ele>849.50567994191</ele>
        <time>2021-05-28T12:19:07.749Z</time>
      </trkpt>
      <trkpt lat="45.3273" lon="3.9393">
        <ele>852.10059293795</ele>
        <time>2021-05-28T12:19:15.183Z</time>
      </trkpt>
      <trkpt lat="45.32734" lon="3.93934">
        <ele>854.25327146882</ele>
        <time>2021-05-28T12:19:22.618Z</time>
      </trkpt>
      <trkpt lat="45.32737" lon="3.93968">
        <ele>856.20520601054</ele>
        <time>2021-05-28T12:19:30.057Z</time>
      </trkpt>
      <trkpt lat="45.32745" lon="3.94005">
        <ele>857.86209149492</ele>
        <time>2021-05-28T12:19:37.502Z</time>
      </trkpt>
      <trkpt lat="45.32763" lon="3.94044">
        <ele>859.35492676777</ele>
        <time>2021-05-28T12:19:44.953Z</time>
      </trkpt>
      <trkpt lat="45.32787" lon="3.94085">
        <ele>860.71548320341</ele>
        <time>2021-05-28T12:19:52.412Z</time>
      </trkpt>
      <trkpt lat="45.32802" lon="3.94102">
        <ele>861.87154887155</ele>
        <time>2021-05-28T12:19:59.875Z</time>
      </trkpt>
      <trkpt lat="45.32802" lon="3.94102">
        <ele>862.83549882029</ele>
        <time>2021-05-28T12:20:07.338Z</time>
      </trkpt>
      <trkpt lat="45.32802" lon="3.94102">
        <ele>861.87154887155</ele>
        <time>2021-05-28T12:20:14.801Z</time>
      </trkpt>
      <trkpt lat="45.32838" lon="3.94143">
        <ele>864.39321425675</ele>
        <time>2021-05-28T12:20:22.273Z</time>
      </trkpt>
      <trkpt lat="45.32844" lon="3.94146">
        <ele>865.02624047853</ele>
        <time>2021-05-28T12:20:29.746Z</time>
      </trkpt>
      <trkpt lat="45.32844" lon="3.94146">
        <ele>865.60899977499</ele>
        <time>2021-05-28T12:20:37.219Z</time>
      </trkpt>
      <trkpt lat="45.3289" lon="3.94168">
        <ele>866.10634106321</ele>
        <time>2021-05-28T12:20:44.702Z</time>
      </trkpt>
      <trkpt lat="45.32963" lon="3.94229">
        <ele>866.45312619466</ele>
        <time>2021-05-28T12:20:52.202Z</time>
      </trkpt>
      <trkpt lat="45.33032" lon="3.94276">
        <ele>866.99271875109</ele>
        <time>2021-05-28T12:20:59.717Z</time>
      </trkpt>
      <trkpt lat="45.33134" lon="3.94382">
        <ele>867.90008665185</ele>
        <time>2021-05-28T12:21:07.258Z</time>
      </trkpt>
      <trkpt lat="45.33134" lon="3.94382">
        <ele>868.44114481822</ele>
        <time>2021-05-28T12:21:14.799Z</time>
      </trkpt>
      <trkpt lat="45.33179" lon="3.94442">
        <ele>869.13442204894</ele>
        <time>2021-05-28T12:21:22.352Z</time>
      </trkpt>
      <trkpt lat="45.33197" lon="3.94474">
        <ele>870.4907063664</ele>
        <time>2021-05-28T12:21:29.911Z</time>
      </trkpt>
      <trkpt lat="45.33203" lon="3.94588">
        <ele>872.97364920913</ele>
        <time>2021-05-28T12:21:37.486Z</time>
      </trkpt>
      <trkpt lat="45.3337" lon="3.94832">
        <ele>876.44531164457</ele>
        <time>2021-05-28T12:21:45.109Z</time>
      </trkpt>
      <trkpt lat="45.33375" lon="3.94876">
        <ele>878.48480514787</ele>
        <time>2021-05-28T12:21:52.738Z</time>
      </trkpt>
      <trkpt lat="45.33386" lon="3.94932">
        <ele>880.42795833839</ele>
        <time>2021-05-28T12:22:00.375Z</time>
      </trkpt>
      <trkpt lat="45.334" lon="3.95015">
        <ele>881.44503146361</ele>
        <time>2021-05-28T12:22:08.024Z</time>
      </trkpt>
      <trkpt lat="45.33402" lon="3.95051">
        <ele>882.61981704624</ele>
        <time>2021-05-28T12:22:15.678Z</time>
      </trkpt>
      <trkpt lat="45.33402" lon="3.95051">
        <ele>883.68149819408</ele>
        <time>2021-05-28T12:22:23.332Z</time>
      </trkpt>
      <trkpt lat="45.33405" lon="3.95098">
        <ele>884.8308493094</ele>
        <time>2021-05-28T12:22:30.993Z</time>
      </trkpt>
      <trkpt lat="45.3341" lon="3.95126">
        <ele>885.94366954963</ele>
        <time>2021-05-28T12:22:38.658Z</time>
      </trkpt>
      <trkpt lat="45.33431" lon="3.95184">
        <ele>887.12188938269</ele>
        <time>2021-05-28T12:22:46.332Z</time>
      </trkpt>
      <trkpt lat="45.33453" lon="3.95257">
        <ele>888.4468479277</ele>
        <time>2021-05-28T12:22:54.018Z</time>
      </trkpt>
      <trkpt lat="45.33458" lon="3.95271">
        <ele>889.65300954673</ele>
        <time>2021-05-28T12:23:01.706Z</time>
      </trkpt>
      <trkpt lat="45.33457" lon="3.95281">
        <ele>890.85733011716</ele>
        <time>2021-05-28T12:23:09.395Z</time>
      </trkpt>
      <trkpt lat="45.33464" lon="3.95325">
        <ele>892.17643701692</ele>
        <time>2021-05-28T12:23:17.091Z</time>
      </trkpt>
      <trkpt lat="45.33486" lon="3.95368">
        <ele>893.52477560292</ele>
        <time>2021-05-28T12:23:24.794Z</time>
      </trkpt>
      <trkpt lat="45.33503" lon="3.9542">
        <ele>894.80793969655</ele>
        <time>2021-05-28T12:23:32.505Z</time>
      </trkpt>
      <trkpt lat="45.33506" lon="3.95441">
        <ele>896.1350445859</ele>
        <time>2021-05-28T12:23:40.219Z</time>
      </trkpt>
      <trkpt lat="45.33505" lon="3.95494">
        <ele>897.52005439921</ele>
        <time>2021-05-28T12:23:47.941Z</time>
      </trkpt>
      <trkpt lat="45.33502" lon="3.95537">
        <ele>899.03562557172</ele>
        <time>2021-05-28T12:23:55.669Z</time>
      </trkpt>
      <trkpt lat="45.33504" lon="3.95555">
        <ele>900.60368207609</ele>
        <time>2021-05-28T12:24:03.399Z</time>
      </trkpt>
      <trkpt lat="45.33548" lon="3.9567">
        <ele>902.4878910504</ele>
        <time>2021-05-28T12:24:11.148Z</time>
      </trkpt>
      <trkpt lat="45.33573" lon="3.95718">
        <ele>904.18970675498</ele>
        <time>2021-05-28T12:24:18.905Z</time>
      </trkpt>
      <trkpt lat="45.3359" lon="3.95762">
        <ele>905.91478036934</ele>
        <time>2021-05-28T12:24:26.669Z</time>
      </trkpt>
      <trkpt lat="45.33613" lon="3.95792">
        <ele>907.70368082136</ele>
        <time>2021-05-28T12:24:34.440Z</time>
      </trkpt>
      <trkpt lat="45.33617" lon="3.958">
        <ele>909.43436851519</ele>
        <time>2021-05-28T12:24:42.212Z</time>
      </trkpt>
      <trkpt lat="45.33623" lon="3.95799">
        <ele>911.16297740997</ele>
        <time>2021-05-28T12:24:49.985Z</time>
      </trkpt>
      <trkpt lat="45.33631" lon="3.95831">
        <ele>913.02387669958</ele>
        <time>2021-05-28T12:24:57.763Z</time>
      </trkpt>
      <trkpt lat="45.33654" lon="3.95881">
        <ele>914.84001454236</ele>
        <time>2021-05-28T12:25:05.550Z</time>
      </trkpt>
      <trkpt lat="45.33714" lon="3.95952">
        <ele>917.10206203495</ele>
        <time>2021-05-28T12:25:13.352Z</time>
      </trkpt>
      <trkpt lat="45.33753" lon="3.96006">
        <ele>922.48604096434</ele>
        <time>2021-05-28T12:25:21.165Z</time>
      </trkpt>
      <trkpt lat="45.33799" lon="3.96115">
        <ele>925.99351711909</ele>
        <time>2021-05-28T12:25:28.996Z</time>
      </trkpt>
      <trkpt lat="45.33859" lon="3.962">
        <ele>928.95647126094</ele>
        <time>2021-05-28T12:25:36.844Z</time>
      </trkpt>
      <trkpt lat="45.33909" lon="3.96358">
        <ele>931.39419325904</ele>
        <time>2021-05-28T12:25:44.716Z</time>
      </trkpt>
      <trkpt lat="45.3402" lon="3.96452">
        <ele>934.72901005104</ele>
        <time>2021-05-28T12:25:52.614Z</time>
      </trkpt>
      <trkpt lat="45.34168" lon="3.96697">
        <ele>937.96799518351</ele>
        <time>2021-05-28T12:26:00.558Z</time>
      </trkpt>
      <trkpt lat="45.34228" lon="3.96877">
        <ele>939.51846661091</ele>
        <time>2021-05-28T12:26:08.530Z</time>
      </trkpt>
      <trkpt lat="45.3432" lon="3.9697">
        <ele>940.79023207748</ele>
        <time>2021-05-28T12:26:16.524Z</time>
      </trkpt>
      <trkpt lat="45.34332" lon="3.96987">
        <ele>941.28698407363</ele>
        <time>2021-05-28T12:26:24.522Z</time>
      </trkpt>
      <trkpt lat="45.34388" lon="3.97042">
        <ele>941.09562554685</ele>
        <time>2021-05-28T12:26:32.533Z</time>
      </trkpt>
      <trkpt lat="45.34425" lon="3.97069">
        <ele>940.96764245409</ele>
        <time>2021-05-28T12:26:40.553Z</time>
      </trkpt>
      <trkpt lat="45.34433" lon="3.97077">
        <ele>940.81982299112</ele>
        <time>2021-05-28T12:26:48.575Z</time>
      </trkpt>
      <trkpt lat="45.3445" lon="3.971">
        <ele>940.59876061152</ele>
        <time>2021-05-28T12:26:56.601Z</time>
      </trkpt>
      <trkpt lat="45.34493" lon="3.97153">
        <ele>940.25287927274</ele>
        <time>2021-05-28T12:27:04.639Z</time>
      </trkpt>
      <trkpt lat="45.3451" lon="3.97185">
        <ele>939.50863010385</ele>
        <time>2021-05-28T12:27:12.682Z</time>
      </trkpt>
      <trkpt lat="45.34521" lon="3.97198">
        <ele>938.79576442353</ele>
        <time>2021-05-28T12:27:20.728Z</time>
      </trkpt>
      <trkpt lat="45.34521" lon="3.97198">
        <ele>938.03274360516</ele>
        <time>2021-05-28T12:27:28.774Z</time>
      </trkpt>
      <trkpt lat="45.34533" lon="3.97214">
        <ele>937.1131993433</ele>
        <time>2021-05-28T12:27:36.824Z</time>
      </trkpt>
      <trkpt lat="45.34567" lon="3.97246">
        <ele>936.07608080127</ele>
        <time>2021-05-28T12:27:44.882Z</time>
      </trkpt>
      <trkpt lat="45.34595" lon="3.97276">
        <ele>934.94800531591</ele>
        <time>2021-05-28T12:27:52.947Z</time>
      </trkpt>
      <trkpt lat="45.34639" lon="3.97302">
        <ele>933.56657025296</ele>
        <time>2021-05-28T12:28:01.021Z</time>
      </trkpt>
      <trkpt lat="45.34653" lon="3.97315">
        <ele>932.36868499879</ele>
        <time>2021-05-28T12:28:09.099Z</time>
      </trkpt>
      <trkpt lat="45.34663" lon="3.97328">
        <ele>931.13889162523</ele>
        <time>2021-05-28T12:28:17.179Z</time>
      </trkpt>
      <trkpt lat="45.34669" lon="3.97352">
        <ele>929.90864827046</ele>
        <time>2021-05-28T12:28:25.263Z</time>
      </trkpt>
      <trkpt lat="45.3468" lon="3.9738">
        <ele>928.62766351598</ele>
        <time>2021-05-28T12:28:33.351Z</time>
      </trkpt>
      <trkpt lat="45.34712" lon="3.9744">
        <ele>927.27530442995</ele>
        <time>2021-05-28T12:28:41.450Z</time>
      </trkpt>
      <trkpt lat="45.3474" lon="3.97534">
        <ele>926.03338895059</ele>
        <time>2021-05-28T12:28:49.564Z</time>
      </trkpt>
      <trkpt lat="45.34753" lon="3.97566">
        <ele>924.49569308827</ele>
        <time>2021-05-28T12:28:57.683Z</time>
      </trkpt>
      <trkpt lat="45.34811" lon="3.97672">
        <ele>922.91695097464</ele>
        <time>2021-05-28T12:29:05.821Z</time>
      </trkpt>
      <trkpt lat="45.34811" lon="3.97672">
        <ele>921.14435103589</ele>
        <time>2021-05-28T12:29:13.959Z</time>
      </trkpt>
      <trkpt lat="45.3479" lon="3.97773">
        <ele>918.7775348043</ele>
        <time>2021-05-28T12:29:22.111Z</time>
      </trkpt>
      <trkpt lat="45.34776" lon="3.97831">
        <ele>916.98680589792</ele>
        <time>2021-05-28T12:29:30.272Z</time>
      </trkpt>
      <trkpt lat="45.34768" lon="3.97848">
        <ele>915.27117429991</ele>
        <time>2021-05-28T12:29:38.436Z</time>
      </trkpt>
      <trkpt lat="45.34747" lon="3.97878">
        <ele>913.47752852944</ele>
        <time>2021-05-28T12:29:46.606Z</time>
      </trkpt>
      <trkpt lat="45.3473" lon="3.97897">
        <ele>911.86522664421</ele>
        <time>2021-05-28T12:29:54.780Z</time>
      </trkpt>
      <trkpt lat="45.34667" lon="3.97943">
        <ele>910.17435428428</ele>
        <time>2021-05-28T12:30:02.968Z</time>
      </trkpt>
      <trkpt lat="45.34582" lon="3.98013">
        <ele>908.78248296113</ele>
        <time>2021-05-28T12:30:11.176Z</time>
      </trkpt>
      <trkpt lat="45.34557" lon="3.98039">
        <ele>907.44478958773</ele>
        <time>2021-05-28T12:30:19.390Z</time>
      </trkpt>
      <trkpt lat="45.3454" lon="3.98061">
        <ele>906.17969325506</ele>
        <time>2021-05-28T12:30:27.609Z</time>
      </trkpt>
      <trkpt lat="45.34524" lon="3.98088">
        <ele>905.01632454679</ele>
        <time>2021-05-28T12:30:35.833Z</time>
      </trkpt>
      <trkpt lat="45.34499" lon="3.98112">
        <ele>903.99566274143</ele>
        <time>2021-05-28T12:30:44.063Z</time>
      </trkpt>
      <trkpt lat="45.34474" lon="3.98137">
        <ele>902.99354905885</ele>
        <time>2021-05-28T12:30:52.299Z</time>
      </trkpt>
      <trkpt lat="45.34459" lon="3.98145">
        <ele>902.30801896219</ele>
        <time>2021-05-28T12:31:00.538Z</time>
      </trkpt>
      <trkpt lat="45.34432" lon="3.98151">
        <ele>901.87011210776</ele>
        <time>2021-05-28T12:31:08.783Z</time>
      </trkpt>
      <trkpt lat="45.344" lon="3.98155">
        <ele>901.79069031744</ele>
        <time>2021-05-28T12:31:17.034Z</time>
      </trkpt>
      <trkpt lat="45.34387" lon="3.98161">
        <ele>901.98692005869</ele>
        <time>2021-05-28T12:31:25.288Z</time>
      </trkpt>
      <trkpt lat="45.34375" lon="3.98174">
        <ele>902.4146533171</ele>
        <time>2021-05-28T12:31:33.545Z</time>
      </trkpt>
      <trkpt lat="45.34363" lon="3.98193">
        <ele>903.12593194403</ele>
        <time>2021-05-28T12:31:41.806Z</time>
      </trkpt>
      <trkpt lat="45.34353" lon="3.98235">
        <ele>904.04460240372</ele>
        <time>2021-05-28T12:31:50.073Z</time>
      </trkpt>
      <trkpt lat="45.34344" lon="3.98265">
        <ele>905.05732176714</ele>
        <time>2021-05-28T12:31:58.344Z</time>
      </trkpt>
      <trkpt lat="45.34315" lon="3.98321">
        <ele>906.1837410432</ele>
        <time>2021-05-28T12:32:06.625Z</time>
      </trkpt>
      <trkpt lat="45.34266" lon="3.98382">
        <ele>907.5350413063</ele>
        <time>2021-05-28T12:32:14.919Z</time>
      </trkpt>
      <trkpt lat="45.34246" lon="3.98409">
        <ele>908.73645553563</ele>
        <time>2021-05-28T12:32:23.219Z</time>
      </trkpt>
      <trkpt lat="45.34206" lon="3.9852">
        <ele>910.09044053626</ele>
        <time>2021-05-28T12:32:31.536Z</time>
      </trkpt>
      <trkpt lat="45.34187" lon="3.98555">
        <ele>911.506693349</ele>
        <time>2021-05-28T12:32:39.859Z</time>
      </trkpt>
      <trkpt lat="45.34135" lon="3.98644">
        <ele>913.00838969297</ele>
        <time>2021-05-28T12:32:48.199Z</time>
      </trkpt>
      <trkpt lat="45.34128" lon="3.98662">
        <ele>914.65334748537</ele>
        <time>2021-05-28T12:32:56.542Z</time>
      </trkpt>
      <trkpt lat="45.34124" lon="3.98682">
        <ele>916.44809405007</ele>
        <time>2021-05-28T12:33:04.888Z</time>
      </trkpt>
      <trkpt lat="45.3412" lon="3.98714">
        <ele>918.40485927895</ele>
        <time>2021-05-28T12:33:13.238Z</time>
      </trkpt>
      <trkpt lat="45.34064" lon="3.98913">
        <ele>920.77481182375</ele>
        <time>2021-05-28T12:33:21.618Z</time>
      </trkpt>
      <trkpt lat="45.34054" lon="3.98957">
        <ele>922.27151478548</ele>
        <time>2021-05-28T12:33:30.005Z</time>
      </trkpt>
      <trkpt lat="45.3405" lon="3.99001">
        <ele>923.63796298026</ele>
        <time>2021-05-28T12:33:38.398Z</time>
      </trkpt>
      <trkpt lat="45.3405" lon="3.99001">
        <ele>926.1316479752</ele>
        <time>2021-05-28T12:33:46.791Z</time>
      </trkpt>
      <trkpt lat="45.34049" lon="3.9901">
        <ele>927.33179373929</ele>
        <time>2021-05-28T12:33:55.185Z</time>
      </trkpt>
      <trkpt lat="45.34042" lon="3.99047">
        <ele>928.54904853139</ele>
        <time>2021-05-28T12:34:03.585Z</time>
      </trkpt>
      <trkpt lat="45.34032" lon="3.99087">
        <ele>929.6778734998</ele>
        <time>2021-05-28T12:34:11.991Z</time>
      </trkpt>
      <trkpt lat="45.3403" lon="3.99104">
        <ele>930.7861705694</ele>
        <time>2021-05-28T12:34:20.399Z</time>
      </trkpt>
      <trkpt lat="45.34038" lon="3.99104">
        <ele>931.9002928658</ele>
        <time>2021-05-28T12:34:28.809Z</time>
      </trkpt>
      <trkpt lat="45.34088" lon="3.99113">
        <ele>933.04578805053</ele>
        <time>2021-05-28T12:34:37.229Z</time>
      </trkpt>
      <trkpt lat="45.34102" lon="3.99113">
        <ele>933.91850542443</ele>
        <time>2021-05-28T12:34:45.652Z</time>
      </trkpt>
      <trkpt lat="45.34117" lon="3.99109">
        <ele>934.67866405212</ele>
        <time>2021-05-28T12:34:54.078Z</time>
      </trkpt>
      <trkpt lat="45.34121" lon="3.99108">
        <ele>935.29226862542</ele>
        <time>2021-05-28T12:35:02.505Z</time>
      </trkpt>
    </trkseg>
  </trk>
</gpx>